<?xml version="1.0" encoding="UTF-8" standalone="no" ?>
<gpx xmlns="http://www.topografix.com/GPX/1/1" xmlns:xsi="http://www.w3.org/2001/XMLSchema-instance" xsi:schemaLocation="http://www.topografix.com/GPX/1/1 http://www.topografix.com/GPX/1/1/gpx.xsd" version="1.1" creator="VisuGPX - https://www.visugpx.com">
  <metadata>
    <name>83 - L - Moissac Bellevue</name>
    <desc><![CDATA[83 - L - Moissac Bellevue : Régusse - circuit 
2023-12-11]]></desc>
  </metadata>
  <trk>
    <name><![CDATA[MOISSAC–BELLEVUE _ Régusse – Moissac, circuit 2023-12-11-01(1)]]></name>
    <trkseg>
      <trkpt lat="43.65558" lon="6.16239">
        <ele>591</ele>
        <time>2023-12-11T08:19:27Z</time>
      </trkpt>
      <trkpt lat="43.65558" lon="6.16238">
        <ele>591</ele>
        <time>2023-12-11T08:19:28Z</time>
      </trkpt>
      <trkpt lat="43.6556" lon="6.16225">
        <ele>589.7</ele>
        <time>2023-12-11T08:19:43Z</time>
      </trkpt>
      <trkpt lat="43.65565" lon="6.16213">
        <ele>591.3</ele>
        <time>2023-12-11T08:19:58Z</time>
      </trkpt>
      <trkpt lat="43.65574" lon="6.16211">
        <ele>590.4</ele>
        <time>2023-12-11T08:20:28Z</time>
      </trkpt>
      <trkpt lat="43.65582" lon="6.16217">
        <ele>590.3</ele>
        <time>2023-12-11T08:20:38Z</time>
      </trkpt>
      <trkpt lat="43.65587" lon="6.16228">
        <ele>590</ele>
        <time>2023-12-11T08:20:52Z</time>
      </trkpt>
      <trkpt lat="43.65595" lon="6.16235">
        <ele>590.2</ele>
        <time>2023-12-11T08:21:02Z</time>
      </trkpt>
      <trkpt lat="43.65605" lon="6.16234">
        <ele>589.7</ele>
        <time>2023-12-11T08:21:13Z</time>
      </trkpt>
      <trkpt lat="43.65614" lon="6.1623">
        <ele>590.3</ele>
        <time>2023-12-11T08:21:23Z</time>
      </trkpt>
      <trkpt lat="43.65623" lon="6.16232">
        <ele>590.7</ele>
        <time>2023-12-11T08:21:39Z</time>
      </trkpt>
      <trkpt lat="43.65631" lon="6.16238">
        <ele>590.6</ele>
        <time>2023-12-11T08:21:51Z</time>
      </trkpt>
      <trkpt lat="43.65637" lon="6.16248">
        <ele>590.9</ele>
        <time>2023-12-11T08:22:00Z</time>
      </trkpt>
      <trkpt lat="43.65645" lon="6.16254">
        <ele>591.3</ele>
        <time>2023-12-11T08:22:09Z</time>
      </trkpt>
      <trkpt lat="43.65653" lon="6.1626">
        <ele>592.1</ele>
        <time>2023-12-11T08:22:32Z</time>
      </trkpt>
      <trkpt lat="43.65663" lon="6.16262">
        <ele>592</ele>
        <time>2023-12-11T08:22:41Z</time>
      </trkpt>
      <trkpt lat="43.65672" lon="6.16265">
        <ele>592.3</ele>
        <time>2023-12-11T08:22:50Z</time>
      </trkpt>
      <trkpt lat="43.65681" lon="6.16268">
        <ele>593.9</ele>
        <time>2023-12-11T08:22:58Z</time>
      </trkpt>
      <trkpt lat="43.65691" lon="6.1627">
        <ele>592.9</ele>
        <time>2023-12-11T08:23:09Z</time>
      </trkpt>
      <trkpt lat="43.65701" lon="6.16271">
        <ele>592.4</ele>
        <time>2023-12-11T08:23:17Z</time>
      </trkpt>
      <trkpt lat="43.6571" lon="6.16272">
        <ele>592</ele>
        <time>2023-12-11T08:23:26Z</time>
      </trkpt>
      <trkpt lat="43.6572" lon="6.16273">
        <ele>593.3</ele>
        <time>2023-12-11T08:23:34Z</time>
      </trkpt>
      <trkpt lat="43.65729" lon="6.16277">
        <ele>593.7</ele>
        <time>2023-12-11T08:23:49Z</time>
      </trkpt>
      <trkpt lat="43.65738" lon="6.16281">
        <ele>593.8</ele>
        <time>2023-12-11T08:23:58Z</time>
      </trkpt>
      <trkpt lat="43.65748" lon="6.16282">
        <ele>594.5</ele>
        <time>2023-12-11T08:24:07Z</time>
      </trkpt>
      <trkpt lat="43.65757" lon="6.16285">
        <ele>594.5</ele>
        <time>2023-12-11T08:24:15Z</time>
      </trkpt>
      <trkpt lat="43.65766" lon="6.16288">
        <ele>596.6</ele>
        <time>2023-12-11T08:24:23Z</time>
      </trkpt>
      <trkpt lat="43.65775" lon="6.16293">
        <ele>595.4</ele>
        <time>2023-12-11T08:24:34Z</time>
      </trkpt>
      <trkpt lat="43.65784" lon="6.16291">
        <ele>595</ele>
        <time>2023-12-11T08:24:43Z</time>
      </trkpt>
      <trkpt lat="43.65794" lon="6.16293">
        <ele>596.9</ele>
        <time>2023-12-11T08:24:55Z</time>
      </trkpt>
      <trkpt lat="43.65803" lon="6.16293">
        <ele>595</ele>
        <time>2023-12-11T08:25:04Z</time>
      </trkpt>
      <trkpt lat="43.65813" lon="6.16294">
        <ele>595.3</ele>
        <time>2023-12-11T08:25:12Z</time>
      </trkpt>
      <trkpt lat="43.65823" lon="6.16293">
        <ele>594.8</ele>
        <time>2023-12-11T08:25:22Z</time>
      </trkpt>
      <trkpt lat="43.65833" lon="6.16294">
        <ele>594.6</ele>
        <time>2023-12-11T08:25:30Z</time>
      </trkpt>
      <trkpt lat="43.65842" lon="6.16294">
        <ele>594.8</ele>
        <time>2023-12-11T08:25:44Z</time>
      </trkpt>
      <trkpt lat="43.65851" lon="6.16298">
        <ele>594.1</ele>
        <time>2023-12-11T08:25:53Z</time>
      </trkpt>
      <trkpt lat="43.65861" lon="6.16304">
        <ele>595.8</ele>
        <time>2023-12-11T08:26:03Z</time>
      </trkpt>
      <trkpt lat="43.65868" lon="6.16311">
        <ele>595.4</ele>
        <time>2023-12-11T08:26:11Z</time>
      </trkpt>
      <trkpt lat="43.65878" lon="6.16316">
        <ele>594.7</ele>
        <time>2023-12-11T08:26:21Z</time>
      </trkpt>
      <trkpt lat="43.65884" lon="6.16324">
        <ele>596.1</ele>
        <time>2023-12-11T08:26:44Z</time>
      </trkpt>
      <trkpt lat="43.65894" lon="6.16327">
        <ele>595.1</ele>
        <time>2023-12-11T08:27:00Z</time>
      </trkpt>
      <trkpt lat="43.65903" lon="6.16324">
        <ele>595.9</ele>
        <time>2023-12-11T08:27:14Z</time>
      </trkpt>
      <trkpt lat="43.65912" lon="6.16328">
        <ele>598.2</ele>
        <time>2023-12-11T08:27:24Z</time>
      </trkpt>
      <trkpt lat="43.65922" lon="6.1633">
        <ele>598.5</ele>
        <time>2023-12-11T08:27:32Z</time>
      </trkpt>
      <trkpt lat="43.6593" lon="6.16336">
        <ele>598</ele>
        <time>2023-12-11T08:27:41Z</time>
      </trkpt>
      <trkpt lat="43.65939" lon="6.16341">
        <ele>597.8</ele>
        <time>2023-12-11T08:27:50Z</time>
      </trkpt>
      <trkpt lat="43.65948" lon="6.16345">
        <ele>597.8</ele>
        <time>2023-12-11T08:28:00Z</time>
      </trkpt>
      <trkpt lat="43.65956" lon="6.1635">
        <ele>597.6</ele>
        <time>2023-12-11T08:28:08Z</time>
      </trkpt>
      <trkpt lat="43.65967" lon="6.16352">
        <ele>597.5</ele>
        <time>2023-12-11T08:28:15Z</time>
      </trkpt>
      <trkpt lat="43.65977" lon="6.16354">
        <ele>597.2</ele>
        <time>2023-12-11T08:28:26Z</time>
      </trkpt>
      <trkpt lat="43.65988" lon="6.16357">
        <ele>597.7</ele>
        <time>2023-12-11T08:28:33Z</time>
      </trkpt>
      <trkpt lat="43.65993" lon="6.16368">
        <ele>597.9</ele>
        <time>2023-12-11T08:28:41Z</time>
      </trkpt>
      <trkpt lat="43.65998" lon="6.16379">
        <ele>598.2</ele>
        <time>2023-12-11T08:28:50Z</time>
      </trkpt>
      <trkpt lat="43.66004" lon="6.1639">
        <ele>598.9</ele>
        <time>2023-12-11T08:29:00Z</time>
      </trkpt>
      <trkpt lat="43.66006" lon="6.16403">
        <ele>599.4</ele>
        <time>2023-12-11T08:29:10Z</time>
      </trkpt>
      <trkpt lat="43.66011" lon="6.16414">
        <ele>600.4</ele>
        <time>2023-12-11T08:29:20Z</time>
      </trkpt>
      <trkpt lat="43.66017" lon="6.16425">
        <ele>601</ele>
        <time>2023-12-11T08:29:32Z</time>
      </trkpt>
      <trkpt lat="43.66024" lon="6.16433">
        <ele>601.8</ele>
        <time>2023-12-11T08:29:42Z</time>
      </trkpt>
      <trkpt lat="43.66034" lon="6.16433">
        <ele>602.4</ele>
        <time>2023-12-11T08:29:53Z</time>
      </trkpt>
      <trkpt lat="43.66041" lon="6.16426">
        <ele>603.4</ele>
        <time>2023-12-11T08:30:03Z</time>
      </trkpt>
      <trkpt lat="43.66048" lon="6.16418">
        <ele>604.1</ele>
        <time>2023-12-11T08:30:16Z</time>
      </trkpt>
      <trkpt lat="43.66056" lon="6.1641">
        <ele>604.3</ele>
        <time>2023-12-11T08:30:27Z</time>
      </trkpt>
      <trkpt lat="43.66064" lon="6.16402">
        <ele>604.3</ele>
        <time>2023-12-11T08:30:36Z</time>
      </trkpt>
      <trkpt lat="43.66073" lon="6.16399">
        <ele>604.6</ele>
        <time>2023-12-11T08:30:46Z</time>
      </trkpt>
      <trkpt lat="43.66083" lon="6.16402">
        <ele>605</ele>
        <time>2023-12-11T08:30:55Z</time>
      </trkpt>
      <trkpt lat="43.66092" lon="6.16408">
        <ele>605.5</ele>
        <time>2023-12-11T08:31:03Z</time>
      </trkpt>
      <trkpt lat="43.661" lon="6.16414">
        <ele>605.8</ele>
        <time>2023-12-11T08:31:11Z</time>
      </trkpt>
      <trkpt lat="43.66104" lon="6.16426">
        <ele>606.6</ele>
        <time>2023-12-11T08:31:21Z</time>
      </trkpt>
      <trkpt lat="43.66105" lon="6.16439">
        <ele>607.8</ele>
        <time>2023-12-11T08:31:37Z</time>
      </trkpt>
      <trkpt lat="43.66108" lon="6.16451">
        <ele>608.4</ele>
        <time>2023-12-11T08:31:46Z</time>
      </trkpt>
      <trkpt lat="43.66111" lon="6.16464">
        <ele>608.9</ele>
        <time>2023-12-11T08:31:55Z</time>
      </trkpt>
      <trkpt lat="43.66113" lon="6.16477">
        <ele>610</ele>
        <time>2023-12-11T08:32:05Z</time>
      </trkpt>
      <trkpt lat="43.66116" lon="6.1649">
        <ele>608.4</ele>
        <time>2023-12-11T08:32:14Z</time>
      </trkpt>
      <trkpt lat="43.66119" lon="6.16503">
        <ele>611.3</ele>
        <time>2023-12-11T08:32:23Z</time>
      </trkpt>
      <trkpt lat="43.66122" lon="6.16515">
        <ele>612.2</ele>
        <time>2023-12-11T08:32:32Z</time>
      </trkpt>
      <trkpt lat="43.66126" lon="6.16528">
        <ele>611.7</ele>
        <time>2023-12-11T08:32:41Z</time>
      </trkpt>
      <trkpt lat="43.6613" lon="6.16539">
        <ele>612.4</ele>
        <time>2023-12-11T08:32:52Z</time>
      </trkpt>
      <trkpt lat="43.66134" lon="6.16551">
        <ele>612.3</ele>
        <time>2023-12-11T08:33:01Z</time>
      </trkpt>
      <trkpt lat="43.6614" lon="6.16562">
        <ele>612.3</ele>
        <time>2023-12-11T08:33:10Z</time>
      </trkpt>
      <trkpt lat="43.66145" lon="6.16573">
        <ele>612.2</ele>
        <time>2023-12-11T08:33:19Z</time>
      </trkpt>
      <trkpt lat="43.6615" lon="6.16584">
        <ele>612</ele>
        <time>2023-12-11T08:33:28Z</time>
      </trkpt>
      <trkpt lat="43.66157" lon="6.16594">
        <ele>612</ele>
        <time>2023-12-11T08:33:37Z</time>
      </trkpt>
      <trkpt lat="43.66163" lon="6.16605">
        <ele>612.2</ele>
        <time>2023-12-11T08:33:46Z</time>
      </trkpt>
      <trkpt lat="43.66168" lon="6.16616">
        <ele>612.1</ele>
        <time>2023-12-11T08:33:56Z</time>
      </trkpt>
      <trkpt lat="43.66172" lon="6.16628">
        <ele>611.9</ele>
        <time>2023-12-11T08:34:09Z</time>
      </trkpt>
      <trkpt lat="43.66177" lon="6.1664">
        <ele>611.9</ele>
        <time>2023-12-11T08:34:19Z</time>
      </trkpt>
      <trkpt lat="43.66181" lon="6.16652">
        <ele>611.7</ele>
        <time>2023-12-11T08:34:31Z</time>
      </trkpt>
      <trkpt lat="43.66185" lon="6.16664">
        <ele>612.2</ele>
        <time>2023-12-11T08:35:06Z</time>
      </trkpt>
      <trkpt lat="43.66187" lon="6.16678">
        <ele>612.9</ele>
        <time>2023-12-11T08:35:15Z</time>
      </trkpt>
      <trkpt lat="43.66185" lon="6.1669">
        <ele>613.3</ele>
        <time>2023-12-11T08:35:22Z</time>
      </trkpt>
      <trkpt lat="43.66185" lon="6.16703">
        <ele>612.4</ele>
        <time>2023-12-11T08:35:30Z</time>
      </trkpt>
      <trkpt lat="43.66187" lon="6.16716">
        <ele>611.7</ele>
        <time>2023-12-11T08:35:39Z</time>
      </trkpt>
      <trkpt lat="43.66188" lon="6.1673">
        <ele>611.3</ele>
        <time>2023-12-11T08:35:47Z</time>
      </trkpt>
      <trkpt lat="43.66188" lon="6.16745">
        <ele>611.2</ele>
        <time>2023-12-11T08:35:56Z</time>
      </trkpt>
      <trkpt lat="43.66189" lon="6.16757">
        <ele>610.9</ele>
        <time>2023-12-11T08:36:03Z</time>
      </trkpt>
      <trkpt lat="43.66188" lon="6.16771">
        <ele>610.8</ele>
        <time>2023-12-11T08:36:11Z</time>
      </trkpt>
      <trkpt lat="43.66189" lon="6.16784">
        <ele>610.8</ele>
        <time>2023-12-11T08:36:19Z</time>
      </trkpt>
      <trkpt lat="43.6619" lon="6.16797">
        <ele>610.8</ele>
        <time>2023-12-11T08:36:29Z</time>
      </trkpt>
      <trkpt lat="43.66191" lon="6.16811">
        <ele>610.4</ele>
        <time>2023-12-11T08:36:38Z</time>
      </trkpt>
      <trkpt lat="43.66191" lon="6.16823">
        <ele>610.3</ele>
        <time>2023-12-11T08:36:48Z</time>
      </trkpt>
      <trkpt lat="43.6619" lon="6.16836">
        <ele>610.6</ele>
        <time>2023-12-11T08:37:15Z</time>
      </trkpt>
      <trkpt lat="43.66189" lon="6.16849">
        <ele>610.3</ele>
        <time>2023-12-11T08:37:25Z</time>
      </trkpt>
      <trkpt lat="43.66191" lon="6.16862">
        <ele>610.6</ele>
        <time>2023-12-11T08:37:35Z</time>
      </trkpt>
      <trkpt lat="43.66191" lon="6.16874">
        <ele>610.8</ele>
        <time>2023-12-11T08:37:44Z</time>
      </trkpt>
      <trkpt lat="43.66192" lon="6.16888">
        <ele>610.9</ele>
        <time>2023-12-11T08:37:54Z</time>
      </trkpt>
      <trkpt lat="43.66193" lon="6.16901">
        <ele>611.1</ele>
        <time>2023-12-11T08:38:03Z</time>
      </trkpt>
      <trkpt lat="43.66195" lon="6.16914">
        <ele>611.4</ele>
        <time>2023-12-11T08:38:17Z</time>
      </trkpt>
      <trkpt lat="43.66195" lon="6.16927">
        <ele>611.3</ele>
        <time>2023-12-11T08:38:25Z</time>
      </trkpt>
      <trkpt lat="43.66193" lon="6.16941">
        <ele>611.2</ele>
        <time>2023-12-11T08:39:02Z</time>
      </trkpt>
      <trkpt lat="43.66192" lon="6.16953">
        <ele>612.2</ele>
        <time>2023-12-11T08:39:11Z</time>
      </trkpt>
      <trkpt lat="43.66192" lon="6.16967">
        <ele>612.3</ele>
        <time>2023-12-11T08:39:19Z</time>
      </trkpt>
      <trkpt lat="43.66191" lon="6.1698">
        <ele>612</ele>
        <time>2023-12-11T08:39:27Z</time>
      </trkpt>
      <trkpt lat="43.66191" lon="6.16993">
        <ele>613.8</ele>
        <time>2023-12-11T08:39:34Z</time>
      </trkpt>
      <trkpt lat="43.66188" lon="6.17004">
        <ele>613.1</ele>
        <time>2023-12-11T08:39:42Z</time>
      </trkpt>
      <trkpt lat="43.66184" lon="6.17016">
        <ele>612.8</ele>
        <time>2023-12-11T08:39:48Z</time>
      </trkpt>
      <trkpt lat="43.66179" lon="6.17028">
        <ele>612.8</ele>
        <time>2023-12-11T08:39:56Z</time>
      </trkpt>
      <trkpt lat="43.66175" lon="6.1704">
        <ele>612.9</ele>
        <time>2023-12-11T08:40:04Z</time>
      </trkpt>
      <trkpt lat="43.66171" lon="6.17052">
        <ele>613.3</ele>
        <time>2023-12-11T08:40:11Z</time>
      </trkpt>
      <trkpt lat="43.66165" lon="6.17062">
        <ele>613.4</ele>
        <time>2023-12-11T08:40:19Z</time>
      </trkpt>
      <trkpt lat="43.66162" lon="6.17073">
        <ele>613.5</ele>
        <time>2023-12-11T08:40:27Z</time>
      </trkpt>
      <trkpt lat="43.66158" lon="6.17085">
        <ele>613.6</ele>
        <time>2023-12-11T08:40:35Z</time>
      </trkpt>
      <trkpt lat="43.66155" lon="6.17097">
        <ele>614.1</ele>
        <time>2023-12-11T08:40:43Z</time>
      </trkpt>
      <trkpt lat="43.66154" lon="6.1711">
        <ele>614.4</ele>
        <time>2023-12-11T08:40:52Z</time>
      </trkpt>
      <trkpt lat="43.6615" lon="6.17122">
        <ele>614.6</ele>
        <time>2023-12-11T08:41:01Z</time>
      </trkpt>
      <trkpt lat="43.66144" lon="6.17134">
        <ele>615</ele>
        <time>2023-12-11T08:41:09Z</time>
      </trkpt>
      <trkpt lat="43.66141" lon="6.17146">
        <ele>615.3</ele>
        <time>2023-12-11T08:41:17Z</time>
      </trkpt>
      <trkpt lat="43.66137" lon="6.17157">
        <ele>615.6</ele>
        <time>2023-12-11T08:41:25Z</time>
      </trkpt>
      <trkpt lat="43.66132" lon="6.17168">
        <ele>615.8</ele>
        <time>2023-12-11T08:41:33Z</time>
      </trkpt>
      <trkpt lat="43.66128" lon="6.1718">
        <ele>616</ele>
        <time>2023-12-11T08:41:41Z</time>
      </trkpt>
      <trkpt lat="43.66125" lon="6.17192">
        <ele>616.1</ele>
        <time>2023-12-11T08:41:51Z</time>
      </trkpt>
      <trkpt lat="43.66121" lon="6.17203">
        <ele>616.7</ele>
        <time>2023-12-11T08:42:05Z</time>
      </trkpt>
      <trkpt lat="43.66116" lon="6.17215">
        <ele>616.5</ele>
        <time>2023-12-11T08:42:14Z</time>
      </trkpt>
      <trkpt lat="43.66111" lon="6.17225">
        <ele>617.2</ele>
        <time>2023-12-11T08:42:22Z</time>
      </trkpt>
      <trkpt lat="43.66108" lon="6.17238">
        <ele>617.3</ele>
        <time>2023-12-11T08:42:30Z</time>
      </trkpt>
      <trkpt lat="43.66104" lon="6.17249">
        <ele>617.5</ele>
        <time>2023-12-11T08:42:40Z</time>
      </trkpt>
      <trkpt lat="43.66099" lon="6.17261">
        <ele>618.3</ele>
        <time>2023-12-11T08:42:55Z</time>
      </trkpt>
      <trkpt lat="43.66098" lon="6.17274">
        <ele>618.2</ele>
        <time>2023-12-11T08:43:04Z</time>
      </trkpt>
      <trkpt lat="43.66097" lon="6.17287">
        <ele>618.4</ele>
        <time>2023-12-11T08:43:13Z</time>
      </trkpt>
      <trkpt lat="43.66095" lon="6.17299">
        <ele>618.6</ele>
        <time>2023-12-11T08:43:21Z</time>
      </trkpt>
      <trkpt lat="43.66092" lon="6.17312">
        <ele>618.9</ele>
        <time>2023-12-11T08:43:31Z</time>
      </trkpt>
      <trkpt lat="43.6609" lon="6.17325">
        <ele>618.9</ele>
        <time>2023-12-11T08:43:40Z</time>
      </trkpt>
      <trkpt lat="43.66088" lon="6.17337">
        <ele>621.2</ele>
        <time>2023-12-11T08:43:48Z</time>
      </trkpt>
      <trkpt lat="43.66084" lon="6.17349">
        <ele>621.5</ele>
        <time>2023-12-11T08:43:56Z</time>
      </trkpt>
      <trkpt lat="43.6608" lon="6.1736">
        <ele>620.6</ele>
        <time>2023-12-11T08:44:11Z</time>
      </trkpt>
      <trkpt lat="43.66076" lon="6.17371">
        <ele>620.5</ele>
        <time>2023-12-11T08:44:19Z</time>
      </trkpt>
      <trkpt lat="43.66073" lon="6.17385">
        <ele>620.7</ele>
        <time>2023-12-11T08:44:28Z</time>
      </trkpt>
      <trkpt lat="43.66072" lon="6.17398">
        <ele>620.5</ele>
        <time>2023-12-11T08:44:37Z</time>
      </trkpt>
      <trkpt lat="43.66073" lon="6.17411">
        <ele>620.2</ele>
        <time>2023-12-11T08:44:46Z</time>
      </trkpt>
      <trkpt lat="43.66073" lon="6.17423">
        <ele>621.3</ele>
        <time>2023-12-11T08:45:14Z</time>
      </trkpt>
      <trkpt lat="43.66081" lon="6.17415">
        <ele>620.9</ele>
        <time>2023-12-11T08:50:24Z</time>
      </trkpt>
      <trkpt lat="43.66089" lon="6.17406">
        <ele>620.8</ele>
        <time>2023-12-11T08:50:33Z</time>
      </trkpt>
      <trkpt lat="43.66096" lon="6.17398">
        <ele>619.9</ele>
        <time>2023-12-11T08:50:43Z</time>
      </trkpt>
      <trkpt lat="43.66103" lon="6.1739">
        <ele>621.2</ele>
        <time>2023-12-11T08:50:51Z</time>
      </trkpt>
      <trkpt lat="43.66111" lon="6.17381">
        <ele>621.4</ele>
        <time>2023-12-11T08:51:00Z</time>
      </trkpt>
      <trkpt lat="43.66118" lon="6.17373">
        <ele>621.3</ele>
        <time>2023-12-11T08:51:11Z</time>
      </trkpt>
      <trkpt lat="43.66125" lon="6.17365">
        <ele>620.8</ele>
        <time>2023-12-11T08:51:20Z</time>
      </trkpt>
      <trkpt lat="43.66132" lon="6.17355">
        <ele>620.9</ele>
        <time>2023-12-11T08:51:30Z</time>
      </trkpt>
      <trkpt lat="43.66139" lon="6.17347">
        <ele>621.3</ele>
        <time>2023-12-11T08:51:39Z</time>
      </trkpt>
      <trkpt lat="43.66146" lon="6.17337">
        <ele>621.2</ele>
        <time>2023-12-11T08:51:50Z</time>
      </trkpt>
      <trkpt lat="43.66153" lon="6.17328">
        <ele>620.9</ele>
        <time>2023-12-11T08:51:59Z</time>
      </trkpt>
      <trkpt lat="43.6616" lon="6.17319">
        <ele>621</ele>
        <time>2023-12-11T08:52:09Z</time>
      </trkpt>
      <trkpt lat="43.66167" lon="6.1731">
        <ele>621.1</ele>
        <time>2023-12-11T08:52:20Z</time>
      </trkpt>
      <trkpt lat="43.66174" lon="6.17301">
        <ele>621.3</ele>
        <time>2023-12-11T08:52:31Z</time>
      </trkpt>
      <trkpt lat="43.66183" lon="6.17295">
        <ele>621.1</ele>
        <time>2023-12-11T08:52:38Z</time>
      </trkpt>
      <trkpt lat="43.66191" lon="6.1729">
        <ele>621.2</ele>
        <time>2023-12-11T08:52:48Z</time>
      </trkpt>
      <trkpt lat="43.66199" lon="6.17282">
        <ele>621.9</ele>
        <time>2023-12-11T08:52:58Z</time>
      </trkpt>
      <trkpt lat="43.66206" lon="6.17274">
        <ele>621</ele>
        <time>2023-12-11T08:53:08Z</time>
      </trkpt>
      <trkpt lat="43.66214" lon="6.17267">
        <ele>622.1</ele>
        <time>2023-12-11T08:53:18Z</time>
      </trkpt>
      <trkpt lat="43.66222" lon="6.17259">
        <ele>622.6</ele>
        <time>2023-12-11T08:53:29Z</time>
      </trkpt>
      <trkpt lat="43.66231" lon="6.17254">
        <ele>622.6</ele>
        <time>2023-12-11T08:53:39Z</time>
      </trkpt>
      <trkpt lat="43.66239" lon="6.17248">
        <ele>622.2</ele>
        <time>2023-12-11T08:53:49Z</time>
      </trkpt>
      <trkpt lat="43.66248" lon="6.1724">
        <ele>622.7</ele>
        <time>2023-12-11T08:54:00Z</time>
      </trkpt>
      <trkpt lat="43.66256" lon="6.17233">
        <ele>622.6</ele>
        <time>2023-12-11T08:54:09Z</time>
      </trkpt>
      <trkpt lat="43.66264" lon="6.17227">
        <ele>622.8</ele>
        <time>2023-12-11T08:54:18Z</time>
      </trkpt>
      <trkpt lat="43.66273" lon="6.1722">
        <ele>623.3</ele>
        <time>2023-12-11T08:54:46Z</time>
      </trkpt>
      <trkpt lat="43.66282" lon="6.17214">
        <ele>622.7</ele>
        <time>2023-12-11T08:54:56Z</time>
      </trkpt>
      <trkpt lat="43.6629" lon="6.17208">
        <ele>622.3</ele>
        <time>2023-12-11T08:55:06Z</time>
      </trkpt>
      <trkpt lat="43.66298" lon="6.172">
        <ele>623.2</ele>
        <time>2023-12-11T08:55:23Z</time>
      </trkpt>
      <trkpt lat="43.66307" lon="6.17195">
        <ele>621.9</ele>
        <time>2023-12-11T08:55:33Z</time>
      </trkpt>
      <trkpt lat="43.66313" lon="6.17185">
        <ele>623</ele>
        <time>2023-12-11T08:55:48Z</time>
      </trkpt>
      <trkpt lat="43.66322" lon="6.17182">
        <ele>623.9</ele>
        <time>2023-12-11T08:56:00Z</time>
      </trkpt>
      <trkpt lat="43.66331" lon="6.1718">
        <ele>625.5</ele>
        <time>2023-12-11T08:56:13Z</time>
      </trkpt>
      <trkpt lat="43.66341" lon="6.17176">
        <ele>624.5</ele>
        <time>2023-12-11T08:56:25Z</time>
      </trkpt>
      <trkpt lat="43.6635" lon="6.17176">
        <ele>624.4</ele>
        <time>2023-12-11T08:56:38Z</time>
      </trkpt>
      <trkpt lat="43.6636" lon="6.17176">
        <ele>626.6</ele>
        <time>2023-12-11T08:56:52Z</time>
      </trkpt>
      <trkpt lat="43.66369" lon="6.17177">
        <ele>624.5</ele>
        <time>2023-12-11T08:57:01Z</time>
      </trkpt>
      <trkpt lat="43.66378" lon="6.17176">
        <ele>627</ele>
        <time>2023-12-11T08:57:12Z</time>
      </trkpt>
      <trkpt lat="43.66388" lon="6.17176">
        <ele>626.2</ele>
        <time>2023-12-11T08:57:27Z</time>
      </trkpt>
      <trkpt lat="43.66398" lon="6.17175">
        <ele>626.8</ele>
        <time>2023-12-11T08:57:39Z</time>
      </trkpt>
      <trkpt lat="43.66407" lon="6.17175">
        <ele>626.7</ele>
        <time>2023-12-11T08:57:48Z</time>
      </trkpt>
      <trkpt lat="43.66417" lon="6.17179">
        <ele>626.9</ele>
        <time>2023-12-11T08:57:56Z</time>
      </trkpt>
      <trkpt lat="43.66427" lon="6.17181">
        <ele>627.2</ele>
        <time>2023-12-11T08:58:06Z</time>
      </trkpt>
      <trkpt lat="43.66436" lon="6.17185">
        <ele>627.4</ele>
        <time>2023-12-11T08:58:16Z</time>
      </trkpt>
      <trkpt lat="43.66446" lon="6.17185">
        <ele>626.9</ele>
        <time>2023-12-11T08:58:27Z</time>
      </trkpt>
      <trkpt lat="43.66455" lon="6.17188">
        <ele>628.3</ele>
        <time>2023-12-11T08:58:37Z</time>
      </trkpt>
      <trkpt lat="43.66465" lon="6.1719">
        <ele>628.3</ele>
        <time>2023-12-11T08:58:51Z</time>
      </trkpt>
      <trkpt lat="43.66474" lon="6.17189">
        <ele>628.5</ele>
        <time>2023-12-11T08:59:04Z</time>
      </trkpt>
      <trkpt lat="43.66484" lon="6.17189">
        <ele>629.7</ele>
        <time>2023-12-11T08:59:24Z</time>
      </trkpt>
      <trkpt lat="43.66492" lon="6.17183">
        <ele>629.6</ele>
        <time>2023-12-11T08:59:38Z</time>
      </trkpt>
      <trkpt lat="43.66502" lon="6.17184">
        <ele>630.1</ele>
        <time>2023-12-11T09:00:16Z</time>
      </trkpt>
      <trkpt lat="43.66511" lon="6.17182">
        <ele>629.9</ele>
        <time>2023-12-11T09:00:27Z</time>
      </trkpt>
      <trkpt lat="43.66521" lon="6.17179">
        <ele>630.1</ele>
        <time>2023-12-11T09:00:40Z</time>
      </trkpt>
      <trkpt lat="43.6653" lon="6.17176">
        <ele>630.9</ele>
        <time>2023-12-11T09:00:50Z</time>
      </trkpt>
      <trkpt lat="43.66539" lon="6.1718">
        <ele>631.4</ele>
        <time>2023-12-11T09:01:08Z</time>
      </trkpt>
      <trkpt lat="43.66548" lon="6.17184">
        <ele>633.5</ele>
        <time>2023-12-11T09:01:19Z</time>
      </trkpt>
      <trkpt lat="43.66556" lon="6.1719">
        <ele>632.2</ele>
        <time>2023-12-11T09:01:46Z</time>
      </trkpt>
      <trkpt lat="43.66566" lon="6.17193">
        <ele>631.8</ele>
        <time>2023-12-11T09:01:56Z</time>
      </trkpt>
      <trkpt lat="43.66575" lon="6.17196">
        <ele>631.5</ele>
        <time>2023-12-11T09:02:07Z</time>
      </trkpt>
      <trkpt lat="43.66585" lon="6.17196">
        <ele>631.5</ele>
        <time>2023-12-11T09:02:17Z</time>
      </trkpt>
      <trkpt lat="43.66593" lon="6.17204">
        <ele>631.1</ele>
        <time>2023-12-11T09:02:41Z</time>
      </trkpt>
      <trkpt lat="43.66598" lon="6.17215">
        <ele>631.1</ele>
        <time>2023-12-11T09:02:52Z</time>
      </trkpt>
      <trkpt lat="43.66606" lon="6.17222">
        <ele>631.4</ele>
        <time>2023-12-11T09:03:05Z</time>
      </trkpt>
      <trkpt lat="43.66616" lon="6.17224">
        <ele>631.2</ele>
        <time>2023-12-11T09:03:22Z</time>
      </trkpt>
      <trkpt lat="43.66624" lon="6.17228">
        <ele>631.3</ele>
        <time>2023-12-11T09:03:39Z</time>
      </trkpt>
      <trkpt lat="43.66633" lon="6.17231">
        <ele>631.3</ele>
        <time>2023-12-11T09:03:51Z</time>
      </trkpt>
      <trkpt lat="43.66642" lon="6.17233">
        <ele>631.9</ele>
        <time>2023-12-11T09:04:01Z</time>
      </trkpt>
      <trkpt lat="43.66651" lon="6.17235">
        <ele>631.7</ele>
        <time>2023-12-11T09:04:13Z</time>
      </trkpt>
      <trkpt lat="43.6666" lon="6.17239">
        <ele>632.2</ele>
        <time>2023-12-11T09:04:26Z</time>
      </trkpt>
      <trkpt lat="43.66668" lon="6.17245">
        <ele>632.4</ele>
        <time>2023-12-11T09:04:36Z</time>
      </trkpt>
      <trkpt lat="43.66677" lon="6.17251">
        <ele>630.9</ele>
        <time>2023-12-11T09:04:46Z</time>
      </trkpt>
      <trkpt lat="43.66686" lon="6.17256">
        <ele>632.8</ele>
        <time>2023-12-11T09:05:01Z</time>
      </trkpt>
      <trkpt lat="43.66693" lon="6.17265">
        <ele>633.2</ele>
        <time>2023-12-11T09:05:17Z</time>
      </trkpt>
      <trkpt lat="43.66701" lon="6.17272">
        <ele>633.9</ele>
        <time>2023-12-11T09:05:53Z</time>
      </trkpt>
      <trkpt lat="43.66706" lon="6.17261">
        <ele>633.6</ele>
        <time>2023-12-11T09:07:50Z</time>
      </trkpt>
      <trkpt lat="43.66701" lon="6.17249">
        <ele>633</ele>
        <time>2023-12-11T09:08:28Z</time>
      </trkpt>
      <trkpt lat="43.66693" lon="6.17243">
        <ele>633.5</ele>
        <time>2023-12-11T09:09:22Z</time>
      </trkpt>
      <trkpt lat="43.66686" lon="6.17234">
        <ele>632.9</ele>
        <time>2023-12-11T09:09:54Z</time>
      </trkpt>
      <trkpt lat="43.66679" lon="6.17226">
        <ele>632.2</ele>
        <time>2023-12-11T09:10:43Z</time>
      </trkpt>
      <trkpt lat="43.66684" lon="6.17237">
        <ele>632.2</ele>
        <time>2023-12-11T09:11:59Z</time>
      </trkpt>
      <trkpt lat="43.66692" lon="6.17244">
        <ele>632.5</ele>
        <time>2023-12-11T09:12:20Z</time>
      </trkpt>
      <trkpt lat="43.66701" lon="6.17249">
        <ele>632.6</ele>
        <time>2023-12-11T09:12:49Z</time>
      </trkpt>
      <trkpt lat="43.6671" lon="6.17254">
        <ele>632.7</ele>
        <time>2023-12-11T09:12:59Z</time>
      </trkpt>
      <trkpt lat="43.66718" lon="6.17259">
        <ele>633.2</ele>
        <time>2023-12-11T09:13:14Z</time>
      </trkpt>
      <trkpt lat="43.66728" lon="6.17257">
        <ele>633.6</ele>
        <time>2023-12-11T09:13:28Z</time>
      </trkpt>
      <trkpt lat="43.66738" lon="6.17258">
        <ele>634</ele>
        <time>2023-12-11T09:13:38Z</time>
      </trkpt>
      <trkpt lat="43.66746" lon="6.17261">
        <ele>634.2</ele>
        <time>2023-12-11T09:14:44Z</time>
      </trkpt>
      <trkpt lat="43.66755" lon="6.17267">
        <ele>634.2</ele>
        <time>2023-12-11T09:16:13Z</time>
      </trkpt>
      <trkpt lat="43.66766" lon="6.17267">
        <ele>634.4</ele>
        <time>2023-12-11T09:16:26Z</time>
      </trkpt>
      <trkpt lat="43.66775" lon="6.17267">
        <ele>634</ele>
        <time>2023-12-11T09:16:33Z</time>
      </trkpt>
      <trkpt lat="43.66785" lon="6.17271">
        <ele>635.1</ele>
        <time>2023-12-11T09:16:44Z</time>
      </trkpt>
      <trkpt lat="43.66794" lon="6.17273">
        <ele>635.5</ele>
        <time>2023-12-11T09:16:56Z</time>
      </trkpt>
      <trkpt lat="43.66803" lon="6.17276">
        <ele>635.6</ele>
        <time>2023-12-11T09:17:07Z</time>
      </trkpt>
      <trkpt lat="43.66812" lon="6.17278">
        <ele>635.8</ele>
        <time>2023-12-11T09:17:16Z</time>
      </trkpt>
      <trkpt lat="43.66821" lon="6.17281">
        <ele>637.8</ele>
        <time>2023-12-11T09:18:38Z</time>
      </trkpt>
      <trkpt lat="43.66831" lon="6.17282">
        <ele>636.2</ele>
        <time>2023-12-11T09:20:39Z</time>
      </trkpt>
      <trkpt lat="43.66829" lon="6.17295">
        <ele>636.7</ele>
        <time>2023-12-11T09:21:35Z</time>
      </trkpt>
      <trkpt lat="43.66839" lon="6.17295">
        <ele>636.4</ele>
        <time>2023-12-11T09:22:43Z</time>
      </trkpt>
      <trkpt lat="43.66847" lon="6.17302">
        <ele>636.7</ele>
        <time>2023-12-11T09:23:46Z</time>
      </trkpt>
      <trkpt lat="43.66857" lon="6.17301">
        <ele>636.5</ele>
        <time>2023-12-11T09:24:08Z</time>
      </trkpt>
      <trkpt lat="43.66864" lon="6.17293">
        <ele>636.3</ele>
        <time>2023-12-11T09:24:40Z</time>
      </trkpt>
      <trkpt lat="43.66873" lon="6.17294">
        <ele>634.8</ele>
        <time>2023-12-11T09:25:06Z</time>
      </trkpt>
      <trkpt lat="43.66883" lon="6.17296">
        <ele>635.8</ele>
        <time>2023-12-11T09:25:17Z</time>
      </trkpt>
      <trkpt lat="43.66892" lon="6.17297">
        <ele>636</ele>
        <time>2023-12-11T09:25:41Z</time>
      </trkpt>
      <trkpt lat="43.66901" lon="6.173">
        <ele>636.3</ele>
        <time>2023-12-11T09:25:55Z</time>
      </trkpt>
      <trkpt lat="43.6691" lon="6.17298">
        <ele>636.7</ele>
        <time>2023-12-11T09:26:28Z</time>
      </trkpt>
      <trkpt lat="43.6692" lon="6.17301">
        <ele>636.7</ele>
        <time>2023-12-11T09:26:36Z</time>
      </trkpt>
      <trkpt lat="43.66929" lon="6.17305">
        <ele>637.1</ele>
        <time>2023-12-11T09:26:48Z</time>
      </trkpt>
      <trkpt lat="43.66938" lon="6.17306">
        <ele>637.5</ele>
        <time>2023-12-11T09:26:58Z</time>
      </trkpt>
      <trkpt lat="43.66948" lon="6.17306">
        <ele>638.7</ele>
        <time>2023-12-11T09:27:18Z</time>
      </trkpt>
      <trkpt lat="43.66957" lon="6.17309">
        <ele>638.6</ele>
        <time>2023-12-11T09:27:27Z</time>
      </trkpt>
      <trkpt lat="43.66966" lon="6.17313">
        <ele>638.9</ele>
        <time>2023-12-11T09:27:39Z</time>
      </trkpt>
      <trkpt lat="43.66974" lon="6.1732">
        <ele>639.6</ele>
        <time>2023-12-11T09:27:55Z</time>
      </trkpt>
      <trkpt lat="43.66982" lon="6.17315">
        <ele>640.1</ele>
        <time>2023-12-11T09:28:34Z</time>
      </trkpt>
      <trkpt lat="43.66975" lon="6.17324">
        <ele>640.1</ele>
        <time>2023-12-11T09:29:24Z</time>
      </trkpt>
      <trkpt lat="43.66984" lon="6.1733">
        <ele>638.9</ele>
        <time>2023-12-11T09:30:01Z</time>
      </trkpt>
      <trkpt lat="43.66992" lon="6.17336">
        <ele>641.5</ele>
        <time>2023-12-11T09:30:17Z</time>
      </trkpt>
      <trkpt lat="43.67" lon="6.17343">
        <ele>645.2</ele>
        <time>2023-12-11T09:30:30Z</time>
      </trkpt>
      <trkpt lat="43.67007" lon="6.1735">
        <ele>642.2</ele>
        <time>2023-12-11T09:30:42Z</time>
      </trkpt>
      <trkpt lat="43.67016" lon="6.17356">
        <ele>642.3</ele>
        <time>2023-12-11T09:30:53Z</time>
      </trkpt>
      <trkpt lat="43.67025" lon="6.17362">
        <ele>642.5</ele>
        <time>2023-12-11T09:31:03Z</time>
      </trkpt>
      <trkpt lat="43.67034" lon="6.17369">
        <ele>643.2</ele>
        <time>2023-12-11T09:31:18Z</time>
      </trkpt>
      <trkpt lat="43.67041" lon="6.17378">
        <ele>643.4</ele>
        <time>2023-12-11T09:31:28Z</time>
      </trkpt>
      <trkpt lat="43.67049" lon="6.17386">
        <ele>643.9</ele>
        <time>2023-12-11T09:31:42Z</time>
      </trkpt>
      <trkpt lat="43.67055" lon="6.17395">
        <ele>644.4</ele>
        <time>2023-12-11T09:31:53Z</time>
      </trkpt>
      <trkpt lat="43.67064" lon="6.17401">
        <ele>644.5</ele>
        <time>2023-12-11T09:32:03Z</time>
      </trkpt>
      <trkpt lat="43.67071" lon="6.1741">
        <ele>645</ele>
        <time>2023-12-11T09:32:14Z</time>
      </trkpt>
      <trkpt lat="43.67079" lon="6.17416">
        <ele>645.4</ele>
        <time>2023-12-11T09:32:25Z</time>
      </trkpt>
      <trkpt lat="43.67087" lon="6.17421">
        <ele>646.2</ele>
        <time>2023-12-11T09:32:37Z</time>
      </trkpt>
      <trkpt lat="43.67094" lon="6.17429">
        <ele>646.8</ele>
        <time>2023-12-11T09:32:57Z</time>
      </trkpt>
      <trkpt lat="43.67101" lon="6.17438">
        <ele>647.5</ele>
        <time>2023-12-11T09:33:08Z</time>
      </trkpt>
      <trkpt lat="43.67109" lon="6.17446">
        <ele>648.6</ele>
        <time>2023-12-11T09:33:19Z</time>
      </trkpt>
      <trkpt lat="43.67116" lon="6.17455">
        <ele>648.6</ele>
        <time>2023-12-11T09:33:52Z</time>
      </trkpt>
      <trkpt lat="43.67123" lon="6.17464">
        <ele>650.1</ele>
        <time>2023-12-11T09:34:08Z</time>
      </trkpt>
      <trkpt lat="43.67131" lon="6.17471">
        <ele>650.4</ele>
        <time>2023-12-11T09:34:24Z</time>
      </trkpt>
      <trkpt lat="43.6714" lon="6.17477">
        <ele>650.9</ele>
        <time>2023-12-11T09:34:35Z</time>
      </trkpt>
      <trkpt lat="43.67147" lon="6.17487">
        <ele>651.4</ele>
        <time>2023-12-11T09:34:48Z</time>
      </trkpt>
      <trkpt lat="43.67152" lon="6.17498">
        <ele>652.5</ele>
        <time>2023-12-11T09:35:02Z</time>
      </trkpt>
      <trkpt lat="43.67158" lon="6.17508">
        <ele>652.9</ele>
        <time>2023-12-11T09:35:14Z</time>
      </trkpt>
      <trkpt lat="43.67163" lon="6.17518">
        <ele>649.9</ele>
        <time>2023-12-11T09:35:29Z</time>
      </trkpt>
      <trkpt lat="43.6717" lon="6.17528">
        <ele>654.6</ele>
        <time>2023-12-11T09:35:50Z</time>
      </trkpt>
      <trkpt lat="43.67177" lon="6.17536">
        <ele>654.1</ele>
        <time>2023-12-11T09:36:03Z</time>
      </trkpt>
      <trkpt lat="43.67183" lon="6.17546">
        <ele>654.4</ele>
        <time>2023-12-11T09:36:55Z</time>
      </trkpt>
      <trkpt lat="43.6719" lon="6.17555">
        <ele>654.7</ele>
        <time>2023-12-11T09:37:05Z</time>
      </trkpt>
      <trkpt lat="43.67197" lon="6.17563">
        <ele>655</ele>
        <time>2023-12-11T09:37:15Z</time>
      </trkpt>
      <trkpt lat="43.67205" lon="6.17571">
        <ele>655.6</ele>
        <time>2023-12-11T09:37:25Z</time>
      </trkpt>
      <trkpt lat="43.67213" lon="6.17577">
        <ele>656.3</ele>
        <time>2023-12-11T09:37:35Z</time>
      </trkpt>
      <trkpt lat="43.67221" lon="6.17585">
        <ele>656.8</ele>
        <time>2023-12-11T09:37:45Z</time>
      </trkpt>
      <trkpt lat="43.67227" lon="6.17595">
        <ele>657.2</ele>
        <time>2023-12-11T09:38:04Z</time>
      </trkpt>
      <trkpt lat="43.67235" lon="6.17602">
        <ele>658.3</ele>
        <time>2023-12-11T09:38:18Z</time>
      </trkpt>
      <trkpt lat="43.67243" lon="6.1761">
        <ele>656.1</ele>
        <time>2023-12-11T09:38:42Z</time>
      </trkpt>
      <trkpt lat="43.67251" lon="6.17618">
        <ele>657.4</ele>
        <time>2023-12-11T09:38:59Z</time>
      </trkpt>
      <trkpt lat="43.67258" lon="6.17611">
        <ele>659.8</ele>
        <time>2023-12-11T09:40:10Z</time>
      </trkpt>
      <trkpt lat="43.6725" lon="6.17604">
        <ele>659.3</ele>
        <time>2023-12-11T09:40:24Z</time>
      </trkpt>
      <trkpt lat="43.67242" lon="6.17595">
        <ele>658.9</ele>
        <time>2023-12-11T09:40:32Z</time>
      </trkpt>
      <trkpt lat="43.67239" lon="6.17583">
        <ele>658.2</ele>
        <time>2023-12-11T09:41:11Z</time>
      </trkpt>
      <trkpt lat="43.67238" lon="6.1757">
        <ele>657.4</ele>
        <time>2023-12-11T09:41:20Z</time>
      </trkpt>
      <trkpt lat="43.67245" lon="6.17562">
        <ele>656.8</ele>
        <time>2023-12-11T09:41:30Z</time>
      </trkpt>
      <trkpt lat="43.67239" lon="6.17552">
        <ele>657.3</ele>
        <time>2023-12-11T09:42:00Z</time>
      </trkpt>
      <trkpt lat="43.67239" lon="6.1754">
        <ele>656.1</ele>
        <time>2023-12-11T09:42:18Z</time>
      </trkpt>
      <trkpt lat="43.67242" lon="6.17527">
        <ele>655.7</ele>
        <time>2023-12-11T09:42:28Z</time>
      </trkpt>
      <trkpt lat="43.67241" lon="6.17514">
        <ele>656</ele>
        <time>2023-12-11T09:42:34Z</time>
      </trkpt>
      <trkpt lat="43.67242" lon="6.17501">
        <ele>655.7</ele>
        <time>2023-12-11T09:42:41Z</time>
      </trkpt>
      <trkpt lat="43.67244" lon="6.17489">
        <ele>654.9</ele>
        <time>2023-12-11T09:42:48Z</time>
      </trkpt>
      <trkpt lat="43.67247" lon="6.17477">
        <ele>653.9</ele>
        <time>2023-12-11T09:42:55Z</time>
      </trkpt>
      <trkpt lat="43.6725" lon="6.17465">
        <ele>653.7</ele>
        <time>2023-12-11T09:43:06Z</time>
      </trkpt>
      <trkpt lat="43.67252" lon="6.17452">
        <ele>653.3</ele>
        <time>2023-12-11T09:43:16Z</time>
      </trkpt>
      <trkpt lat="43.67255" lon="6.1744">
        <ele>652.8</ele>
        <time>2023-12-11T09:43:24Z</time>
      </trkpt>
      <trkpt lat="43.67256" lon="6.17428">
        <ele>652.1</ele>
        <time>2023-12-11T09:43:40Z</time>
      </trkpt>
      <trkpt lat="43.67256" lon="6.17415">
        <ele>652.4</ele>
        <time>2023-12-11T09:43:55Z</time>
      </trkpt>
      <trkpt lat="43.67259" lon="6.17402">
        <ele>651</ele>
        <time>2023-12-11T09:44:08Z</time>
      </trkpt>
      <trkpt lat="43.67263" lon="6.17391">
        <ele>650.8</ele>
        <time>2023-12-11T09:44:18Z</time>
      </trkpt>
      <trkpt lat="43.67265" lon="6.17378">
        <ele>649.7</ele>
        <time>2023-12-11T09:44:27Z</time>
      </trkpt>
      <trkpt lat="43.67272" lon="6.17369">
        <ele>649.3</ele>
        <time>2023-12-11T09:44:37Z</time>
      </trkpt>
      <trkpt lat="43.67281" lon="6.17361">
        <ele>649.1</ele>
        <time>2023-12-11T09:44:47Z</time>
      </trkpt>
      <trkpt lat="43.67288" lon="6.17352">
        <ele>648.8</ele>
        <time>2023-12-11T09:44:55Z</time>
      </trkpt>
      <trkpt lat="43.67293" lon="6.17341">
        <ele>648.5</ele>
        <time>2023-12-11T09:45:04Z</time>
      </trkpt>
      <trkpt lat="43.67297" lon="6.17329">
        <ele>647.6</ele>
        <time>2023-12-11T09:45:14Z</time>
      </trkpt>
      <trkpt lat="43.67301" lon="6.17317">
        <ele>647.6</ele>
        <time>2023-12-11T09:45:24Z</time>
      </trkpt>
      <trkpt lat="43.67306" lon="6.17306">
        <ele>646.3</ele>
        <time>2023-12-11T09:45:35Z</time>
      </trkpt>
      <trkpt lat="43.67309" lon="6.17294">
        <ele>646.2</ele>
        <time>2023-12-11T09:45:44Z</time>
      </trkpt>
      <trkpt lat="43.6731" lon="6.17281">
        <ele>645.8</ele>
        <time>2023-12-11T09:45:57Z</time>
      </trkpt>
      <trkpt lat="43.67313" lon="6.17268">
        <ele>645</ele>
        <time>2023-12-11T09:46:12Z</time>
      </trkpt>
      <trkpt lat="43.67316" lon="6.17254">
        <ele>644.5</ele>
        <time>2023-12-11T09:46:39Z</time>
      </trkpt>
      <trkpt lat="43.67317" lon="6.17241">
        <ele>644.3</ele>
        <time>2023-12-11T09:46:48Z</time>
      </trkpt>
      <trkpt lat="43.67321" lon="6.17229">
        <ele>643.7</ele>
        <time>2023-12-11T09:46:57Z</time>
      </trkpt>
      <trkpt lat="43.67327" lon="6.17218">
        <ele>643.1</ele>
        <time>2023-12-11T09:47:05Z</time>
      </trkpt>
      <trkpt lat="43.67336" lon="6.17214">
        <ele>642.7</ele>
        <time>2023-12-11T09:47:14Z</time>
      </trkpt>
      <trkpt lat="43.67344" lon="6.17208">
        <ele>642.2</ele>
        <time>2023-12-11T09:47:24Z</time>
      </trkpt>
      <trkpt lat="43.67352" lon="6.17199">
        <ele>641.8</ele>
        <time>2023-12-11T09:47:35Z</time>
      </trkpt>
      <trkpt lat="43.67357" lon="6.17188">
        <ele>641.4</ele>
        <time>2023-12-11T09:47:44Z</time>
      </trkpt>
      <trkpt lat="43.67361" lon="6.17175">
        <ele>640.7</ele>
        <time>2023-12-11T09:47:53Z</time>
      </trkpt>
      <trkpt lat="43.67365" lon="6.17164">
        <ele>640.3</ele>
        <time>2023-12-11T09:48:02Z</time>
      </trkpt>
      <trkpt lat="43.6737" lon="6.17152">
        <ele>639.4</ele>
        <time>2023-12-11T09:48:12Z</time>
      </trkpt>
      <trkpt lat="43.67374" lon="6.17141">
        <ele>637.8</ele>
        <time>2023-12-11T09:48:21Z</time>
      </trkpt>
      <trkpt lat="43.6738" lon="6.1713">
        <ele>639.3</ele>
        <time>2023-12-11T09:48:30Z</time>
      </trkpt>
      <trkpt lat="43.67385" lon="6.17118">
        <ele>637.9</ele>
        <time>2023-12-11T09:48:39Z</time>
      </trkpt>
      <trkpt lat="43.67392" lon="6.17107">
        <ele>638.4</ele>
        <time>2023-12-11T09:48:48Z</time>
      </trkpt>
      <trkpt lat="43.67394" lon="6.17095">
        <ele>637.2</ele>
        <time>2023-12-11T09:48:57Z</time>
      </trkpt>
      <trkpt lat="43.67398" lon="6.17083">
        <ele>637.2</ele>
        <time>2023-12-11T09:49:06Z</time>
      </trkpt>
      <trkpt lat="43.674" lon="6.17071">
        <ele>636.4</ele>
        <time>2023-12-11T09:49:15Z</time>
      </trkpt>
      <trkpt lat="43.674" lon="6.17058">
        <ele>636.2</ele>
        <time>2023-12-11T09:49:23Z</time>
      </trkpt>
      <trkpt lat="43.67402" lon="6.17045">
        <ele>635.8</ele>
        <time>2023-12-11T09:49:32Z</time>
      </trkpt>
      <trkpt lat="43.67403" lon="6.17032">
        <ele>636.1</ele>
        <time>2023-12-11T09:49:41Z</time>
      </trkpt>
      <trkpt lat="43.67404" lon="6.17019">
        <ele>635.4</ele>
        <time>2023-12-11T09:49:49Z</time>
      </trkpt>
      <trkpt lat="43.67406" lon="6.17006">
        <ele>634.3</ele>
        <time>2023-12-11T09:49:58Z</time>
      </trkpt>
      <trkpt lat="43.67406" lon="6.16993">
        <ele>633.6</ele>
        <time>2023-12-11T09:50:07Z</time>
      </trkpt>
      <trkpt lat="43.67406" lon="6.16979">
        <ele>633</ele>
        <time>2023-12-11T09:50:17Z</time>
      </trkpt>
      <trkpt lat="43.67407" lon="6.16967">
        <ele>633.7</ele>
        <time>2023-12-11T09:50:25Z</time>
      </trkpt>
      <trkpt lat="43.67407" lon="6.16954">
        <ele>632.6</ele>
        <time>2023-12-11T09:50:33Z</time>
      </trkpt>
      <trkpt lat="43.67408" lon="6.16941">
        <ele>631.7</ele>
        <time>2023-12-11T09:50:40Z</time>
      </trkpt>
      <trkpt lat="43.67409" lon="6.16928">
        <ele>631.4</ele>
        <time>2023-12-11T09:50:49Z</time>
      </trkpt>
      <trkpt lat="43.6741" lon="6.16914">
        <ele>632.1</ele>
        <time>2023-12-11T09:50:59Z</time>
      </trkpt>
      <trkpt lat="43.67411" lon="6.16901">
        <ele>630.4</ele>
        <time>2023-12-11T09:51:08Z</time>
      </trkpt>
      <trkpt lat="43.6741" lon="6.16888">
        <ele>629.6</ele>
        <time>2023-12-11T09:51:17Z</time>
      </trkpt>
      <trkpt lat="43.67409" lon="6.16875">
        <ele>629.8</ele>
        <time>2023-12-11T09:51:26Z</time>
      </trkpt>
      <trkpt lat="43.67409" lon="6.16861">
        <ele>628.7</ele>
        <time>2023-12-11T09:51:35Z</time>
      </trkpt>
      <trkpt lat="43.67409" lon="6.16848">
        <ele>628.2</ele>
        <time>2023-12-11T09:51:44Z</time>
      </trkpt>
      <trkpt lat="43.67408" lon="6.16836">
        <ele>627.8</ele>
        <time>2023-12-11T09:51:52Z</time>
      </trkpt>
      <trkpt lat="43.67408" lon="6.16823">
        <ele>627.6</ele>
        <time>2023-12-11T09:52:01Z</time>
      </trkpt>
      <trkpt lat="43.67408" lon="6.1681">
        <ele>627.2</ele>
        <time>2023-12-11T09:52:10Z</time>
      </trkpt>
      <trkpt lat="43.67408" lon="6.16797">
        <ele>626.5</ele>
        <time>2023-12-11T09:52:19Z</time>
      </trkpt>
      <trkpt lat="43.67409" lon="6.16783">
        <ele>625.9</ele>
        <time>2023-12-11T09:52:28Z</time>
      </trkpt>
      <trkpt lat="43.67408" lon="6.16769">
        <ele>625.5</ele>
        <time>2023-12-11T09:52:37Z</time>
      </trkpt>
      <trkpt lat="43.67406" lon="6.16757">
        <ele>626.6</ele>
        <time>2023-12-11T09:52:46Z</time>
      </trkpt>
      <trkpt lat="43.67403" lon="6.16744">
        <ele>624.9</ele>
        <time>2023-12-11T09:52:59Z</time>
      </trkpt>
      <trkpt lat="43.67401" lon="6.16731">
        <ele>624.2</ele>
        <time>2023-12-11T09:53:20Z</time>
      </trkpt>
      <trkpt lat="43.674" lon="6.16719">
        <ele>624.1</ele>
        <time>2023-12-11T09:53:30Z</time>
      </trkpt>
      <trkpt lat="43.67401" lon="6.16706">
        <ele>622.8</ele>
        <time>2023-12-11T09:53:43Z</time>
      </trkpt>
      <trkpt lat="43.67402" lon="6.16692">
        <ele>622.1</ele>
        <time>2023-12-11T09:53:52Z</time>
      </trkpt>
      <trkpt lat="43.67402" lon="6.16679">
        <ele>621.8</ele>
        <time>2023-12-11T09:54:00Z</time>
      </trkpt>
      <trkpt lat="43.67402" lon="6.16666">
        <ele>621.7</ele>
        <time>2023-12-11T09:54:08Z</time>
      </trkpt>
      <trkpt lat="43.67401" lon="6.16653">
        <ele>621.4</ele>
        <time>2023-12-11T09:54:16Z</time>
      </trkpt>
      <trkpt lat="43.674" lon="6.1664">
        <ele>620.7</ele>
        <time>2023-12-11T09:54:25Z</time>
      </trkpt>
      <trkpt lat="43.67398" lon="6.16626">
        <ele>620.2</ele>
        <time>2023-12-11T09:54:34Z</time>
      </trkpt>
      <trkpt lat="43.67397" lon="6.16613">
        <ele>619.2</ele>
        <time>2023-12-11T09:54:43Z</time>
      </trkpt>
      <trkpt lat="43.67396" lon="6.166">
        <ele>619.7</ele>
        <time>2023-12-11T09:54:52Z</time>
      </trkpt>
      <trkpt lat="43.67395" lon="6.16588">
        <ele>619.1</ele>
        <time>2023-12-11T09:55:00Z</time>
      </trkpt>
      <trkpt lat="43.67394" lon="6.16574">
        <ele>618.8</ele>
        <time>2023-12-11T09:55:09Z</time>
      </trkpt>
      <trkpt lat="43.67392" lon="6.16561">
        <ele>619</ele>
        <time>2023-12-11T09:55:18Z</time>
      </trkpt>
      <trkpt lat="43.6739" lon="6.16548">
        <ele>618</ele>
        <time>2023-12-11T09:55:27Z</time>
      </trkpt>
      <trkpt lat="43.67387" lon="6.16536">
        <ele>617.4</ele>
        <time>2023-12-11T09:55:36Z</time>
      </trkpt>
      <trkpt lat="43.67384" lon="6.16523">
        <ele>617.2</ele>
        <time>2023-12-11T09:55:46Z</time>
      </trkpt>
      <trkpt lat="43.67379" lon="6.16511">
        <ele>616.8</ele>
        <time>2023-12-11T09:55:55Z</time>
      </trkpt>
      <trkpt lat="43.67375" lon="6.165">
        <ele>616.7</ele>
        <time>2023-12-11T09:56:04Z</time>
      </trkpt>
      <trkpt lat="43.67369" lon="6.16489">
        <ele>617.4</ele>
        <time>2023-12-11T09:56:22Z</time>
      </trkpt>
      <trkpt lat="43.67364" lon="6.16478">
        <ele>618</ele>
        <time>2023-12-11T10:02:16Z</time>
      </trkpt>
      <trkpt lat="43.67367" lon="6.16466">
        <ele>618.1</ele>
        <time>2023-12-11T10:02:24Z</time>
      </trkpt>
      <trkpt lat="43.67376" lon="6.16458">
        <ele>617.8</ele>
        <time>2023-12-11T10:02:39Z</time>
      </trkpt>
      <trkpt lat="43.67383" lon="6.16451">
        <ele>617.7</ele>
        <time>2023-12-11T10:02:48Z</time>
      </trkpt>
      <trkpt lat="43.67391" lon="6.16443">
        <ele>617.5</ele>
        <time>2023-12-11T10:02:57Z</time>
      </trkpt>
      <trkpt lat="43.67398" lon="6.16434">
        <ele>617.1</ele>
        <time>2023-12-11T10:03:05Z</time>
      </trkpt>
      <trkpt lat="43.67406" lon="6.16425">
        <ele>617</ele>
        <time>2023-12-11T10:03:14Z</time>
      </trkpt>
      <trkpt lat="43.67412" lon="6.16417">
        <ele>616.7</ele>
        <time>2023-12-11T10:03:22Z</time>
      </trkpt>
      <trkpt lat="43.67419" lon="6.16408">
        <ele>616.5</ele>
        <time>2023-12-11T10:03:31Z</time>
      </trkpt>
      <trkpt lat="43.67422" lon="6.16395">
        <ele>616.3</ele>
        <time>2023-12-11T10:03:42Z</time>
      </trkpt>
      <trkpt lat="43.67422" lon="6.16382">
        <ele>615.8</ele>
        <time>2023-12-11T10:03:50Z</time>
      </trkpt>
      <trkpt lat="43.67422" lon="6.1637">
        <ele>615.5</ele>
        <time>2023-12-11T10:03:59Z</time>
      </trkpt>
      <trkpt lat="43.67424" lon="6.16357">
        <ele>613.8</ele>
        <time>2023-12-11T10:04:10Z</time>
      </trkpt>
      <trkpt lat="43.67427" lon="6.16344">
        <ele>613.8</ele>
        <time>2023-12-11T10:04:20Z</time>
      </trkpt>
      <trkpt lat="43.6743" lon="6.16331">
        <ele>614.1</ele>
        <time>2023-12-11T10:04:29Z</time>
      </trkpt>
      <trkpt lat="43.67432" lon="6.16319">
        <ele>613.9</ele>
        <time>2023-12-11T10:04:38Z</time>
      </trkpt>
      <trkpt lat="43.67434" lon="6.16306">
        <ele>613.6</ele>
        <time>2023-12-11T10:04:47Z</time>
      </trkpt>
      <trkpt lat="43.67434" lon="6.16293">
        <ele>613.6</ele>
        <time>2023-12-11T10:04:56Z</time>
      </trkpt>
      <trkpt lat="43.67435" lon="6.1628">
        <ele>614.9</ele>
        <time>2023-12-11T10:05:05Z</time>
      </trkpt>
      <trkpt lat="43.67436" lon="6.16266">
        <ele>612.6</ele>
        <time>2023-12-11T10:05:14Z</time>
      </trkpt>
      <trkpt lat="43.67434" lon="6.16254">
        <ele>613.3</ele>
        <time>2023-12-11T10:05:23Z</time>
      </trkpt>
      <trkpt lat="43.67433" lon="6.1624">
        <ele>612.1</ele>
        <time>2023-12-11T10:05:33Z</time>
      </trkpt>
      <trkpt lat="43.67429" lon="6.16228">
        <ele>611.5</ele>
        <time>2023-12-11T10:05:42Z</time>
      </trkpt>
      <trkpt lat="43.67424" lon="6.16216">
        <ele>611.4</ele>
        <time>2023-12-11T10:05:51Z</time>
      </trkpt>
      <trkpt lat="43.67421" lon="6.16203">
        <ele>611</ele>
        <time>2023-12-11T10:06:00Z</time>
      </trkpt>
      <trkpt lat="43.67422" lon="6.16191">
        <ele>611</ele>
        <time>2023-12-11T10:06:07Z</time>
      </trkpt>
      <trkpt lat="43.67426" lon="6.16178">
        <ele>610.6</ele>
        <time>2023-12-11T10:06:16Z</time>
      </trkpt>
      <trkpt lat="43.67429" lon="6.16166">
        <ele>610.4</ele>
        <time>2023-12-11T10:06:24Z</time>
      </trkpt>
      <trkpt lat="43.67429" lon="6.16152">
        <ele>610</ele>
        <time>2023-12-11T10:06:33Z</time>
      </trkpt>
      <trkpt lat="43.67428" lon="6.16139">
        <ele>609.5</ele>
        <time>2023-12-11T10:06:42Z</time>
      </trkpt>
      <trkpt lat="43.67422" lon="6.16128">
        <ele>609.3</ele>
        <time>2023-12-11T10:06:50Z</time>
      </trkpt>
      <trkpt lat="43.67416" lon="6.16119">
        <ele>609.1</ele>
        <time>2023-12-11T10:06:58Z</time>
      </trkpt>
      <trkpt lat="43.6741" lon="6.16107">
        <ele>609</ele>
        <time>2023-12-11T10:07:07Z</time>
      </trkpt>
      <trkpt lat="43.67405" lon="6.16096">
        <ele>608.7</ele>
        <time>2023-12-11T10:07:16Z</time>
      </trkpt>
      <trkpt lat="43.67401" lon="6.16084">
        <ele>608.5</ele>
        <time>2023-12-11T10:07:25Z</time>
      </trkpt>
      <trkpt lat="43.67396" lon="6.16073">
        <ele>608.1</ele>
        <time>2023-12-11T10:07:34Z</time>
      </trkpt>
      <trkpt lat="43.67391" lon="6.16061">
        <ele>607.4</ele>
        <time>2023-12-11T10:07:44Z</time>
      </trkpt>
      <trkpt lat="43.67384" lon="6.16051">
        <ele>607.4</ele>
        <time>2023-12-11T10:07:53Z</time>
      </trkpt>
      <trkpt lat="43.67378" lon="6.1604">
        <ele>607</ele>
        <time>2023-12-11T10:08:02Z</time>
      </trkpt>
      <trkpt lat="43.67372" lon="6.16029">
        <ele>606.5</ele>
        <time>2023-12-11T10:08:11Z</time>
      </trkpt>
      <trkpt lat="43.67366" lon="6.16019">
        <ele>606.3</ele>
        <time>2023-12-11T10:08:20Z</time>
      </trkpt>
      <trkpt lat="43.6736" lon="6.16009">
        <ele>605.9</ele>
        <time>2023-12-11T10:08:29Z</time>
      </trkpt>
      <trkpt lat="43.67355" lon="6.15999">
        <ele>605.7</ele>
        <time>2023-12-11T10:08:37Z</time>
      </trkpt>
      <trkpt lat="43.67349" lon="6.15989">
        <ele>605.9</ele>
        <time>2023-12-11T10:08:45Z</time>
      </trkpt>
      <trkpt lat="43.67341" lon="6.1598">
        <ele>605.8</ele>
        <time>2023-12-11T10:08:54Z</time>
      </trkpt>
      <trkpt lat="43.67335" lon="6.15971">
        <ele>605.7</ele>
        <time>2023-12-11T10:09:09Z</time>
      </trkpt>
      <trkpt lat="43.67328" lon="6.15961">
        <ele>605.6</ele>
        <time>2023-12-11T10:12:58Z</time>
      </trkpt>
      <trkpt lat="43.67323" lon="6.15951">
        <ele>605.5</ele>
        <time>2023-12-11T10:13:07Z</time>
      </trkpt>
      <trkpt lat="43.67314" lon="6.15948">
        <ele>605.5</ele>
        <time>2023-12-11T10:13:25Z</time>
      </trkpt>
      <trkpt lat="43.67308" lon="6.15938">
        <ele>604.7</ele>
        <time>2023-12-11T10:14:08Z</time>
      </trkpt>
      <trkpt lat="43.67301" lon="6.15928">
        <ele>605.2</ele>
        <time>2023-12-11T10:14:21Z</time>
      </trkpt>
      <trkpt lat="43.67294" lon="6.1592">
        <ele>604.9</ele>
        <time>2023-12-11T10:14:29Z</time>
      </trkpt>
      <trkpt lat="43.67287" lon="6.15911">
        <ele>604.5</ele>
        <time>2023-12-11T10:14:39Z</time>
      </trkpt>
      <trkpt lat="43.67281" lon="6.15902">
        <ele>604.8</ele>
        <time>2023-12-11T10:14:53Z</time>
      </trkpt>
      <trkpt lat="43.67278" lon="6.1589">
        <ele>603.9</ele>
        <time>2023-12-11T10:15:11Z</time>
      </trkpt>
      <trkpt lat="43.67273" lon="6.15879">
        <ele>603.7</ele>
        <time>2023-12-11T10:15:22Z</time>
      </trkpt>
      <trkpt lat="43.67268" lon="6.15868">
        <ele>603.5</ele>
        <time>2023-12-11T10:15:34Z</time>
      </trkpt>
      <trkpt lat="43.67263" lon="6.15857">
        <ele>603.4</ele>
        <time>2023-12-11T10:15:44Z</time>
      </trkpt>
      <trkpt lat="43.67259" lon="6.15844">
        <ele>603.7</ele>
        <time>2023-12-11T10:15:53Z</time>
      </trkpt>
      <trkpt lat="43.67254" lon="6.15833">
        <ele>603.1</ele>
        <time>2023-12-11T10:16:02Z</time>
      </trkpt>
      <trkpt lat="43.67248" lon="6.15823">
        <ele>601</ele>
        <time>2023-12-11T10:16:12Z</time>
      </trkpt>
      <trkpt lat="43.67241" lon="6.15813">
        <ele>600.1</ele>
        <time>2023-12-11T10:16:22Z</time>
      </trkpt>
      <trkpt lat="43.67238" lon="6.15801">
        <ele>601</ele>
        <time>2023-12-11T10:16:31Z</time>
      </trkpt>
      <trkpt lat="43.67235" lon="6.15787">
        <ele>600.3</ele>
        <time>2023-12-11T10:16:39Z</time>
      </trkpt>
      <trkpt lat="43.67233" lon="6.15774">
        <ele>600.1</ele>
        <time>2023-12-11T10:16:47Z</time>
      </trkpt>
      <trkpt lat="43.67228" lon="6.15763">
        <ele>600.1</ele>
        <time>2023-12-11T10:16:56Z</time>
      </trkpt>
      <trkpt lat="43.67222" lon="6.15752">
        <ele>599.1</ele>
        <time>2023-12-11T10:17:06Z</time>
      </trkpt>
      <trkpt lat="43.67218" lon="6.15739">
        <ele>597.9</ele>
        <time>2023-12-11T10:17:15Z</time>
      </trkpt>
      <trkpt lat="43.67215" lon="6.15727">
        <ele>600.3</ele>
        <time>2023-12-11T10:17:25Z</time>
      </trkpt>
      <trkpt lat="43.67212" lon="6.15714">
        <ele>599.4</ele>
        <time>2023-12-11T10:17:34Z</time>
      </trkpt>
      <trkpt lat="43.6721" lon="6.15701">
        <ele>598.7</ele>
        <time>2023-12-11T10:17:44Z</time>
      </trkpt>
      <trkpt lat="43.67207" lon="6.15689">
        <ele>597.5</ele>
        <time>2023-12-11T10:17:55Z</time>
      </trkpt>
      <trkpt lat="43.67204" lon="6.15676">
        <ele>598</ele>
        <time>2023-12-11T10:18:04Z</time>
      </trkpt>
      <trkpt lat="43.672" lon="6.15665">
        <ele>597.9</ele>
        <time>2023-12-11T10:18:12Z</time>
      </trkpt>
      <trkpt lat="43.67196" lon="6.15652">
        <ele>597.5</ele>
        <time>2023-12-11T10:18:22Z</time>
      </trkpt>
      <trkpt lat="43.67195" lon="6.1564">
        <ele>597.7</ele>
        <time>2023-12-11T10:18:32Z</time>
      </trkpt>
      <trkpt lat="43.67193" lon="6.15628">
        <ele>597.1</ele>
        <time>2023-12-11T10:18:41Z</time>
      </trkpt>
      <trkpt lat="43.6719" lon="6.15616">
        <ele>596.7</ele>
        <time>2023-12-11T10:18:49Z</time>
      </trkpt>
      <trkpt lat="43.67186" lon="6.15604">
        <ele>596.3</ele>
        <time>2023-12-11T10:18:59Z</time>
      </trkpt>
      <trkpt lat="43.67182" lon="6.15592">
        <ele>596.2</ele>
        <time>2023-12-11T10:19:09Z</time>
      </trkpt>
      <trkpt lat="43.67176" lon="6.1558">
        <ele>596.1</ele>
        <time>2023-12-11T10:19:19Z</time>
      </trkpt>
      <trkpt lat="43.67171" lon="6.1557">
        <ele>595.7</ele>
        <time>2023-12-11T10:19:27Z</time>
      </trkpt>
      <trkpt lat="43.67166" lon="6.15559">
        <ele>595.5</ele>
        <time>2023-12-11T10:19:38Z</time>
      </trkpt>
      <trkpt lat="43.67161" lon="6.15548">
        <ele>594.7</ele>
        <time>2023-12-11T10:20:18Z</time>
      </trkpt>
      <trkpt lat="43.67158" lon="6.15536">
        <ele>594</ele>
        <time>2023-12-11T10:20:32Z</time>
      </trkpt>
      <trkpt lat="43.67155" lon="6.15523">
        <ele>592.4</ele>
        <time>2023-12-11T10:20:41Z</time>
      </trkpt>
      <trkpt lat="43.67151" lon="6.1551">
        <ele>592.9</ele>
        <time>2023-12-11T10:20:49Z</time>
      </trkpt>
      <trkpt lat="43.67147" lon="6.15499">
        <ele>592.8</ele>
        <time>2023-12-11T10:21:00Z</time>
      </trkpt>
      <trkpt lat="43.67143" lon="6.15487">
        <ele>592.1</ele>
        <time>2023-12-11T10:21:08Z</time>
      </trkpt>
      <trkpt lat="43.67139" lon="6.15475">
        <ele>592</ele>
        <time>2023-12-11T10:21:16Z</time>
      </trkpt>
      <trkpt lat="43.67135" lon="6.15463">
        <ele>592.1</ele>
        <time>2023-12-11T10:21:26Z</time>
      </trkpt>
      <trkpt lat="43.67131" lon="6.15452">
        <ele>591.9</ele>
        <time>2023-12-11T10:21:37Z</time>
      </trkpt>
      <trkpt lat="43.67128" lon="6.1544">
        <ele>591.7</ele>
        <time>2023-12-11T10:21:47Z</time>
      </trkpt>
      <trkpt lat="43.67125" lon="6.15428">
        <ele>591.6</ele>
        <time>2023-12-11T10:21:57Z</time>
      </trkpt>
      <trkpt lat="43.67121" lon="6.15417">
        <ele>591.5</ele>
        <time>2023-12-11T10:22:08Z</time>
      </trkpt>
      <trkpt lat="43.67115" lon="6.15406">
        <ele>590.8</ele>
        <time>2023-12-11T10:22:21Z</time>
      </trkpt>
      <trkpt lat="43.67111" lon="6.15393">
        <ele>590.1</ele>
        <time>2023-12-11T10:22:32Z</time>
      </trkpt>
      <trkpt lat="43.67109" lon="6.1538">
        <ele>588</ele>
        <time>2023-12-11T10:22:43Z</time>
      </trkpt>
      <trkpt lat="43.67102" lon="6.1537">
        <ele>590.6</ele>
        <time>2023-12-11T10:22:56Z</time>
      </trkpt>
      <trkpt lat="43.67098" lon="6.15359">
        <ele>591.1</ele>
        <time>2023-12-11T10:23:09Z</time>
      </trkpt>
      <trkpt lat="43.67092" lon="6.15349">
        <ele>591.2</ele>
        <time>2023-12-11T10:23:21Z</time>
      </trkpt>
      <trkpt lat="43.67087" lon="6.15339">
        <ele>591.2</ele>
        <time>2023-12-11T10:23:31Z</time>
      </trkpt>
      <trkpt lat="43.67083" lon="6.15326">
        <ele>591.7</ele>
        <time>2023-12-11T10:23:41Z</time>
      </trkpt>
      <trkpt lat="43.67077" lon="6.15315">
        <ele>590.1</ele>
        <time>2023-12-11T10:23:51Z</time>
      </trkpt>
      <trkpt lat="43.67069" lon="6.15306">
        <ele>589.9</ele>
        <time>2023-12-11T10:24:02Z</time>
      </trkpt>
      <trkpt lat="43.67064" lon="6.15295">
        <ele>589.8</ele>
        <time>2023-12-11T10:24:13Z</time>
      </trkpt>
      <trkpt lat="43.67057" lon="6.15286">
        <ele>589.4</ele>
        <time>2023-12-11T10:24:25Z</time>
      </trkpt>
      <trkpt lat="43.67051" lon="6.15276">
        <ele>588.6</ele>
        <time>2023-12-11T10:24:37Z</time>
      </trkpt>
      <trkpt lat="43.67044" lon="6.15268">
        <ele>588.9</ele>
        <time>2023-12-11T10:24:47Z</time>
      </trkpt>
      <trkpt lat="43.67039" lon="6.15257">
        <ele>588.7</ele>
        <time>2023-12-11T10:24:59Z</time>
      </trkpt>
      <trkpt lat="43.67033" lon="6.15246">
        <ele>588.7</ele>
        <time>2023-12-11T10:25:10Z</time>
      </trkpt>
      <trkpt lat="43.67027" lon="6.15236">
        <ele>587.2</ele>
        <time>2023-12-11T10:25:20Z</time>
      </trkpt>
      <trkpt lat="43.67023" lon="6.15224">
        <ele>590.3</ele>
        <time>2023-12-11T10:25:29Z</time>
      </trkpt>
      <trkpt lat="43.67018" lon="6.15213">
        <ele>586.6</ele>
        <time>2023-12-11T10:25:38Z</time>
      </trkpt>
      <trkpt lat="43.67015" lon="6.15201">
        <ele>587.4</ele>
        <time>2023-12-11T10:25:47Z</time>
      </trkpt>
      <trkpt lat="43.67011" lon="6.1519">
        <ele>586.4</ele>
        <time>2023-12-11T10:25:56Z</time>
      </trkpt>
      <trkpt lat="43.67007" lon="6.15179">
        <ele>586.7</ele>
        <time>2023-12-11T10:26:05Z</time>
      </trkpt>
      <trkpt lat="43.67002" lon="6.15168">
        <ele>584.9</ele>
        <time>2023-12-11T10:26:14Z</time>
      </trkpt>
      <trkpt lat="43.66996" lon="6.15158">
        <ele>586.6</ele>
        <time>2023-12-11T10:26:24Z</time>
      </trkpt>
      <trkpt lat="43.6699" lon="6.15148">
        <ele>587.2</ele>
        <time>2023-12-11T10:26:34Z</time>
      </trkpt>
      <trkpt lat="43.66984" lon="6.15138">
        <ele>586.4</ele>
        <time>2023-12-11T10:26:44Z</time>
      </trkpt>
      <trkpt lat="43.66978" lon="6.15128">
        <ele>590</ele>
        <time>2023-12-11T10:26:53Z</time>
      </trkpt>
      <trkpt lat="43.66972" lon="6.15119">
        <ele>586.7</ele>
        <time>2023-12-11T10:27:04Z</time>
      </trkpt>
      <trkpt lat="43.66967" lon="6.15109">
        <ele>586</ele>
        <time>2023-12-11T10:27:16Z</time>
      </trkpt>
      <trkpt lat="43.6696" lon="6.15099">
        <ele>586.7</ele>
        <time>2023-12-11T10:27:27Z</time>
      </trkpt>
      <trkpt lat="43.66955" lon="6.15088">
        <ele>585.8</ele>
        <time>2023-12-11T10:27:39Z</time>
      </trkpt>
      <trkpt lat="43.6695" lon="6.15076">
        <ele>585.3</ele>
        <time>2023-12-11T10:27:53Z</time>
      </trkpt>
      <trkpt lat="43.66945" lon="6.15065">
        <ele>585.1</ele>
        <time>2023-12-11T10:28:04Z</time>
      </trkpt>
      <trkpt lat="43.66942" lon="6.15053">
        <ele>584.4</ele>
        <time>2023-12-11T10:28:32Z</time>
      </trkpt>
      <trkpt lat="43.66936" lon="6.15043">
        <ele>584.4</ele>
        <time>2023-12-11T10:28:43Z</time>
      </trkpt>
      <trkpt lat="43.66932" lon="6.15031">
        <ele>584</ele>
        <time>2023-12-11T10:28:56Z</time>
      </trkpt>
      <trkpt lat="43.66931" lon="6.15019">
        <ele>583.8</ele>
        <time>2023-12-11T10:29:08Z</time>
      </trkpt>
      <trkpt lat="43.66928" lon="6.15006">
        <ele>583.4</ele>
        <time>2023-12-11T10:29:18Z</time>
      </trkpt>
      <trkpt lat="43.66922" lon="6.14997">
        <ele>583.1</ele>
        <time>2023-12-11T10:29:27Z</time>
      </trkpt>
      <trkpt lat="43.66919" lon="6.14985">
        <ele>582.6</ele>
        <time>2023-12-11T10:29:37Z</time>
      </trkpt>
      <trkpt lat="43.66919" lon="6.14972">
        <ele>582.6</ele>
        <time>2023-12-11T10:29:48Z</time>
      </trkpt>
      <trkpt lat="43.66916" lon="6.14959">
        <ele>582</ele>
        <time>2023-12-11T10:29:58Z</time>
      </trkpt>
      <trkpt lat="43.66914" lon="6.14946">
        <ele>581</ele>
        <time>2023-12-11T10:30:09Z</time>
      </trkpt>
      <trkpt lat="43.66911" lon="6.14933">
        <ele>580.3</ele>
        <time>2023-12-11T10:30:20Z</time>
      </trkpt>
      <trkpt lat="43.66911" lon="6.1492">
        <ele>579.8</ele>
        <time>2023-12-11T10:30:28Z</time>
      </trkpt>
      <trkpt lat="43.66907" lon="6.14908">
        <ele>582.3</ele>
        <time>2023-12-11T10:30:38Z</time>
      </trkpt>
      <trkpt lat="43.66903" lon="6.14896">
        <ele>579.8</ele>
        <time>2023-12-11T10:30:47Z</time>
      </trkpt>
      <trkpt lat="43.66899" lon="6.14884">
        <ele>580.4</ele>
        <time>2023-12-11T10:30:55Z</time>
      </trkpt>
      <trkpt lat="43.66895" lon="6.14873">
        <ele>580.6</ele>
        <time>2023-12-11T10:31:04Z</time>
      </trkpt>
      <trkpt lat="43.66891" lon="6.14862">
        <ele>579.5</ele>
        <time>2023-12-11T10:31:13Z</time>
      </trkpt>
      <trkpt lat="43.66886" lon="6.14849">
        <ele>580.7</ele>
        <time>2023-12-11T10:31:23Z</time>
      </trkpt>
      <trkpt lat="43.66881" lon="6.14837">
        <ele>581.8</ele>
        <time>2023-12-11T10:31:33Z</time>
      </trkpt>
      <trkpt lat="43.66876" lon="6.14827">
        <ele>582.8</ele>
        <time>2023-12-11T10:31:43Z</time>
      </trkpt>
      <trkpt lat="43.66869" lon="6.14817">
        <ele>580.9</ele>
        <time>2023-12-11T10:31:54Z</time>
      </trkpt>
      <trkpt lat="43.66862" lon="6.1481">
        <ele>579.2</ele>
        <time>2023-12-11T10:32:07Z</time>
      </trkpt>
      <trkpt lat="43.66862" lon="6.14797">
        <ele>580.8</ele>
        <time>2023-12-11T10:32:26Z</time>
      </trkpt>
      <trkpt lat="43.66853" lon="6.14802">
        <ele>580.6</ele>
        <time>2023-12-11T10:35:09Z</time>
      </trkpt>
      <trkpt lat="43.66845" lon="6.14809">
        <ele>580.8</ele>
        <time>2023-12-11T10:35:23Z</time>
      </trkpt>
      <trkpt lat="43.66837" lon="6.14813">
        <ele>581.7</ele>
        <time>2023-12-11T10:36:19Z</time>
      </trkpt>
      <trkpt lat="43.66831" lon="6.14823">
        <ele>581.4</ele>
        <time>2023-12-11T10:36:30Z</time>
      </trkpt>
      <trkpt lat="43.66825" lon="6.14834">
        <ele>581.2</ele>
        <time>2023-12-11T10:36:41Z</time>
      </trkpt>
      <trkpt lat="43.66819" lon="6.14843">
        <ele>581.2</ele>
        <time>2023-12-11T10:36:53Z</time>
      </trkpt>
      <trkpt lat="43.66816" lon="6.14856">
        <ele>581.4</ele>
        <time>2023-12-11T10:37:03Z</time>
      </trkpt>
      <trkpt lat="43.66812" lon="6.14867">
        <ele>581.1</ele>
        <time>2023-12-11T10:37:12Z</time>
      </trkpt>
      <trkpt lat="43.66808" lon="6.14879">
        <ele>581.5</ele>
        <time>2023-12-11T10:37:22Z</time>
      </trkpt>
      <trkpt lat="43.66805" lon="6.14892">
        <ele>581.6</ele>
        <time>2023-12-11T10:37:32Z</time>
      </trkpt>
      <trkpt lat="43.668" lon="6.14903">
        <ele>581.8</ele>
        <time>2023-12-11T10:37:41Z</time>
      </trkpt>
      <trkpt lat="43.66793" lon="6.14913">
        <ele>582.1</ele>
        <time>2023-12-11T10:37:50Z</time>
      </trkpt>
      <trkpt lat="43.66787" lon="6.14923">
        <ele>582.2</ele>
        <time>2023-12-11T10:37:59Z</time>
      </trkpt>
      <trkpt lat="43.6678" lon="6.14932">
        <ele>583.8</ele>
        <time>2023-12-11T10:38:08Z</time>
      </trkpt>
      <trkpt lat="43.66773" lon="6.14941">
        <ele>582.8</ele>
        <time>2023-12-11T10:38:18Z</time>
      </trkpt>
      <trkpt lat="43.66766" lon="6.1495">
        <ele>582.3</ele>
        <time>2023-12-11T10:38:30Z</time>
      </trkpt>
      <trkpt lat="43.66761" lon="6.1496">
        <ele>582.8</ele>
        <time>2023-12-11T10:38:40Z</time>
      </trkpt>
      <trkpt lat="43.66754" lon="6.14969">
        <ele>583.2</ele>
        <time>2023-12-11T10:38:51Z</time>
      </trkpt>
      <trkpt lat="43.6675" lon="6.1498">
        <ele>583.1</ele>
        <time>2023-12-11T10:39:03Z</time>
      </trkpt>
      <trkpt lat="43.66748" lon="6.14992">
        <ele>584.5</ele>
        <time>2023-12-11T10:39:46Z</time>
      </trkpt>
      <trkpt lat="43.66742" lon="6.15003">
        <ele>583.7</ele>
        <time>2023-12-11T10:39:55Z</time>
      </trkpt>
      <trkpt lat="43.66735" lon="6.15014">
        <ele>584.2</ele>
        <time>2023-12-11T10:40:04Z</time>
      </trkpt>
      <trkpt lat="43.6673" lon="6.15025">
        <ele>584.5</ele>
        <time>2023-12-11T10:40:13Z</time>
      </trkpt>
      <trkpt lat="43.66726" lon="6.15036">
        <ele>585.7</ele>
        <time>2023-12-11T10:40:22Z</time>
      </trkpt>
      <trkpt lat="43.66722" lon="6.15048">
        <ele>585.2</ele>
        <time>2023-12-11T10:40:32Z</time>
      </trkpt>
      <trkpt lat="43.66713" lon="6.15046">
        <ele>585.7</ele>
        <time>2023-12-11T10:40:52Z</time>
      </trkpt>
      <trkpt lat="43.66706" lon="6.15037">
        <ele>584.2</ele>
        <time>2023-12-11T10:41:03Z</time>
      </trkpt>
      <trkpt lat="43.66701" lon="6.15025">
        <ele>586.8</ele>
        <time>2023-12-11T10:41:14Z</time>
      </trkpt>
      <trkpt lat="43.66696" lon="6.15013">
        <ele>585.6</ele>
        <time>2023-12-11T10:41:24Z</time>
      </trkpt>
      <trkpt lat="43.66695" lon="6.15">
        <ele>585.8</ele>
        <time>2023-12-11T10:41:34Z</time>
      </trkpt>
      <trkpt lat="43.66695" lon="6.14988">
        <ele>585.8</ele>
        <time>2023-12-11T10:41:44Z</time>
      </trkpt>
      <trkpt lat="43.66694" lon="6.14975">
        <ele>585.8</ele>
        <time>2023-12-11T10:41:55Z</time>
      </trkpt>
      <trkpt lat="43.66696" lon="6.14961">
        <ele>585.9</ele>
        <time>2023-12-11T10:42:05Z</time>
      </trkpt>
      <trkpt lat="43.6669" lon="6.14951">
        <ele>586.1</ele>
        <time>2023-12-11T10:42:16Z</time>
      </trkpt>
      <trkpt lat="43.66687" lon="6.14938">
        <ele>586.1</ele>
        <time>2023-12-11T10:42:29Z</time>
      </trkpt>
      <trkpt lat="43.66687" lon="6.14925">
        <ele>586.3</ele>
        <time>2023-12-11T10:42:38Z</time>
      </trkpt>
      <trkpt lat="43.66688" lon="6.14912">
        <ele>587.3</ele>
        <time>2023-12-11T10:42:50Z</time>
      </trkpt>
      <trkpt lat="43.66692" lon="6.149">
        <ele>586.5</ele>
        <time>2023-12-11T10:43:02Z</time>
      </trkpt>
      <trkpt lat="43.66694" lon="6.14888">
        <ele>586.2</ele>
        <time>2023-12-11T10:43:13Z</time>
      </trkpt>
      <trkpt lat="43.66687" lon="6.1488">
        <ele>586.2</ele>
        <time>2023-12-11T10:43:47Z</time>
      </trkpt>
      <trkpt lat="43.66678" lon="6.14877">
        <ele>586.5</ele>
        <time>2023-12-11T10:43:59Z</time>
      </trkpt>
      <trkpt lat="43.66671" lon="6.14868">
        <ele>586.6</ele>
        <time>2023-12-11T10:44:09Z</time>
      </trkpt>
      <trkpt lat="43.66667" lon="6.14857">
        <ele>586.9</ele>
        <time>2023-12-11T10:44:25Z</time>
      </trkpt>
      <trkpt lat="43.66657" lon="6.14859">
        <ele>587.3</ele>
        <time>2023-12-11T10:44:39Z</time>
      </trkpt>
      <trkpt lat="43.66648" lon="6.14861">
        <ele>587.7</ele>
        <time>2023-12-11T10:44:54Z</time>
      </trkpt>
      <trkpt lat="43.66638" lon="6.14862">
        <ele>587.5</ele>
        <time>2023-12-11T10:45:09Z</time>
      </trkpt>
      <trkpt lat="43.66629" lon="6.14858">
        <ele>587.6</ele>
        <time>2023-12-11T10:45:19Z</time>
      </trkpt>
      <trkpt lat="43.66619" lon="6.14856">
        <ele>588.2</ele>
        <time>2023-12-11T10:45:33Z</time>
      </trkpt>
      <trkpt lat="43.66615" lon="6.14845">
        <ele>587.5</ele>
        <time>2023-12-11T10:45:45Z</time>
      </trkpt>
      <trkpt lat="43.66619" lon="6.14833">
        <ele>586.1</ele>
        <time>2023-12-11T10:46:07Z</time>
      </trkpt>
      <trkpt lat="43.66622" lon="6.14821">
        <ele>586.5</ele>
        <time>2023-12-11T10:46:16Z</time>
      </trkpt>
      <trkpt lat="43.66624" lon="6.14807">
        <ele>586.6</ele>
        <time>2023-12-11T10:46:25Z</time>
      </trkpt>
      <trkpt lat="43.66627" lon="6.14794">
        <ele>588.1</ele>
        <time>2023-12-11T10:46:33Z</time>
      </trkpt>
      <trkpt lat="43.66629" lon="6.14782">
        <ele>587.1</ele>
        <time>2023-12-11T10:46:41Z</time>
      </trkpt>
      <trkpt lat="43.66634" lon="6.1477">
        <ele>584.5</ele>
        <time>2023-12-11T10:46:50Z</time>
      </trkpt>
      <trkpt lat="43.66634" lon="6.14758">
        <ele>584.8</ele>
        <time>2023-12-11T10:46:59Z</time>
      </trkpt>
      <trkpt lat="43.66635" lon="6.14744">
        <ele>587.3</ele>
        <time>2023-12-11T10:47:07Z</time>
      </trkpt>
      <trkpt lat="43.6664" lon="6.14733">
        <ele>586.9</ele>
        <time>2023-12-11T10:47:15Z</time>
      </trkpt>
      <trkpt lat="43.66642" lon="6.1472">
        <ele>584.9</ele>
        <time>2023-12-11T10:47:29Z</time>
      </trkpt>
      <trkpt lat="43.66644" lon="6.14708">
        <ele>585</ele>
        <time>2023-12-11T10:47:37Z</time>
      </trkpt>
      <trkpt lat="43.66647" lon="6.14694">
        <ele>586.8</ele>
        <time>2023-12-11T10:47:45Z</time>
      </trkpt>
      <trkpt lat="43.66651" lon="6.14682">
        <ele>585.9</ele>
        <time>2023-12-11T10:47:53Z</time>
      </trkpt>
      <trkpt lat="43.66652" lon="6.1467">
        <ele>584.8</ele>
        <time>2023-12-11T10:48:01Z</time>
      </trkpt>
      <trkpt lat="43.66653" lon="6.14657">
        <ele>584.1</ele>
        <time>2023-12-11T10:48:11Z</time>
      </trkpt>
      <trkpt lat="43.66657" lon="6.14645">
        <ele>584.7</ele>
        <time>2023-12-11T10:48:19Z</time>
      </trkpt>
      <trkpt lat="43.66656" lon="6.14632">
        <ele>585.2</ele>
        <time>2023-12-11T10:48:27Z</time>
      </trkpt>
      <trkpt lat="43.66658" lon="6.14618">
        <ele>583.1</ele>
        <time>2023-12-11T10:48:36Z</time>
      </trkpt>
      <trkpt lat="43.66661" lon="6.14606">
        <ele>582.1</ele>
        <time>2023-12-11T10:48:45Z</time>
      </trkpt>
      <trkpt lat="43.66663" lon="6.14593">
        <ele>582.7</ele>
        <time>2023-12-11T10:48:54Z</time>
      </trkpt>
      <trkpt lat="43.66665" lon="6.1458">
        <ele>582.6</ele>
        <time>2023-12-11T10:49:02Z</time>
      </trkpt>
      <trkpt lat="43.66667" lon="6.14567">
        <ele>583.1</ele>
        <time>2023-12-11T10:49:10Z</time>
      </trkpt>
      <trkpt lat="43.66669" lon="6.14554">
        <ele>583.8</ele>
        <time>2023-12-11T10:49:19Z</time>
      </trkpt>
      <trkpt lat="43.66671" lon="6.14541">
        <ele>582.4</ele>
        <time>2023-12-11T10:49:28Z</time>
      </trkpt>
      <trkpt lat="43.66673" lon="6.14527">
        <ele>583</ele>
        <time>2023-12-11T10:49:37Z</time>
      </trkpt>
      <trkpt lat="43.66674" lon="6.14514">
        <ele>581.8</ele>
        <time>2023-12-11T10:49:47Z</time>
      </trkpt>
      <trkpt lat="43.66677" lon="6.14502">
        <ele>582.4</ele>
        <time>2023-12-11T10:49:56Z</time>
      </trkpt>
      <trkpt lat="43.66679" lon="6.14488">
        <ele>581.9</ele>
        <time>2023-12-11T10:50:06Z</time>
      </trkpt>
      <trkpt lat="43.66681" lon="6.14476">
        <ele>581.5</ele>
        <time>2023-12-11T10:50:15Z</time>
      </trkpt>
      <trkpt lat="43.66684" lon="6.14464">
        <ele>581.3</ele>
        <time>2023-12-11T10:50:24Z</time>
      </trkpt>
      <trkpt lat="43.66687" lon="6.14452">
        <ele>581.6</ele>
        <time>2023-12-11T10:50:34Z</time>
      </trkpt>
      <trkpt lat="43.66689" lon="6.1444">
        <ele>580.1</ele>
        <time>2023-12-11T10:50:44Z</time>
      </trkpt>
      <trkpt lat="43.66691" lon="6.14427">
        <ele>580.2</ele>
        <time>2023-12-11T10:50:53Z</time>
      </trkpt>
      <trkpt lat="43.66694" lon="6.14415">
        <ele>580.2</ele>
        <time>2023-12-11T10:51:02Z</time>
      </trkpt>
      <trkpt lat="43.66696" lon="6.14402">
        <ele>579.9</ele>
        <time>2023-12-11T10:51:12Z</time>
      </trkpt>
      <trkpt lat="43.66692" lon="6.14389">
        <ele>579.4</ele>
        <time>2023-12-11T10:51:23Z</time>
      </trkpt>
      <trkpt lat="43.66685" lon="6.1438">
        <ele>579.5</ele>
        <time>2023-12-11T10:51:33Z</time>
      </trkpt>
      <trkpt lat="43.66678" lon="6.14373">
        <ele>578.3</ele>
        <time>2023-12-11T10:51:42Z</time>
      </trkpt>
      <trkpt lat="43.66671" lon="6.14365">
        <ele>580.2</ele>
        <time>2023-12-11T10:51:50Z</time>
      </trkpt>
      <trkpt lat="43.66662" lon="6.1436">
        <ele>578.6</ele>
        <time>2023-12-11T10:51:59Z</time>
      </trkpt>
      <trkpt lat="43.66654" lon="6.14355">
        <ele>577</ele>
        <time>2023-12-11T10:52:08Z</time>
      </trkpt>
      <trkpt lat="43.66646" lon="6.14348">
        <ele>575.7</ele>
        <time>2023-12-11T10:52:17Z</time>
      </trkpt>
      <trkpt lat="43.66639" lon="6.14339">
        <ele>575.5</ele>
        <time>2023-12-11T10:52:27Z</time>
      </trkpt>
      <trkpt lat="43.66634" lon="6.14328">
        <ele>575.1</ele>
        <time>2023-12-11T10:52:37Z</time>
      </trkpt>
      <trkpt lat="43.66627" lon="6.14319">
        <ele>574.4</ele>
        <time>2023-12-11T10:52:46Z</time>
      </trkpt>
      <trkpt lat="43.6662" lon="6.14309">
        <ele>573.2</ele>
        <time>2023-12-11T10:52:57Z</time>
      </trkpt>
      <trkpt lat="43.66611" lon="6.14307">
        <ele>572.9</ele>
        <time>2023-12-11T10:53:08Z</time>
      </trkpt>
      <trkpt lat="43.66602" lon="6.14302">
        <ele>571.5</ele>
        <time>2023-12-11T10:53:33Z</time>
      </trkpt>
      <trkpt lat="43.66593" lon="6.14297">
        <ele>570.7</ele>
        <time>2023-12-11T10:53:51Z</time>
      </trkpt>
      <trkpt lat="43.66585" lon="6.14292">
        <ele>570</ele>
        <time>2023-12-11T10:54:01Z</time>
      </trkpt>
      <trkpt lat="43.66576" lon="6.14288">
        <ele>567.7</ele>
        <time>2023-12-11T10:54:13Z</time>
      </trkpt>
      <trkpt lat="43.66567" lon="6.14283">
        <ele>571</ele>
        <time>2023-12-11T10:56:01Z</time>
      </trkpt>
      <trkpt lat="43.66558" lon="6.14278">
        <ele>571.1</ele>
        <time>2023-12-11T10:56:10Z</time>
      </trkpt>
      <trkpt lat="43.66549" lon="6.14272">
        <ele>568.8</ele>
        <time>2023-12-11T10:56:19Z</time>
      </trkpt>
      <trkpt lat="43.66541" lon="6.14265">
        <ele>571.8</ele>
        <time>2023-12-11T10:56:28Z</time>
      </trkpt>
      <trkpt lat="43.66534" lon="6.14256">
        <ele>570.9</ele>
        <time>2023-12-11T10:56:36Z</time>
      </trkpt>
      <trkpt lat="43.66526" lon="6.14249">
        <ele>570.3</ele>
        <time>2023-12-11T10:56:44Z</time>
      </trkpt>
      <trkpt lat="43.66519" lon="6.1424">
        <ele>569.8</ele>
        <time>2023-12-11T10:56:53Z</time>
      </trkpt>
      <trkpt lat="43.66511" lon="6.14232">
        <ele>569.7</ele>
        <time>2023-12-11T10:57:02Z</time>
      </trkpt>
      <trkpt lat="43.66504" lon="6.14224">
        <ele>569.5</ele>
        <time>2023-12-11T10:57:09Z</time>
      </trkpt>
      <trkpt lat="43.66497" lon="6.14217">
        <ele>569.7</ele>
        <time>2023-12-11T10:57:15Z</time>
      </trkpt>
      <trkpt lat="43.66491" lon="6.14205">
        <ele>569.6</ele>
        <time>2023-12-11T10:57:23Z</time>
      </trkpt>
      <trkpt lat="43.66486" lon="6.14193">
        <ele>569.6</ele>
        <time>2023-12-11T10:57:32Z</time>
      </trkpt>
      <trkpt lat="43.6648" lon="6.14182">
        <ele>569.8</ele>
        <time>2023-12-11T10:57:39Z</time>
      </trkpt>
      <trkpt lat="43.66473" lon="6.14172">
        <ele>569.8</ele>
        <time>2023-12-11T10:57:46Z</time>
      </trkpt>
      <trkpt lat="43.66468" lon="6.14161">
        <ele>569.7</ele>
        <time>2023-12-11T10:57:53Z</time>
      </trkpt>
      <trkpt lat="43.66461" lon="6.14151">
        <ele>569.6</ele>
        <time>2023-12-11T10:58:00Z</time>
      </trkpt>
      <trkpt lat="43.66453" lon="6.14143">
        <ele>569.6</ele>
        <time>2023-12-11T10:58:07Z</time>
      </trkpt>
      <trkpt lat="43.66447" lon="6.14132">
        <ele>569.6</ele>
        <time>2023-12-11T10:58:15Z</time>
      </trkpt>
      <trkpt lat="43.66439" lon="6.14124">
        <ele>569.2</ele>
        <time>2023-12-11T10:58:23Z</time>
      </trkpt>
      <trkpt lat="43.66432" lon="6.14114">
        <ele>568.7</ele>
        <time>2023-12-11T10:58:31Z</time>
      </trkpt>
      <trkpt lat="43.66426" lon="6.14103">
        <ele>568.2</ele>
        <time>2023-12-11T10:58:39Z</time>
      </trkpt>
      <trkpt lat="43.66419" lon="6.14094">
        <ele>568</ele>
        <time>2023-12-11T10:58:47Z</time>
      </trkpt>
      <trkpt lat="43.66411" lon="6.14086">
        <ele>567.3</ele>
        <time>2023-12-11T10:58:55Z</time>
      </trkpt>
      <trkpt lat="43.66403" lon="6.14077">
        <ele>567</ele>
        <time>2023-12-11T10:59:04Z</time>
      </trkpt>
      <trkpt lat="43.66396" lon="6.14069">
        <ele>566.5</ele>
        <time>2023-12-11T10:59:12Z</time>
      </trkpt>
      <trkpt lat="43.66389" lon="6.1406">
        <ele>566.2</ele>
        <time>2023-12-11T10:59:20Z</time>
      </trkpt>
      <trkpt lat="43.66383" lon="6.14051">
        <ele>565.1</ele>
        <time>2023-12-11T10:59:29Z</time>
      </trkpt>
      <trkpt lat="43.66376" lon="6.14044">
        <ele>565.1</ele>
        <time>2023-12-11T10:59:37Z</time>
      </trkpt>
      <trkpt lat="43.66368" lon="6.14035">
        <ele>564.5</ele>
        <time>2023-12-11T10:59:46Z</time>
      </trkpt>
      <trkpt lat="43.6636" lon="6.1403">
        <ele>563.8</ele>
        <time>2023-12-11T10:59:55Z</time>
      </trkpt>
      <trkpt lat="43.66352" lon="6.14022">
        <ele>563.4</ele>
        <time>2023-12-11T11:00:04Z</time>
      </trkpt>
      <trkpt lat="43.66344" lon="6.14016">
        <ele>563.4</ele>
        <time>2023-12-11T11:00:13Z</time>
      </trkpt>
      <trkpt lat="43.66335" lon="6.14011">
        <ele>562.4</ele>
        <time>2023-12-11T11:00:21Z</time>
      </trkpt>
      <trkpt lat="43.66326" lon="6.14008">
        <ele>563</ele>
        <time>2023-12-11T11:00:33Z</time>
      </trkpt>
      <trkpt lat="43.66317" lon="6.14005">
        <ele>564</ele>
        <time>2023-12-11T11:00:43Z</time>
      </trkpt>
      <trkpt lat="43.66307" lon="6.14">
        <ele>564.8</ele>
        <time>2023-12-11T11:00:51Z</time>
      </trkpt>
      <trkpt lat="43.66298" lon="6.13994">
        <ele>564.2</ele>
        <time>2023-12-11T11:00:58Z</time>
      </trkpt>
      <trkpt lat="43.66292" lon="6.13985">
        <ele>563.8</ele>
        <time>2023-12-11T11:01:06Z</time>
      </trkpt>
      <trkpt lat="43.66284" lon="6.13979">
        <ele>563.6</ele>
        <time>2023-12-11T11:01:15Z</time>
      </trkpt>
      <trkpt lat="43.66276" lon="6.13972">
        <ele>563.4</ele>
        <time>2023-12-11T11:01:24Z</time>
      </trkpt>
      <trkpt lat="43.66267" lon="6.13966">
        <ele>562.9</ele>
        <time>2023-12-11T11:01:33Z</time>
      </trkpt>
      <trkpt lat="43.66257" lon="6.13962">
        <ele>562.4</ele>
        <time>2023-12-11T11:01:43Z</time>
      </trkpt>
      <trkpt lat="43.66249" lon="6.13955">
        <ele>563.8</ele>
        <time>2023-12-11T11:01:55Z</time>
      </trkpt>
      <trkpt lat="43.66241" lon="6.13949">
        <ele>562.4</ele>
        <time>2023-12-11T11:02:03Z</time>
      </trkpt>
      <trkpt lat="43.66232" lon="6.13944">
        <ele>561.1</ele>
        <time>2023-12-11T11:02:11Z</time>
      </trkpt>
      <trkpt lat="43.66223" lon="6.13938">
        <ele>560.3</ele>
        <time>2023-12-11T11:02:20Z</time>
      </trkpt>
      <trkpt lat="43.66214" lon="6.13933">
        <ele>559.6</ele>
        <time>2023-12-11T11:02:28Z</time>
      </trkpt>
      <trkpt lat="43.66205" lon="6.13929">
        <ele>559.9</ele>
        <time>2023-12-11T11:02:36Z</time>
      </trkpt>
      <trkpt lat="43.66196" lon="6.13924">
        <ele>560</ele>
        <time>2023-12-11T11:02:44Z</time>
      </trkpt>
      <trkpt lat="43.66187" lon="6.13919">
        <ele>559.7</ele>
        <time>2023-12-11T11:02:53Z</time>
      </trkpt>
      <trkpt lat="43.66177" lon="6.13915">
        <ele>559.6</ele>
        <time>2023-12-11T11:03:02Z</time>
      </trkpt>
      <trkpt lat="43.66168" lon="6.13911">
        <ele>558.8</ele>
        <time>2023-12-11T11:03:12Z</time>
      </trkpt>
      <trkpt lat="43.66158" lon="6.13908">
        <ele>558.6</ele>
        <time>2023-12-11T11:03:24Z</time>
      </trkpt>
      <trkpt lat="43.6615" lon="6.13903">
        <ele>557.8</ele>
        <time>2023-12-11T11:03:36Z</time>
      </trkpt>
      <trkpt lat="43.66141" lon="6.13904">
        <ele>560</ele>
        <time>2023-12-11T11:04:12Z</time>
      </trkpt>
      <trkpt lat="43.66137" lon="6.13892">
        <ele>559.4</ele>
        <time>2023-12-11T11:05:44Z</time>
      </trkpt>
      <trkpt lat="43.66129" lon="6.139">
        <ele>559.1</ele>
        <time>2023-12-11T11:06:22Z</time>
      </trkpt>
      <trkpt lat="43.6612" lon="6.13897">
        <ele>558.7</ele>
        <time>2023-12-11T11:06:38Z</time>
      </trkpt>
      <trkpt lat="43.6611" lon="6.13891">
        <ele>558.7</ele>
        <time>2023-12-11T11:06:52Z</time>
      </trkpt>
      <trkpt lat="43.661" lon="6.13887">
        <ele>558.8</ele>
        <time>2023-12-11T11:07:00Z</time>
      </trkpt>
      <trkpt lat="43.66091" lon="6.13886">
        <ele>558.8</ele>
        <time>2023-12-11T11:07:09Z</time>
      </trkpt>
      <trkpt lat="43.66082" lon="6.13881">
        <ele>558.5</ele>
        <time>2023-12-11T11:07:22Z</time>
      </trkpt>
      <trkpt lat="43.66073" lon="6.13879">
        <ele>558.4</ele>
        <time>2023-12-11T11:07:48Z</time>
      </trkpt>
      <trkpt lat="43.66063" lon="6.13874">
        <ele>558.6</ele>
        <time>2023-12-11T11:08:11Z</time>
      </trkpt>
      <trkpt lat="43.66056" lon="6.13865">
        <ele>559.1</ele>
        <time>2023-12-11T11:08:19Z</time>
      </trkpt>
      <trkpt lat="43.66049" lon="6.13856">
        <ele>558.2</ele>
        <time>2023-12-11T11:08:28Z</time>
      </trkpt>
      <trkpt lat="43.66041" lon="6.13848">
        <ele>557.9</ele>
        <time>2023-12-11T11:08:37Z</time>
      </trkpt>
      <trkpt lat="43.66033" lon="6.13844">
        <ele>556.8</ele>
        <time>2023-12-11T11:08:53Z</time>
      </trkpt>
      <trkpt lat="43.66026" lon="6.13835">
        <ele>557.8</ele>
        <time>2023-12-11T11:09:11Z</time>
      </trkpt>
      <trkpt lat="43.66018" lon="6.13827">
        <ele>558.7</ele>
        <time>2023-12-11T11:09:19Z</time>
      </trkpt>
      <trkpt lat="43.6601" lon="6.13819">
        <ele>557.6</ele>
        <time>2023-12-11T11:09:31Z</time>
      </trkpt>
      <trkpt lat="43.66002" lon="6.13814">
        <ele>556</ele>
        <time>2023-12-11T11:09:43Z</time>
      </trkpt>
      <trkpt lat="43.65994" lon="6.13805">
        <ele>556.1</ele>
        <time>2023-12-11T11:09:51Z</time>
      </trkpt>
      <trkpt lat="43.65988" lon="6.13796">
        <ele>555.3</ele>
        <time>2023-12-11T11:10:00Z</time>
      </trkpt>
      <trkpt lat="43.65982" lon="6.13785">
        <ele>554.7</ele>
        <time>2023-12-11T11:10:10Z</time>
      </trkpt>
      <trkpt lat="43.65975" lon="6.13776">
        <ele>553.9</ele>
        <time>2023-12-11T11:10:19Z</time>
      </trkpt>
      <trkpt lat="43.65969" lon="6.13766">
        <ele>551.8</ele>
        <time>2023-12-11T11:10:29Z</time>
      </trkpt>
      <trkpt lat="43.65965" lon="6.13754">
        <ele>552</ele>
        <time>2023-12-11T11:10:39Z</time>
      </trkpt>
      <trkpt lat="43.6596" lon="6.13743">
        <ele>551</ele>
        <time>2023-12-11T11:10:48Z</time>
      </trkpt>
      <trkpt lat="43.65958" lon="6.1373">
        <ele>550.1</ele>
        <time>2023-12-11T11:10:57Z</time>
      </trkpt>
      <trkpt lat="43.65956" lon="6.13717">
        <ele>549.5</ele>
        <time>2023-12-11T11:11:05Z</time>
      </trkpt>
      <trkpt lat="43.65953" lon="6.13705">
        <ele>548.9</ele>
        <time>2023-12-11T11:11:14Z</time>
      </trkpt>
      <trkpt lat="43.6595" lon="6.13692">
        <ele>548.7</ele>
        <time>2023-12-11T11:11:23Z</time>
      </trkpt>
      <trkpt lat="43.65945" lon="6.13681">
        <ele>548.4</ele>
        <time>2023-12-11T11:11:31Z</time>
      </trkpt>
      <trkpt lat="43.65941" lon="6.13669">
        <ele>548</ele>
        <time>2023-12-11T11:11:41Z</time>
      </trkpt>
      <trkpt lat="43.65933" lon="6.13662">
        <ele>547.9</ele>
        <time>2023-12-11T11:11:53Z</time>
      </trkpt>
      <trkpt lat="43.65928" lon="6.13651">
        <ele>546.6</ele>
        <time>2023-12-11T11:12:10Z</time>
      </trkpt>
      <trkpt lat="43.65926" lon="6.13639">
        <ele>545.8</ele>
        <time>2023-12-11T11:12:41Z</time>
      </trkpt>
      <trkpt lat="43.65928" lon="6.13627">
        <ele>546.2</ele>
        <time>2023-12-11T11:13:16Z</time>
      </trkpt>
      <trkpt lat="43.65934" lon="6.13617">
        <ele>548</ele>
        <time>2023-12-11T11:13:42Z</time>
      </trkpt>
      <trkpt lat="43.65941" lon="6.13607">
        <ele>550.4</ele>
        <time>2023-12-11T11:13:52Z</time>
      </trkpt>
      <trkpt lat="43.65947" lon="6.13598">
        <ele>550.8</ele>
        <time>2023-12-11T11:14:02Z</time>
      </trkpt>
      <trkpt lat="43.65948" lon="6.13586">
        <ele>551.9</ele>
        <time>2023-12-11T11:14:16Z</time>
      </trkpt>
      <trkpt lat="43.65954" lon="6.13575">
        <ele>553.4</ele>
        <time>2023-12-11T11:14:54Z</time>
      </trkpt>
      <trkpt lat="43.65961" lon="6.13567">
        <ele>553.8</ele>
        <time>2023-12-11T11:15:06Z</time>
      </trkpt>
      <trkpt lat="43.65967" lon="6.13557">
        <ele>554.5</ele>
        <time>2023-12-11T11:15:18Z</time>
      </trkpt>
      <trkpt lat="43.65971" lon="6.13545">
        <ele>555.2</ele>
        <time>2023-12-11T11:15:27Z</time>
      </trkpt>
      <trkpt lat="43.65976" lon="6.13533">
        <ele>555.5</ele>
        <time>2023-12-11T11:15:39Z</time>
      </trkpt>
      <trkpt lat="43.65977" lon="6.1352">
        <ele>555.7</ele>
        <time>2023-12-11T11:15:48Z</time>
      </trkpt>
      <trkpt lat="43.65978" lon="6.13507">
        <ele>555.7</ele>
        <time>2023-12-11T11:15:58Z</time>
      </trkpt>
      <trkpt lat="43.65981" lon="6.13495">
        <ele>555.7</ele>
        <time>2023-12-11T11:16:11Z</time>
      </trkpt>
      <trkpt lat="43.65981" lon="6.13482">
        <ele>555.5</ele>
        <time>2023-12-11T11:16:29Z</time>
      </trkpt>
      <trkpt lat="43.65977" lon="6.1347">
        <ele>555.6</ele>
        <time>2023-12-11T11:16:39Z</time>
      </trkpt>
      <trkpt lat="43.65975" lon="6.13457">
        <ele>555.6</ele>
        <time>2023-12-11T11:16:50Z</time>
      </trkpt>
      <trkpt lat="43.65972" lon="6.13445">
        <ele>556.1</ele>
        <time>2023-12-11T11:17:02Z</time>
      </trkpt>
      <trkpt lat="43.6597" lon="6.13432">
        <ele>555.7</ele>
        <time>2023-12-11T11:17:11Z</time>
      </trkpt>
      <trkpt lat="43.65971" lon="6.1342">
        <ele>557.4</ele>
        <time>2023-12-11T11:17:19Z</time>
      </trkpt>
      <trkpt lat="43.65972" lon="6.13407">
        <ele>556</ele>
        <time>2023-12-11T11:17:29Z</time>
      </trkpt>
      <trkpt lat="43.6597" lon="6.13395">
        <ele>557.3</ele>
        <time>2023-12-11T11:17:39Z</time>
      </trkpt>
      <trkpt lat="43.65971" lon="6.13382">
        <ele>556.9</ele>
        <time>2023-12-11T11:17:47Z</time>
      </trkpt>
      <trkpt lat="43.65974" lon="6.1337">
        <ele>556.3</ele>
        <time>2023-12-11T11:17:56Z</time>
      </trkpt>
      <trkpt lat="43.65975" lon="6.13357">
        <ele>555.9</ele>
        <time>2023-12-11T11:18:07Z</time>
      </trkpt>
      <trkpt lat="43.65975" lon="6.13343">
        <ele>555.8</ele>
        <time>2023-12-11T11:18:18Z</time>
      </trkpt>
      <trkpt lat="43.65976" lon="6.1333">
        <ele>557.3</ele>
        <time>2023-12-11T11:18:30Z</time>
      </trkpt>
      <trkpt lat="43.65976" lon="6.13317">
        <ele>555.1</ele>
        <time>2023-12-11T11:18:44Z</time>
      </trkpt>
      <trkpt lat="43.65974" lon="6.13304">
        <ele>555.9</ele>
        <time>2023-12-11T11:19:36Z</time>
      </trkpt>
      <trkpt lat="43.6597" lon="6.13293">
        <ele>555.6</ele>
        <time>2023-12-11T11:19:47Z</time>
      </trkpt>
      <trkpt lat="43.6597" lon="6.13279">
        <ele>556.7</ele>
        <time>2023-12-11T11:19:56Z</time>
      </trkpt>
      <trkpt lat="43.6597" lon="6.13265">
        <ele>556.5</ele>
        <time>2023-12-11T11:20:06Z</time>
      </trkpt>
      <trkpt lat="43.65967" lon="6.13252">
        <ele>556.6</ele>
        <time>2023-12-11T11:20:15Z</time>
      </trkpt>
      <trkpt lat="43.6597" lon="6.1324">
        <ele>556.6</ele>
        <time>2023-12-11T11:20:25Z</time>
      </trkpt>
      <trkpt lat="43.65974" lon="6.13229">
        <ele>556.6</ele>
        <time>2023-12-11T11:20:34Z</time>
      </trkpt>
      <trkpt lat="43.65975" lon="6.13215">
        <ele>556.8</ele>
        <time>2023-12-11T11:20:42Z</time>
      </trkpt>
      <trkpt lat="43.65974" lon="6.13202">
        <ele>556.7</ele>
        <time>2023-12-11T11:20:50Z</time>
      </trkpt>
      <trkpt lat="43.65973" lon="6.13188">
        <ele>556.8</ele>
        <time>2023-12-11T11:20:59Z</time>
      </trkpt>
      <trkpt lat="43.65973" lon="6.13175">
        <ele>556.3</ele>
        <time>2023-12-11T11:21:08Z</time>
      </trkpt>
      <trkpt lat="43.65973" lon="6.13162">
        <ele>556.3</ele>
        <time>2023-12-11T11:21:17Z</time>
      </trkpt>
      <trkpt lat="43.65972" lon="6.13148">
        <ele>556.3</ele>
        <time>2023-12-11T11:21:26Z</time>
      </trkpt>
      <trkpt lat="43.65972" lon="6.13135">
        <ele>556.4</ele>
        <time>2023-12-11T11:21:34Z</time>
      </trkpt>
      <trkpt lat="43.65973" lon="6.13122">
        <ele>556.4</ele>
        <time>2023-12-11T11:21:43Z</time>
      </trkpt>
      <trkpt lat="43.6597" lon="6.1311">
        <ele>556.6</ele>
        <time>2023-12-11T11:21:51Z</time>
      </trkpt>
      <trkpt lat="43.6597" lon="6.13097">
        <ele>556.5</ele>
        <time>2023-12-11T11:22:00Z</time>
      </trkpt>
      <trkpt lat="43.6597" lon="6.13083">
        <ele>556.5</ele>
        <time>2023-12-11T11:22:09Z</time>
      </trkpt>
      <trkpt lat="43.65969" lon="6.1307">
        <ele>556.6</ele>
        <time>2023-12-11T11:22:18Z</time>
      </trkpt>
      <trkpt lat="43.65968" lon="6.13057">
        <ele>556.6</ele>
        <time>2023-12-11T11:22:29Z</time>
      </trkpt>
      <trkpt lat="43.6596" lon="6.13051">
        <ele>556.3</ele>
        <time>2023-12-11T11:22:46Z</time>
      </trkpt>
      <trkpt lat="43.65952" lon="6.13045">
        <ele>555.8</ele>
        <time>2023-12-11T11:24:45Z</time>
      </trkpt>
      <trkpt lat="43.65943" lon="6.13043">
        <ele>555.4</ele>
        <time>2023-12-11T11:25:01Z</time>
      </trkpt>
      <trkpt lat="43.65933" lon="6.13043">
        <ele>555.3</ele>
        <time>2023-12-11T11:25:09Z</time>
      </trkpt>
      <trkpt lat="43.65924" lon="6.13041">
        <ele>554.5</ele>
        <time>2023-12-11T11:25:19Z</time>
      </trkpt>
      <trkpt lat="43.65914" lon="6.13039">
        <ele>553.6</ele>
        <time>2023-12-11T11:25:29Z</time>
      </trkpt>
      <trkpt lat="43.65904" lon="6.13036">
        <ele>551.8</ele>
        <time>2023-12-11T11:25:41Z</time>
      </trkpt>
      <trkpt lat="43.65895" lon="6.13034">
        <ele>550.4</ele>
        <time>2023-12-11T11:25:50Z</time>
      </trkpt>
      <trkpt lat="43.65886" lon="6.13035">
        <ele>548.4</ele>
        <time>2023-12-11T11:26:01Z</time>
      </trkpt>
      <trkpt lat="43.65876" lon="6.13033">
        <ele>546.7</ele>
        <time>2023-12-11T11:26:12Z</time>
      </trkpt>
      <trkpt lat="43.65867" lon="6.13026">
        <ele>545.3</ele>
        <time>2023-12-11T11:26:21Z</time>
      </trkpt>
      <trkpt lat="43.65857" lon="6.13025">
        <ele>544.5</ele>
        <time>2023-12-11T11:26:30Z</time>
      </trkpt>
      <trkpt lat="43.65848" lon="6.13029">
        <ele>543.7</ele>
        <time>2023-12-11T11:26:44Z</time>
      </trkpt>
      <trkpt lat="43.65839" lon="6.13026">
        <ele>543.2</ele>
        <time>2023-12-11T11:27:46Z</time>
      </trkpt>
      <trkpt lat="43.65831" lon="6.13018">
        <ele>542.7</ele>
        <time>2023-12-11T11:27:54Z</time>
      </trkpt>
      <trkpt lat="43.65822" lon="6.13015">
        <ele>542.4</ele>
        <time>2023-12-11T11:28:08Z</time>
      </trkpt>
      <trkpt lat="43.65826" lon="6.13027">
        <ele>543</ele>
        <time>2023-12-11T11:28:33Z</time>
      </trkpt>
      <trkpt lat="43.65823" lon="6.13039">
        <ele>542.3</ele>
        <time>2023-12-11T11:28:45Z</time>
      </trkpt>
      <trkpt lat="43.65815" lon="6.13046">
        <ele>541.4</ele>
        <time>2023-12-11T11:28:56Z</time>
      </trkpt>
      <trkpt lat="43.65806" lon="6.13049">
        <ele>541</ele>
        <time>2023-12-11T11:29:02Z</time>
      </trkpt>
      <trkpt lat="43.65796" lon="6.13052">
        <ele>540.7</ele>
        <time>2023-12-11T11:29:10Z</time>
      </trkpt>
      <trkpt lat="43.65786" lon="6.13053">
        <ele>540.9</ele>
        <time>2023-12-11T11:29:18Z</time>
      </trkpt>
      <trkpt lat="43.65777" lon="6.13053">
        <ele>540.7</ele>
        <time>2023-12-11T11:29:26Z</time>
      </trkpt>
      <trkpt lat="43.65767" lon="6.13054">
        <ele>540.8</ele>
        <time>2023-12-11T11:29:34Z</time>
      </trkpt>
      <trkpt lat="43.65758" lon="6.13053">
        <ele>540.9</ele>
        <time>2023-12-11T11:29:42Z</time>
      </trkpt>
      <trkpt lat="43.65748" lon="6.13051">
        <ele>540.8</ele>
        <time>2023-12-11T11:29:51Z</time>
      </trkpt>
      <trkpt lat="43.65739" lon="6.13051">
        <ele>541</ele>
        <time>2023-12-11T11:30:01Z</time>
      </trkpt>
      <trkpt lat="43.6573" lon="6.13049">
        <ele>540.3</ele>
        <time>2023-12-11T11:30:09Z</time>
      </trkpt>
      <trkpt lat="43.6572" lon="6.13048">
        <ele>542.8</ele>
        <time>2023-12-11T11:30:18Z</time>
      </trkpt>
      <trkpt lat="43.65711" lon="6.13048">
        <ele>542.2</ele>
        <time>2023-12-11T11:30:27Z</time>
      </trkpt>
      <trkpt lat="43.65702" lon="6.13045">
        <ele>542.4</ele>
        <time>2023-12-11T11:30:37Z</time>
      </trkpt>
      <trkpt lat="43.65693" lon="6.13044">
        <ele>542.9</ele>
        <time>2023-12-11T11:30:48Z</time>
      </trkpt>
      <trkpt lat="43.65684" lon="6.1304">
        <ele>543</ele>
        <time>2023-12-11T11:31:01Z</time>
      </trkpt>
      <trkpt lat="43.65675" lon="6.13038">
        <ele>543.4</ele>
        <time>2023-12-11T11:31:09Z</time>
      </trkpt>
      <trkpt lat="43.65665" lon="6.13035">
        <ele>543.3</ele>
        <time>2023-12-11T11:31:18Z</time>
      </trkpt>
      <trkpt lat="43.65656" lon="6.13033">
        <ele>545</ele>
        <time>2023-12-11T11:31:26Z</time>
      </trkpt>
      <trkpt lat="43.65647" lon="6.13028">
        <ele>546.1</ele>
        <time>2023-12-11T11:31:50Z</time>
      </trkpt>
      <trkpt lat="43.65637" lon="6.13024">
        <ele>545.7</ele>
        <time>2023-12-11T11:32:07Z</time>
      </trkpt>
      <trkpt lat="43.65628" lon="6.13021">
        <ele>546.8</ele>
        <time>2023-12-11T11:32:19Z</time>
      </trkpt>
      <trkpt lat="43.65619" lon="6.13017">
        <ele>548.8</ele>
        <time>2023-12-11T11:32:31Z</time>
      </trkpt>
      <trkpt lat="43.65611" lon="6.13009">
        <ele>549.8</ele>
        <time>2023-12-11T11:32:44Z</time>
      </trkpt>
      <trkpt lat="43.65603" lon="6.13003">
        <ele>547.8</ele>
        <time>2023-12-11T11:32:56Z</time>
      </trkpt>
      <trkpt lat="43.65601" lon="6.12991">
        <ele>552.1</ele>
        <time>2023-12-11T11:36:05Z</time>
      </trkpt>
      <trkpt lat="43.65601" lon="6.13004">
        <ele>552</ele>
        <time>2023-12-11T11:37:39Z</time>
      </trkpt>
      <trkpt lat="43.65601" lon="6.13016">
        <ele>551.8</ele>
        <time>2023-12-11T11:37:49Z</time>
      </trkpt>
      <trkpt lat="43.65597" lon="6.13029">
        <ele>547</ele>
        <time>2023-12-11T11:38:01Z</time>
      </trkpt>
      <trkpt lat="43.65596" lon="6.13041">
        <ele>551.5</ele>
        <time>2023-12-11T11:38:12Z</time>
      </trkpt>
      <trkpt lat="43.65594" lon="6.13055">
        <ele>553.3</ele>
        <time>2023-12-11T11:38:25Z</time>
      </trkpt>
      <trkpt lat="43.65591" lon="6.13067">
        <ele>553.1</ele>
        <time>2023-12-11T11:38:35Z</time>
      </trkpt>
      <trkpt lat="43.65584" lon="6.13077">
        <ele>552.6</ele>
        <time>2023-12-11T11:38:46Z</time>
      </trkpt>
      <trkpt lat="43.65577" lon="6.13086">
        <ele>553.3</ele>
        <time>2023-12-11T11:38:56Z</time>
      </trkpt>
      <trkpt lat="43.6557" lon="6.13095">
        <ele>554.1</ele>
        <time>2023-12-11T11:39:09Z</time>
      </trkpt>
      <trkpt lat="43.65564" lon="6.13105">
        <ele>553.2</ele>
        <time>2023-12-11T11:39:20Z</time>
      </trkpt>
      <trkpt lat="43.65558" lon="6.13115">
        <ele>553.1</ele>
        <time>2023-12-11T11:39:33Z</time>
      </trkpt>
      <trkpt lat="43.65557" lon="6.13128">
        <ele>553.1</ele>
        <time>2023-12-11T11:39:44Z</time>
      </trkpt>
      <trkpt lat="43.65554" lon="6.13142">
        <ele>553</ele>
        <time>2023-12-11T11:39:55Z</time>
      </trkpt>
      <trkpt lat="43.6555" lon="6.13154">
        <ele>553.9</ele>
        <time>2023-12-11T11:40:14Z</time>
      </trkpt>
      <trkpt lat="43.65545" lon="6.13164">
        <ele>553.7</ele>
        <time>2023-12-11T11:40:45Z</time>
      </trkpt>
      <trkpt lat="43.65542" lon="6.13176">
        <ele>553.6</ele>
        <time>2023-12-11T11:41:01Z</time>
      </trkpt>
      <trkpt lat="43.65533" lon="6.1318">
        <ele>553.4</ele>
        <time>2023-12-11T11:41:08Z</time>
      </trkpt>
      <trkpt lat="43.65526" lon="6.13189">
        <ele>553.4</ele>
        <time>2023-12-11T11:41:24Z</time>
      </trkpt>
      <trkpt lat="43.6552" lon="6.13199">
        <ele>553.3</ele>
        <time>2023-12-11T11:41:37Z</time>
      </trkpt>
      <trkpt lat="43.65514" lon="6.13208">
        <ele>553.1</ele>
        <time>2023-12-11T11:41:49Z</time>
      </trkpt>
      <trkpt lat="43.65507" lon="6.13218">
        <ele>552.2</ele>
        <time>2023-12-11T11:41:56Z</time>
      </trkpt>
      <trkpt lat="43.65503" lon="6.13229">
        <ele>552.4</ele>
        <time>2023-12-11T11:42:07Z</time>
      </trkpt>
      <trkpt lat="43.65494" lon="6.13235">
        <ele>551.8</ele>
        <time>2023-12-11T11:42:17Z</time>
      </trkpt>
      <trkpt lat="43.6549" lon="6.13247">
        <ele>551.6</ele>
        <time>2023-12-11T11:42:29Z</time>
      </trkpt>
      <trkpt lat="43.65485" lon="6.1326">
        <ele>553.2</ele>
        <time>2023-12-11T11:42:36Z</time>
      </trkpt>
      <trkpt lat="43.65482" lon="6.13271">
        <ele>551.9</ele>
        <time>2023-12-11T11:42:45Z</time>
      </trkpt>
      <trkpt lat="43.65474" lon="6.13278">
        <ele>550.7</ele>
        <time>2023-12-11T11:43:03Z</time>
      </trkpt>
      <trkpt lat="43.65465" lon="6.13278">
        <ele>550.2</ele>
        <time>2023-12-11T11:43:19Z</time>
      </trkpt>
      <trkpt lat="43.65456" lon="6.13275">
        <ele>547.9</ele>
        <time>2023-12-11T11:43:26Z</time>
      </trkpt>
      <trkpt lat="43.65445" lon="6.13274">
        <ele>549.4</ele>
        <time>2023-12-11T11:43:36Z</time>
      </trkpt>
      <trkpt lat="43.65436" lon="6.13275">
        <ele>547.3</ele>
        <time>2023-12-11T11:43:49Z</time>
      </trkpt>
      <trkpt lat="43.65427" lon="6.13273">
        <ele>545.4</ele>
        <time>2023-12-11T11:43:59Z</time>
      </trkpt>
      <trkpt lat="43.65418" lon="6.1327">
        <ele>546.5</ele>
        <time>2023-12-11T11:44:10Z</time>
      </trkpt>
      <trkpt lat="43.65409" lon="6.13267">
        <ele>545.2</ele>
        <time>2023-12-11T11:44:21Z</time>
      </trkpt>
      <trkpt lat="43.65399" lon="6.13268">
        <ele>545.2</ele>
        <time>2023-12-11T11:44:32Z</time>
      </trkpt>
      <trkpt lat="43.6539" lon="6.13269">
        <ele>543.9</ele>
        <time>2023-12-11T11:44:46Z</time>
      </trkpt>
      <trkpt lat="43.6538" lon="6.13266">
        <ele>542.7</ele>
        <time>2023-12-11T11:44:57Z</time>
      </trkpt>
      <trkpt lat="43.6537" lon="6.13267">
        <ele>541.8</ele>
        <time>2023-12-11T11:45:07Z</time>
      </trkpt>
      <trkpt lat="43.65361" lon="6.13268">
        <ele>541.4</ele>
        <time>2023-12-11T11:45:29Z</time>
      </trkpt>
      <trkpt lat="43.65352" lon="6.13268">
        <ele>540.8</ele>
        <time>2023-12-11T11:45:39Z</time>
      </trkpt>
      <trkpt lat="43.65345" lon="6.13258">
        <ele>539.8</ele>
        <time>2023-12-11T11:45:53Z</time>
      </trkpt>
      <trkpt lat="43.6534" lon="6.13248">
        <ele>538.4</ele>
        <time>2023-12-11T11:46:12Z</time>
      </trkpt>
      <trkpt lat="43.65333" lon="6.13238">
        <ele>538.7</ele>
        <time>2023-12-11T11:46:29Z</time>
      </trkpt>
      <trkpt lat="43.65339" lon="6.13229">
        <ele>537.8</ele>
        <time>2023-12-11T11:55:07Z</time>
      </trkpt>
      <trkpt lat="43.65331" lon="6.13232">
        <ele>537.6</ele>
        <time>2023-12-11T12:26:58Z</time>
      </trkpt>
      <trkpt lat="43.65338" lon="6.13239">
        <ele>537.7</ele>
        <time>2023-12-11T12:29:19Z</time>
      </trkpt>
      <trkpt lat="43.65344" lon="6.1325">
        <ele>538.5</ele>
        <time>2023-12-11T12:29:32Z</time>
      </trkpt>
      <trkpt lat="43.65336" lon="6.13242">
        <ele>538.6</ele>
        <time>2023-12-11T12:30:12Z</time>
      </trkpt>
      <trkpt lat="43.65328" lon="6.13235">
        <ele>537.8</ele>
        <time>2023-12-11T12:30:47Z</time>
      </trkpt>
      <trkpt lat="43.65337" lon="6.13237">
        <ele>537.8</ele>
        <time>2023-12-11T12:31:02Z</time>
      </trkpt>
      <trkpt lat="43.65343" lon="6.13247">
        <ele>538.5</ele>
        <time>2023-12-11T12:31:27Z</time>
      </trkpt>
      <trkpt lat="43.65348" lon="6.13258">
        <ele>539.9</ele>
        <time>2023-12-11T12:33:05Z</time>
      </trkpt>
      <trkpt lat="43.65342" lon="6.13267">
        <ele>540.7</ele>
        <time>2023-12-11T12:34:08Z</time>
      </trkpt>
      <trkpt lat="43.65333" lon="6.13267">
        <ele>540.3</ele>
        <time>2023-12-11T12:34:24Z</time>
      </trkpt>
      <trkpt lat="43.65323" lon="6.13267">
        <ele>539.6</ele>
        <time>2023-12-11T12:34:35Z</time>
      </trkpt>
      <trkpt lat="43.65315" lon="6.13265">
        <ele>539</ele>
        <time>2023-12-11T12:34:46Z</time>
      </trkpt>
      <trkpt lat="43.65305" lon="6.13262">
        <ele>538.6</ele>
        <time>2023-12-11T12:34:57Z</time>
      </trkpt>
      <trkpt lat="43.65297" lon="6.13257">
        <ele>538.1</ele>
        <time>2023-12-11T12:35:07Z</time>
      </trkpt>
      <trkpt lat="43.65287" lon="6.13255">
        <ele>537.8</ele>
        <time>2023-12-11T12:35:16Z</time>
      </trkpt>
      <trkpt lat="43.65278" lon="6.13251">
        <ele>537.5</ele>
        <time>2023-12-11T12:35:25Z</time>
      </trkpt>
      <trkpt lat="43.65269" lon="6.1325">
        <ele>537.1</ele>
        <time>2023-12-11T12:35:36Z</time>
      </trkpt>
      <trkpt lat="43.65259" lon="6.13248">
        <ele>537.1</ele>
        <time>2023-12-11T12:35:45Z</time>
      </trkpt>
      <trkpt lat="43.6525" lon="6.13245">
        <ele>536.9</ele>
        <time>2023-12-11T12:35:53Z</time>
      </trkpt>
      <trkpt lat="43.65241" lon="6.13241">
        <ele>536.7</ele>
        <time>2023-12-11T12:36:14Z</time>
      </trkpt>
      <trkpt lat="43.65232" lon="6.13238">
        <ele>536.6</ele>
        <time>2023-12-11T12:36:23Z</time>
      </trkpt>
      <trkpt lat="43.65223" lon="6.13234">
        <ele>536.6</ele>
        <time>2023-12-11T12:36:31Z</time>
      </trkpt>
      <trkpt lat="43.65214" lon="6.13228">
        <ele>536.7</ele>
        <time>2023-12-11T12:36:42Z</time>
      </trkpt>
      <trkpt lat="43.65205" lon="6.13224">
        <ele>536.5</ele>
        <time>2023-12-11T12:36:56Z</time>
      </trkpt>
      <trkpt lat="43.65196" lon="6.13222">
        <ele>536.8</ele>
        <time>2023-12-11T12:37:05Z</time>
      </trkpt>
      <trkpt lat="43.65186" lon="6.13219">
        <ele>536.9</ele>
        <time>2023-12-11T12:37:14Z</time>
      </trkpt>
      <trkpt lat="43.65178" lon="6.13214">
        <ele>536.9</ele>
        <time>2023-12-11T12:37:24Z</time>
      </trkpt>
      <trkpt lat="43.65169" lon="6.13211">
        <ele>536.9</ele>
        <time>2023-12-11T12:37:33Z</time>
      </trkpt>
      <trkpt lat="43.6516" lon="6.1321">
        <ele>536.8</ele>
        <time>2023-12-11T12:37:46Z</time>
      </trkpt>
      <trkpt lat="43.6515" lon="6.13209">
        <ele>536.9</ele>
        <time>2023-12-11T12:37:55Z</time>
      </trkpt>
      <trkpt lat="43.65141" lon="6.13205">
        <ele>536.8</ele>
        <time>2023-12-11T12:38:05Z</time>
      </trkpt>
      <trkpt lat="43.65131" lon="6.13201">
        <ele>537</ele>
        <time>2023-12-11T12:38:13Z</time>
      </trkpt>
      <trkpt lat="43.65123" lon="6.13196">
        <ele>537</ele>
        <time>2023-12-11T12:38:43Z</time>
      </trkpt>
      <trkpt lat="43.65119" lon="6.13208">
        <ele>536.9</ele>
        <time>2023-12-11T12:38:56Z</time>
      </trkpt>
      <trkpt lat="43.65114" lon="6.1322">
        <ele>537.2</ele>
        <time>2023-12-11T12:39:05Z</time>
      </trkpt>
      <trkpt lat="43.65109" lon="6.13231">
        <ele>539</ele>
        <time>2023-12-11T12:39:14Z</time>
      </trkpt>
      <trkpt lat="43.65104" lon="6.13242">
        <ele>537.4</ele>
        <time>2023-12-11T12:39:24Z</time>
      </trkpt>
      <trkpt lat="43.65098" lon="6.13252">
        <ele>538.3</ele>
        <time>2023-12-11T12:39:33Z</time>
      </trkpt>
      <trkpt lat="43.65091" lon="6.13262">
        <ele>538.3</ele>
        <time>2023-12-11T12:39:42Z</time>
      </trkpt>
      <trkpt lat="43.65084" lon="6.13269">
        <ele>538.2</ele>
        <time>2023-12-11T12:39:51Z</time>
      </trkpt>
      <trkpt lat="43.65075" lon="6.13275">
        <ele>537.7</ele>
        <time>2023-12-11T12:40:01Z</time>
      </trkpt>
      <trkpt lat="43.65065" lon="6.13279">
        <ele>537.6</ele>
        <time>2023-12-11T12:40:12Z</time>
      </trkpt>
      <trkpt lat="43.65058" lon="6.13289">
        <ele>537</ele>
        <time>2023-12-11T12:40:21Z</time>
      </trkpt>
      <trkpt lat="43.65054" lon="6.13301">
        <ele>536.8</ele>
        <time>2023-12-11T12:40:30Z</time>
      </trkpt>
      <trkpt lat="43.65051" lon="6.13312">
        <ele>535.7</ele>
        <time>2023-12-11T12:40:46Z</time>
      </trkpt>
      <trkpt lat="43.65045" lon="6.13322">
        <ele>536.5</ele>
        <time>2023-12-11T12:41:04Z</time>
      </trkpt>
      <trkpt lat="43.6504" lon="6.13333">
        <ele>536.8</ele>
        <time>2023-12-11T12:41:13Z</time>
      </trkpt>
      <trkpt lat="43.65033" lon="6.13343">
        <ele>536.7</ele>
        <time>2023-12-11T12:41:23Z</time>
      </trkpt>
      <trkpt lat="43.65026" lon="6.13352">
        <ele>537.3</ele>
        <time>2023-12-11T12:41:47Z</time>
      </trkpt>
      <trkpt lat="43.65018" lon="6.1336">
        <ele>537.2</ele>
        <time>2023-12-11T12:41:55Z</time>
      </trkpt>
      <trkpt lat="43.65012" lon="6.13369">
        <ele>536.4</ele>
        <time>2023-12-11T12:42:04Z</time>
      </trkpt>
      <trkpt lat="43.65005" lon="6.13378">
        <ele>536.2</ele>
        <time>2023-12-11T12:42:13Z</time>
      </trkpt>
      <trkpt lat="43.64997" lon="6.13385">
        <ele>536.2</ele>
        <time>2023-12-11T12:43:00Z</time>
      </trkpt>
      <trkpt lat="43.64987" lon="6.13381">
        <ele>536.3</ele>
        <time>2023-12-11T12:43:22Z</time>
      </trkpt>
      <trkpt lat="43.64979" lon="6.13373">
        <ele>536.7</ele>
        <time>2023-12-11T12:43:31Z</time>
      </trkpt>
      <trkpt lat="43.64972" lon="6.13365">
        <ele>533.3</ele>
        <time>2023-12-11T12:43:47Z</time>
      </trkpt>
      <trkpt lat="43.64964" lon="6.13359">
        <ele>531.4</ele>
        <time>2023-12-11T12:43:57Z</time>
      </trkpt>
      <trkpt lat="43.64955" lon="6.13358">
        <ele>531.6</ele>
        <time>2023-12-11T12:44:19Z</time>
      </trkpt>
      <trkpt lat="43.64948" lon="6.13367">
        <ele>535</ele>
        <time>2023-12-11T12:45:22Z</time>
      </trkpt>
      <trkpt lat="43.64942" lon="6.13378">
        <ele>533.5</ele>
        <time>2023-12-11T12:45:32Z</time>
      </trkpt>
      <trkpt lat="43.64935" lon="6.13387">
        <ele>533</ele>
        <time>2023-12-11T12:45:42Z</time>
      </trkpt>
      <trkpt lat="43.64928" lon="6.13396">
        <ele>532.6</ele>
        <time>2023-12-11T12:45:51Z</time>
      </trkpt>
      <trkpt lat="43.64921" lon="6.13404">
        <ele>532.1</ele>
        <time>2023-12-11T12:46:00Z</time>
      </trkpt>
      <trkpt lat="43.64914" lon="6.13413">
        <ele>531.7</ele>
        <time>2023-12-11T12:46:12Z</time>
      </trkpt>
      <trkpt lat="43.64908" lon="6.13423">
        <ele>531.3</ele>
        <time>2023-12-11T12:46:22Z</time>
      </trkpt>
      <trkpt lat="43.649" lon="6.13431">
        <ele>531.2</ele>
        <time>2023-12-11T12:46:30Z</time>
      </trkpt>
      <trkpt lat="43.64893" lon="6.13437">
        <ele>530.9</ele>
        <time>2023-12-11T12:46:40Z</time>
      </trkpt>
      <trkpt lat="43.64886" lon="6.13448">
        <ele>530.6</ele>
        <time>2023-12-11T12:46:49Z</time>
      </trkpt>
      <trkpt lat="43.64878" lon="6.13455">
        <ele>530</ele>
        <time>2023-12-11T12:47:00Z</time>
      </trkpt>
      <trkpt lat="43.64871" lon="6.13463">
        <ele>529.8</ele>
        <time>2023-12-11T12:47:10Z</time>
      </trkpt>
      <trkpt lat="43.64866" lon="6.13474">
        <ele>529.6</ele>
        <time>2023-12-11T12:47:19Z</time>
      </trkpt>
      <trkpt lat="43.64859" lon="6.13482">
        <ele>529.2</ele>
        <time>2023-12-11T12:47:27Z</time>
      </trkpt>
      <trkpt lat="43.6485" lon="6.13487">
        <ele>529</ele>
        <time>2023-12-11T12:47:37Z</time>
      </trkpt>
      <trkpt lat="43.64842" lon="6.13494">
        <ele>528.6</ele>
        <time>2023-12-11T12:47:47Z</time>
      </trkpt>
      <trkpt lat="43.64835" lon="6.13503">
        <ele>528.2</ele>
        <time>2023-12-11T12:48:05Z</time>
      </trkpt>
      <trkpt lat="43.64828" lon="6.13512">
        <ele>528.1</ele>
        <time>2023-12-11T12:48:15Z</time>
      </trkpt>
      <trkpt lat="43.64821" lon="6.13521">
        <ele>528</ele>
        <time>2023-12-11T12:48:24Z</time>
      </trkpt>
      <trkpt lat="43.64814" lon="6.13529">
        <ele>528</ele>
        <time>2023-12-11T12:48:39Z</time>
      </trkpt>
      <trkpt lat="43.64816" lon="6.13541">
        <ele>527.7</ele>
        <time>2023-12-11T12:49:11Z</time>
      </trkpt>
      <trkpt lat="43.64819" lon="6.13554">
        <ele>527.8</ele>
        <time>2023-12-11T12:49:20Z</time>
      </trkpt>
      <trkpt lat="43.64814" lon="6.13565">
        <ele>527.8</ele>
        <time>2023-12-11T12:49:29Z</time>
      </trkpt>
      <trkpt lat="43.64808" lon="6.13576">
        <ele>528.1</ele>
        <time>2023-12-11T12:49:43Z</time>
      </trkpt>
      <trkpt lat="43.64801" lon="6.13586">
        <ele>528.8</ele>
        <time>2023-12-11T12:49:58Z</time>
      </trkpt>
      <trkpt lat="43.64795" lon="6.13595">
        <ele>528.9</ele>
        <time>2023-12-11T12:50:07Z</time>
      </trkpt>
      <trkpt lat="43.64789" lon="6.13605">
        <ele>528.6</ele>
        <time>2023-12-11T12:50:15Z</time>
      </trkpt>
      <trkpt lat="43.64794" lon="6.13594">
        <ele>529.4</ele>
        <time>2023-12-11T12:50:38Z</time>
      </trkpt>
      <trkpt lat="43.648" lon="6.13584">
        <ele>526.7</ele>
        <time>2023-12-11T12:50:50Z</time>
      </trkpt>
      <trkpt lat="43.64807" lon="6.13575">
        <ele>525.7</ele>
        <time>2023-12-11T12:51:03Z</time>
      </trkpt>
      <trkpt lat="43.64814" lon="6.13567">
        <ele>525.7</ele>
        <time>2023-12-11T12:51:12Z</time>
      </trkpt>
      <trkpt lat="43.6482" lon="6.13557">
        <ele>526.2</ele>
        <time>2023-12-11T12:51:24Z</time>
      </trkpt>
      <trkpt lat="43.64819" lon="6.13544">
        <ele>526.1</ele>
        <time>2023-12-11T12:51:34Z</time>
      </trkpt>
      <trkpt lat="43.64816" lon="6.13532">
        <ele>526.2</ele>
        <time>2023-12-11T12:51:43Z</time>
      </trkpt>
      <trkpt lat="43.64807" lon="6.13525">
        <ele>526.2</ele>
        <time>2023-12-11T12:52:06Z</time>
      </trkpt>
      <trkpt lat="43.64798" lon="6.13523">
        <ele>526.4</ele>
        <time>2023-12-11T12:52:17Z</time>
      </trkpt>
      <trkpt lat="43.64792" lon="6.13533">
        <ele>525</ele>
        <time>2023-12-11T12:52:59Z</time>
      </trkpt>
      <trkpt lat="43.64786" lon="6.13542">
        <ele>524.6</ele>
        <time>2023-12-11T12:53:09Z</time>
      </trkpt>
      <trkpt lat="43.6478" lon="6.13551">
        <ele>524.3</ele>
        <time>2023-12-11T12:53:23Z</time>
      </trkpt>
      <trkpt lat="43.64773" lon="6.13561">
        <ele>526.7</ele>
        <time>2023-12-11T12:53:39Z</time>
      </trkpt>
      <trkpt lat="43.64766" lon="6.1357">
        <ele>526.8</ele>
        <time>2023-12-11T12:53:50Z</time>
      </trkpt>
      <trkpt lat="43.64761" lon="6.1358">
        <ele>526.8</ele>
        <time>2023-12-11T12:54:01Z</time>
      </trkpt>
      <trkpt lat="43.64755" lon="6.13589">
        <ele>526.9</ele>
        <time>2023-12-11T12:54:12Z</time>
      </trkpt>
      <trkpt lat="43.64748" lon="6.136">
        <ele>526.8</ele>
        <time>2023-12-11T12:54:25Z</time>
      </trkpt>
      <trkpt lat="43.64741" lon="6.13606">
        <ele>526.2</ele>
        <time>2023-12-11T12:54:37Z</time>
      </trkpt>
      <trkpt lat="43.64734" lon="6.13616">
        <ele>526.6</ele>
        <time>2023-12-11T12:54:51Z</time>
      </trkpt>
      <trkpt lat="43.6473" lon="6.13627">
        <ele>526.7</ele>
        <time>2023-12-11T12:55:02Z</time>
      </trkpt>
      <trkpt lat="43.64725" lon="6.13638">
        <ele>526.5</ele>
        <time>2023-12-11T12:55:13Z</time>
      </trkpt>
      <trkpt lat="43.64719" lon="6.13649">
        <ele>527.1</ele>
        <time>2023-12-11T12:55:26Z</time>
      </trkpt>
      <trkpt lat="43.64715" lon="6.1366">
        <ele>526.4</ele>
        <time>2023-12-11T12:55:40Z</time>
      </trkpt>
      <trkpt lat="43.6471" lon="6.13672">
        <ele>526.6</ele>
        <time>2023-12-11T12:55:50Z</time>
      </trkpt>
      <trkpt lat="43.64703" lon="6.1368">
        <ele>526</ele>
        <time>2023-12-11T12:56:02Z</time>
      </trkpt>
      <trkpt lat="43.64696" lon="6.13689">
        <ele>526.3</ele>
        <time>2023-12-11T12:56:15Z</time>
      </trkpt>
      <trkpt lat="43.64694" lon="6.13702">
        <ele>526.3</ele>
        <time>2023-12-11T12:56:25Z</time>
      </trkpt>
      <trkpt lat="43.64694" lon="6.13716">
        <ele>526</ele>
        <time>2023-12-11T12:56:34Z</time>
      </trkpt>
      <trkpt lat="43.64693" lon="6.13728">
        <ele>527</ele>
        <time>2023-12-11T12:56:43Z</time>
      </trkpt>
      <trkpt lat="43.64692" lon="6.13742">
        <ele>526.6</ele>
        <time>2023-12-11T12:56:53Z</time>
      </trkpt>
      <trkpt lat="43.64687" lon="6.13753">
        <ele>527.9</ele>
        <time>2023-12-11T12:57:07Z</time>
      </trkpt>
      <trkpt lat="43.64682" lon="6.13764">
        <ele>527.8</ele>
        <time>2023-12-11T12:57:17Z</time>
      </trkpt>
      <trkpt lat="43.64679" lon="6.13777">
        <ele>527.9</ele>
        <time>2023-12-11T12:57:26Z</time>
      </trkpt>
      <trkpt lat="43.64676" lon="6.13789">
        <ele>528.4</ele>
        <time>2023-12-11T12:58:33Z</time>
      </trkpt>
      <trkpt lat="43.64672" lon="6.13801">
        <ele>528.2</ele>
        <time>2023-12-11T12:58:45Z</time>
      </trkpt>
      <trkpt lat="43.64666" lon="6.13811">
        <ele>528</ele>
        <time>2023-12-11T12:58:58Z</time>
      </trkpt>
      <trkpt lat="43.6466" lon="6.13821">
        <ele>528.8</ele>
        <time>2023-12-11T12:59:09Z</time>
      </trkpt>
      <trkpt lat="43.64657" lon="6.13833">
        <ele>528.3</ele>
        <time>2023-12-11T12:59:19Z</time>
      </trkpt>
      <trkpt lat="43.64651" lon="6.13842">
        <ele>525.5</ele>
        <time>2023-12-11T12:59:36Z</time>
      </trkpt>
      <trkpt lat="43.64644" lon="6.13851">
        <ele>527.9</ele>
        <time>2023-12-11T12:59:52Z</time>
      </trkpt>
      <trkpt lat="43.64639" lon="6.13862">
        <ele>528.8</ele>
        <time>2023-12-11T13:00:03Z</time>
      </trkpt>
      <trkpt lat="43.64633" lon="6.13872">
        <ele>527.5</ele>
        <time>2023-12-11T13:00:15Z</time>
      </trkpt>
      <trkpt lat="43.64628" lon="6.13884">
        <ele>526.8</ele>
        <time>2023-12-11T13:00:28Z</time>
      </trkpt>
      <trkpt lat="43.64622" lon="6.13893">
        <ele>526.5</ele>
        <time>2023-12-11T13:00:42Z</time>
      </trkpt>
      <trkpt lat="43.64617" lon="6.13903">
        <ele>526.5</ele>
        <time>2023-12-11T13:00:55Z</time>
      </trkpt>
      <trkpt lat="43.6461" lon="6.13913">
        <ele>526.4</ele>
        <time>2023-12-11T13:01:07Z</time>
      </trkpt>
      <trkpt lat="43.64603" lon="6.13923">
        <ele>526.3</ele>
        <time>2023-12-11T13:01:16Z</time>
      </trkpt>
      <trkpt lat="43.64598" lon="6.13934">
        <ele>526.4</ele>
        <time>2023-12-11T13:01:36Z</time>
      </trkpt>
      <trkpt lat="43.64593" lon="6.13946">
        <ele>526.4</ele>
        <time>2023-12-11T13:01:46Z</time>
      </trkpt>
      <trkpt lat="43.6459" lon="6.13958">
        <ele>526.1</ele>
        <time>2023-12-11T13:01:55Z</time>
      </trkpt>
      <trkpt lat="43.64583" lon="6.13966">
        <ele>525.7</ele>
        <time>2023-12-11T13:02:06Z</time>
      </trkpt>
      <trkpt lat="43.64575" lon="6.13975">
        <ele>526.7</ele>
        <time>2023-12-11T13:02:16Z</time>
      </trkpt>
      <trkpt lat="43.64567" lon="6.1398">
        <ele>526.2</ele>
        <time>2023-12-11T13:02:26Z</time>
      </trkpt>
      <trkpt lat="43.64558" lon="6.13984">
        <ele>525.6</ele>
        <time>2023-12-11T13:02:39Z</time>
      </trkpt>
      <trkpt lat="43.64549" lon="6.13989">
        <ele>525</ele>
        <time>2023-12-11T13:02:48Z</time>
      </trkpt>
      <trkpt lat="43.64542" lon="6.13997">
        <ele>524.9</ele>
        <time>2023-12-11T13:02:57Z</time>
      </trkpt>
      <trkpt lat="43.64539" lon="6.14009">
        <ele>524.4</ele>
        <time>2023-12-11T13:03:05Z</time>
      </trkpt>
      <trkpt lat="43.64533" lon="6.14019">
        <ele>524.7</ele>
        <time>2023-12-11T13:03:15Z</time>
      </trkpt>
      <trkpt lat="43.6453" lon="6.14031">
        <ele>524.1</ele>
        <time>2023-12-11T13:03:23Z</time>
      </trkpt>
      <trkpt lat="43.64524" lon="6.14041">
        <ele>523.8</ele>
        <time>2023-12-11T13:03:49Z</time>
      </trkpt>
      <trkpt lat="43.64518" lon="6.14051">
        <ele>524.6</ele>
        <time>2023-12-11T13:03:57Z</time>
      </trkpt>
      <trkpt lat="43.6451" lon="6.1406">
        <ele>523.9</ele>
        <time>2023-12-11T13:04:14Z</time>
      </trkpt>
      <trkpt lat="43.64503" lon="6.14068">
        <ele>525</ele>
        <time>2023-12-11T13:04:25Z</time>
      </trkpt>
      <trkpt lat="43.64498" lon="6.14079">
        <ele>524.1</ele>
        <time>2023-12-11T13:04:36Z</time>
      </trkpt>
      <trkpt lat="43.64492" lon="6.1409">
        <ele>521.1</ele>
        <time>2023-12-11T13:04:47Z</time>
      </trkpt>
      <trkpt lat="43.64485" lon="6.14097">
        <ele>521</ele>
        <time>2023-12-11T13:04:56Z</time>
      </trkpt>
      <trkpt lat="43.64476" lon="6.14103">
        <ele>520.6</ele>
        <time>2023-12-11T13:05:05Z</time>
      </trkpt>
      <trkpt lat="43.64468" lon="6.1411">
        <ele>520.1</ele>
        <time>2023-12-11T13:05:15Z</time>
      </trkpt>
      <trkpt lat="43.64459" lon="6.14114">
        <ele>520.6</ele>
        <time>2023-12-11T13:05:25Z</time>
      </trkpt>
      <trkpt lat="43.64451" lon="6.14117">
        <ele>521.6</ele>
        <time>2023-12-11T13:05:34Z</time>
      </trkpt>
      <trkpt lat="43.64442" lon="6.14121">
        <ele>522.4</ele>
        <time>2023-12-11T13:05:43Z</time>
      </trkpt>
      <trkpt lat="43.64434" lon="6.14126">
        <ele>522</ele>
        <time>2023-12-11T13:05:52Z</time>
      </trkpt>
      <trkpt lat="43.64427" lon="6.14134">
        <ele>522.8</ele>
        <time>2023-12-11T13:06:01Z</time>
      </trkpt>
      <trkpt lat="43.64417" lon="6.14139">
        <ele>522.7</ele>
        <time>2023-12-11T13:06:11Z</time>
      </trkpt>
      <trkpt lat="43.64409" lon="6.14146">
        <ele>522.4</ele>
        <time>2023-12-11T13:06:21Z</time>
      </trkpt>
      <trkpt lat="43.64402" lon="6.14154">
        <ele>522.4</ele>
        <time>2023-12-11T13:06:31Z</time>
      </trkpt>
      <trkpt lat="43.64395" lon="6.14163">
        <ele>521.5</ele>
        <time>2023-12-11T13:06:40Z</time>
      </trkpt>
      <trkpt lat="43.64386" lon="6.14168">
        <ele>522.3</ele>
        <time>2023-12-11T13:06:49Z</time>
      </trkpt>
      <trkpt lat="43.64379" lon="6.14175">
        <ele>522.2</ele>
        <time>2023-12-11T13:06:59Z</time>
      </trkpt>
      <trkpt lat="43.64375" lon="6.14187">
        <ele>522.1</ele>
        <time>2023-12-11T13:07:09Z</time>
      </trkpt>
      <trkpt lat="43.64371" lon="6.14198">
        <ele>521.8</ele>
        <time>2023-12-11T13:07:19Z</time>
      </trkpt>
      <trkpt lat="43.64366" lon="6.14209">
        <ele>521.7</ele>
        <time>2023-12-11T13:07:29Z</time>
      </trkpt>
      <trkpt lat="43.64359" lon="6.14219">
        <ele>521.4</ele>
        <time>2023-12-11T13:07:38Z</time>
      </trkpt>
      <trkpt lat="43.64354" lon="6.1423">
        <ele>520.7</ele>
        <time>2023-12-11T13:07:47Z</time>
      </trkpt>
      <trkpt lat="43.64348" lon="6.14241">
        <ele>522.3</ele>
        <time>2023-12-11T13:07:56Z</time>
      </trkpt>
      <trkpt lat="43.64341" lon="6.14248">
        <ele>521.8</ele>
        <time>2023-12-11T13:08:06Z</time>
      </trkpt>
      <trkpt lat="43.64332" lon="6.14253">
        <ele>519.2</ele>
        <time>2023-12-11T13:08:27Z</time>
      </trkpt>
      <trkpt lat="43.64323" lon="6.14257">
        <ele>518.2</ele>
        <time>2023-12-11T13:08:45Z</time>
      </trkpt>
      <trkpt lat="43.64315" lon="6.14262">
        <ele>518.8</ele>
        <time>2023-12-11T13:08:53Z</time>
      </trkpt>
      <trkpt lat="43.6431" lon="6.14273">
        <ele>518.6</ele>
        <time>2023-12-11T13:09:02Z</time>
      </trkpt>
      <trkpt lat="43.64306" lon="6.14284">
        <ele>518.7</ele>
        <time>2023-12-11T13:09:12Z</time>
      </trkpt>
      <trkpt lat="43.64303" lon="6.14296">
        <ele>518.7</ele>
        <time>2023-12-11T13:09:25Z</time>
      </trkpt>
      <trkpt lat="43.64299" lon="6.14309">
        <ele>519.3</ele>
        <time>2023-12-11T13:09:38Z</time>
      </trkpt>
      <trkpt lat="43.64296" lon="6.14321">
        <ele>519.8</ele>
        <time>2023-12-11T13:09:50Z</time>
      </trkpt>
      <trkpt lat="43.64293" lon="6.14333">
        <ele>519.3</ele>
        <time>2023-12-11T13:10:02Z</time>
      </trkpt>
      <trkpt lat="43.64288" lon="6.14345">
        <ele>518.8</ele>
        <time>2023-12-11T13:10:14Z</time>
      </trkpt>
      <trkpt lat="43.64283" lon="6.14355">
        <ele>519.3</ele>
        <time>2023-12-11T13:10:26Z</time>
      </trkpt>
      <trkpt lat="43.64276" lon="6.14363">
        <ele>517.9</ele>
        <time>2023-12-11T13:10:39Z</time>
      </trkpt>
      <trkpt lat="43.64271" lon="6.14375">
        <ele>519.3</ele>
        <time>2023-12-11T13:10:49Z</time>
      </trkpt>
      <trkpt lat="43.64267" lon="6.14387">
        <ele>520.4</ele>
        <time>2023-12-11T13:11:00Z</time>
      </trkpt>
      <trkpt lat="43.64263" lon="6.14398">
        <ele>520.4</ele>
        <time>2023-12-11T13:11:12Z</time>
      </trkpt>
      <trkpt lat="43.64261" lon="6.14411">
        <ele>520.3</ele>
        <time>2023-12-11T13:11:22Z</time>
      </trkpt>
      <trkpt lat="43.64263" lon="6.14424">
        <ele>520.6</ele>
        <time>2023-12-11T13:11:41Z</time>
      </trkpt>
      <trkpt lat="43.64257" lon="6.14433">
        <ele>520.8</ele>
        <time>2023-12-11T13:11:56Z</time>
      </trkpt>
      <trkpt lat="43.64252" lon="6.14444">
        <ele>520.4</ele>
        <time>2023-12-11T13:12:23Z</time>
      </trkpt>
      <trkpt lat="43.64242" lon="6.14445">
        <ele>520.6</ele>
        <time>2023-12-11T13:12:39Z</time>
      </trkpt>
      <trkpt lat="43.64233" lon="6.14444">
        <ele>517.9</ele>
        <time>2023-12-11T13:12:53Z</time>
      </trkpt>
      <trkpt lat="43.64223" lon="6.14443">
        <ele>521</ele>
        <time>2023-12-11T13:13:06Z</time>
      </trkpt>
      <trkpt lat="43.64215" lon="6.1445">
        <ele>520.3</ele>
        <time>2023-12-11T13:13:18Z</time>
      </trkpt>
      <trkpt lat="43.64208" lon="6.14459">
        <ele>519.4</ele>
        <time>2023-12-11T13:13:30Z</time>
      </trkpt>
      <trkpt lat="43.64201" lon="6.14468">
        <ele>519.2</ele>
        <time>2023-12-11T13:13:42Z</time>
      </trkpt>
      <trkpt lat="43.64194" lon="6.14476">
        <ele>513</ele>
        <time>2023-12-11T13:13:55Z</time>
      </trkpt>
      <trkpt lat="43.64187" lon="6.14485">
        <ele>519</ele>
        <time>2023-12-11T13:14:09Z</time>
      </trkpt>
      <trkpt lat="43.6418" lon="6.14493">
        <ele>521.3</ele>
        <time>2023-12-11T13:14:20Z</time>
      </trkpt>
      <trkpt lat="43.64172" lon="6.14503">
        <ele>519.1</ele>
        <time>2023-12-11T13:14:32Z</time>
      </trkpt>
      <trkpt lat="43.64163" lon="6.14502">
        <ele>518.6</ele>
        <time>2023-12-11T13:14:47Z</time>
      </trkpt>
      <trkpt lat="43.64157" lon="6.14512">
        <ele>517.9</ele>
        <time>2023-12-11T13:15:15Z</time>
      </trkpt>
      <trkpt lat="43.64149" lon="6.14518">
        <ele>519.3</ele>
        <time>2023-12-11T13:15:25Z</time>
      </trkpt>
      <trkpt lat="43.6414" lon="6.14522">
        <ele>519.8</ele>
        <time>2023-12-11T13:15:36Z</time>
      </trkpt>
      <trkpt lat="43.64132" lon="6.14528">
        <ele>519.4</ele>
        <time>2023-12-11T13:15:49Z</time>
      </trkpt>
      <trkpt lat="43.64123" lon="6.14535">
        <ele>519</ele>
        <time>2023-12-11T13:15:59Z</time>
      </trkpt>
      <trkpt lat="43.64117" lon="6.14544">
        <ele>519.2</ele>
        <time>2023-12-11T13:16:17Z</time>
      </trkpt>
      <trkpt lat="43.64112" lon="6.14553">
        <ele>516.6</ele>
        <time>2023-12-11T13:17:03Z</time>
      </trkpt>
      <trkpt lat="43.64106" lon="6.14564">
        <ele>517.5</ele>
        <time>2023-12-11T13:17:19Z</time>
      </trkpt>
      <trkpt lat="43.64101" lon="6.14575">
        <ele>517.2</ele>
        <time>2023-12-11T13:17:33Z</time>
      </trkpt>
      <trkpt lat="43.64096" lon="6.14586">
        <ele>516.4</ele>
        <time>2023-12-11T13:17:45Z</time>
      </trkpt>
      <trkpt lat="43.64092" lon="6.14597">
        <ele>515.8</ele>
        <time>2023-12-11T13:17:59Z</time>
      </trkpt>
      <trkpt lat="43.64093" lon="6.1461">
        <ele>518.6</ele>
        <time>2023-12-11T13:20:15Z</time>
      </trkpt>
      <trkpt lat="43.64102" lon="6.14615">
        <ele>518.5</ele>
        <time>2023-12-11T13:22:29Z</time>
      </trkpt>
      <trkpt lat="43.64111" lon="6.14618">
        <ele>519.1</ele>
        <time>2023-12-11T13:22:43Z</time>
      </trkpt>
      <trkpt lat="43.6412" lon="6.14621">
        <ele>519</ele>
        <time>2023-12-11T13:22:53Z</time>
      </trkpt>
      <trkpt lat="43.64129" lon="6.14625">
        <ele>519.1</ele>
        <time>2023-12-11T13:23:03Z</time>
      </trkpt>
      <trkpt lat="43.64139" lon="6.14627">
        <ele>519.4</ele>
        <time>2023-12-11T13:23:14Z</time>
      </trkpt>
      <trkpt lat="43.64148" lon="6.14629">
        <ele>519.9</ele>
        <time>2023-12-11T13:23:24Z</time>
      </trkpt>
      <trkpt lat="43.64157" lon="6.14636">
        <ele>520.8</ele>
        <time>2023-12-11T13:23:35Z</time>
      </trkpt>
      <trkpt lat="43.64165" lon="6.14643">
        <ele>520.9</ele>
        <time>2023-12-11T13:23:45Z</time>
      </trkpt>
      <trkpt lat="43.64173" lon="6.14651">
        <ele>520.1</ele>
        <time>2023-12-11T13:23:59Z</time>
      </trkpt>
      <trkpt lat="43.64182" lon="6.14655">
        <ele>519.2</ele>
        <time>2023-12-11T13:24:09Z</time>
      </trkpt>
      <trkpt lat="43.6419" lon="6.1466">
        <ele>519.3</ele>
        <time>2023-12-11T13:24:20Z</time>
      </trkpt>
      <trkpt lat="43.64199" lon="6.14663">
        <ele>520.2</ele>
        <time>2023-12-11T13:24:31Z</time>
      </trkpt>
      <trkpt lat="43.64207" lon="6.14669">
        <ele>519.7</ele>
        <time>2023-12-11T13:24:41Z</time>
      </trkpt>
      <trkpt lat="43.64215" lon="6.14675">
        <ele>519.9</ele>
        <time>2023-12-11T13:24:49Z</time>
      </trkpt>
      <trkpt lat="43.64219" lon="6.14687">
        <ele>523.3</ele>
        <time>2023-12-11T13:25:07Z</time>
      </trkpt>
      <trkpt lat="43.64224" lon="6.14697">
        <ele>524</ele>
        <time>2023-12-11T13:25:20Z</time>
      </trkpt>
      <trkpt lat="43.64228" lon="6.14709">
        <ele>522.2</ele>
        <time>2023-12-11T13:25:31Z</time>
      </trkpt>
      <trkpt lat="43.64235" lon="6.14717">
        <ele>525.6</ele>
        <time>2023-12-11T13:25:40Z</time>
      </trkpt>
      <trkpt lat="43.64243" lon="6.14724">
        <ele>526.3</ele>
        <time>2023-12-11T13:25:50Z</time>
      </trkpt>
      <trkpt lat="43.6425" lon="6.14733">
        <ele>526</ele>
        <time>2023-12-11T13:26:01Z</time>
      </trkpt>
      <trkpt lat="43.64258" lon="6.1474">
        <ele>526.1</ele>
        <time>2023-12-11T13:26:12Z</time>
      </trkpt>
      <trkpt lat="43.64266" lon="6.14749">
        <ele>526.3</ele>
        <time>2023-12-11T13:26:25Z</time>
      </trkpt>
      <trkpt lat="43.6427" lon="6.1476">
        <ele>526.8</ele>
        <time>2023-12-11T13:26:36Z</time>
      </trkpt>
      <trkpt lat="43.64272" lon="6.14773">
        <ele>527.3</ele>
        <time>2023-12-11T13:26:49Z</time>
      </trkpt>
      <trkpt lat="43.64273" lon="6.14785">
        <ele>527.4</ele>
        <time>2023-12-11T13:26:59Z</time>
      </trkpt>
      <trkpt lat="43.64275" lon="6.14798">
        <ele>528</ele>
        <time>2023-12-11T13:27:13Z</time>
      </trkpt>
      <trkpt lat="43.64277" lon="6.14811">
        <ele>528.5</ele>
        <time>2023-12-11T13:27:24Z</time>
      </trkpt>
      <trkpt lat="43.64281" lon="6.14822">
        <ele>528.7</ele>
        <time>2023-12-11T13:27:34Z</time>
      </trkpt>
      <trkpt lat="43.64287" lon="6.14832">
        <ele>528</ele>
        <time>2023-12-11T13:27:44Z</time>
      </trkpt>
      <trkpt lat="43.64293" lon="6.14842">
        <ele>532.3</ele>
        <time>2023-12-11T13:27:55Z</time>
      </trkpt>
      <trkpt lat="43.643" lon="6.1485">
        <ele>530.3</ele>
        <time>2023-12-11T13:28:05Z</time>
      </trkpt>
      <trkpt lat="43.64309" lon="6.14857">
        <ele>529.2</ele>
        <time>2023-12-11T13:28:15Z</time>
      </trkpt>
      <trkpt lat="43.64317" lon="6.14864">
        <ele>529</ele>
        <time>2023-12-11T13:28:26Z</time>
      </trkpt>
      <trkpt lat="43.64325" lon="6.14872">
        <ele>530.3</ele>
        <time>2023-12-11T13:28:38Z</time>
      </trkpt>
      <trkpt lat="43.64332" lon="6.14881">
        <ele>529.4</ele>
        <time>2023-12-11T13:28:49Z</time>
      </trkpt>
      <trkpt lat="43.64338" lon="6.14892">
        <ele>531.1</ele>
        <time>2023-12-11T13:28:58Z</time>
      </trkpt>
      <trkpt lat="43.64345" lon="6.149">
        <ele>532.3</ele>
        <time>2023-12-11T13:29:08Z</time>
      </trkpt>
      <trkpt lat="43.64352" lon="6.14909">
        <ele>533.7</ele>
        <time>2023-12-11T13:29:18Z</time>
      </trkpt>
      <trkpt lat="43.64356" lon="6.1492">
        <ele>535</ele>
        <time>2023-12-11T13:29:30Z</time>
      </trkpt>
      <trkpt lat="43.64364" lon="6.14929">
        <ele>528.5</ele>
        <time>2023-12-11T13:29:42Z</time>
      </trkpt>
      <trkpt lat="43.6437" lon="6.14938">
        <ele>536.6</ele>
        <time>2023-12-11T13:29:52Z</time>
      </trkpt>
      <trkpt lat="43.64377" lon="6.14947">
        <ele>537.3</ele>
        <time>2023-12-11T13:30:03Z</time>
      </trkpt>
      <trkpt lat="43.64385" lon="6.14956">
        <ele>536.5</ele>
        <time>2023-12-11T13:30:15Z</time>
      </trkpt>
      <trkpt lat="43.64391" lon="6.14966">
        <ele>537.9</ele>
        <time>2023-12-11T13:30:31Z</time>
      </trkpt>
      <trkpt lat="43.64396" lon="6.14976">
        <ele>538.4</ele>
        <time>2023-12-11T13:31:05Z</time>
      </trkpt>
      <trkpt lat="43.64405" lon="6.14981">
        <ele>538.5</ele>
        <time>2023-12-11T13:36:03Z</time>
      </trkpt>
      <trkpt lat="43.64415" lon="6.14985">
        <ele>538.5</ele>
        <time>2023-12-11T13:36:13Z</time>
      </trkpt>
      <trkpt lat="43.64423" lon="6.1499">
        <ele>538.8</ele>
        <time>2023-12-11T13:36:23Z</time>
      </trkpt>
      <trkpt lat="43.64431" lon="6.14996">
        <ele>539.4</ele>
        <time>2023-12-11T13:36:34Z</time>
      </trkpt>
      <trkpt lat="43.6444" lon="6.15001">
        <ele>539.8</ele>
        <time>2023-12-11T13:36:45Z</time>
      </trkpt>
      <trkpt lat="43.64449" lon="6.15006">
        <ele>540.5</ele>
        <time>2023-12-11T13:36:57Z</time>
      </trkpt>
      <trkpt lat="43.64457" lon="6.15013">
        <ele>541.2</ele>
        <time>2023-12-11T13:37:12Z</time>
      </trkpt>
      <trkpt lat="43.64467" lon="6.15015">
        <ele>541.4</ele>
        <time>2023-12-11T13:37:23Z</time>
      </trkpt>
      <trkpt lat="43.64476" lon="6.15014">
        <ele>541.9</ele>
        <time>2023-12-11T13:37:32Z</time>
      </trkpt>
      <trkpt lat="43.64486" lon="6.15015">
        <ele>541.8</ele>
        <time>2023-12-11T13:37:44Z</time>
      </trkpt>
      <trkpt lat="43.64495" lon="6.15015">
        <ele>542.1</ele>
        <time>2023-12-11T13:37:54Z</time>
      </trkpt>
      <trkpt lat="43.64505" lon="6.15011">
        <ele>542.1</ele>
        <time>2023-12-11T13:38:05Z</time>
      </trkpt>
      <trkpt lat="43.64514" lon="6.15008">
        <ele>542.1</ele>
        <time>2023-12-11T13:38:15Z</time>
      </trkpt>
      <trkpt lat="43.64523" lon="6.15005">
        <ele>542</ele>
        <time>2023-12-11T13:38:26Z</time>
      </trkpt>
      <trkpt lat="43.64533" lon="6.15004">
        <ele>541.6</ele>
        <time>2023-12-11T13:38:37Z</time>
      </trkpt>
      <trkpt lat="43.64543" lon="6.15003">
        <ele>541.4</ele>
        <time>2023-12-11T13:38:47Z</time>
      </trkpt>
      <trkpt lat="43.64553" lon="6.15003">
        <ele>541</ele>
        <time>2023-12-11T13:38:57Z</time>
      </trkpt>
      <trkpt lat="43.64562" lon="6.15004">
        <ele>540.7</ele>
        <time>2023-12-11T13:39:11Z</time>
      </trkpt>
      <trkpt lat="43.6457" lon="6.1501">
        <ele>538.5</ele>
        <time>2023-12-11T13:40:20Z</time>
      </trkpt>
      <trkpt lat="43.64574" lon="6.15022">
        <ele>537.5</ele>
        <time>2023-12-11T13:40:38Z</time>
      </trkpt>
      <trkpt lat="43.6458" lon="6.15031">
        <ele>536.9</ele>
        <time>2023-12-11T13:40:48Z</time>
      </trkpt>
      <trkpt lat="43.64588" lon="6.15038">
        <ele>536.9</ele>
        <time>2023-12-11T13:40:59Z</time>
      </trkpt>
      <trkpt lat="43.64596" lon="6.15045">
        <ele>534.6</ele>
        <time>2023-12-11T13:41:09Z</time>
      </trkpt>
      <trkpt lat="43.64605" lon="6.15049">
        <ele>533.3</ele>
        <time>2023-12-11T13:41:20Z</time>
      </trkpt>
      <trkpt lat="43.64614" lon="6.15052">
        <ele>530.9</ele>
        <time>2023-12-11T13:41:30Z</time>
      </trkpt>
      <trkpt lat="43.64621" lon="6.15061">
        <ele>531.8</ele>
        <time>2023-12-11T13:41:40Z</time>
      </trkpt>
      <trkpt lat="43.64622" lon="6.15073">
        <ele>533.3</ele>
        <time>2023-12-11T13:41:50Z</time>
      </trkpt>
      <trkpt lat="43.64621" lon="6.15086">
        <ele>533</ele>
        <time>2023-12-11T13:42:03Z</time>
      </trkpt>
      <trkpt lat="43.64627" lon="6.15097">
        <ele>532.2</ele>
        <time>2023-12-11T13:42:13Z</time>
      </trkpt>
      <trkpt lat="43.64626" lon="6.1511">
        <ele>531.3</ele>
        <time>2023-12-11T13:42:24Z</time>
      </trkpt>
      <trkpt lat="43.64625" lon="6.15123">
        <ele>530.7</ele>
        <time>2023-12-11T13:42:47Z</time>
      </trkpt>
      <trkpt lat="43.64621" lon="6.15135">
        <ele>529.2</ele>
        <time>2023-12-11T13:44:11Z</time>
      </trkpt>
      <trkpt lat="43.64619" lon="6.15148">
        <ele>529.2</ele>
        <time>2023-12-11T13:44:19Z</time>
      </trkpt>
      <trkpt lat="43.64619" lon="6.15161">
        <ele>529.3</ele>
        <time>2023-12-11T13:44:29Z</time>
      </trkpt>
      <trkpt lat="43.64621" lon="6.15174">
        <ele>529.2</ele>
        <time>2023-12-11T13:44:38Z</time>
      </trkpt>
      <trkpt lat="43.64618" lon="6.15186">
        <ele>528.7</ele>
        <time>2023-12-11T13:44:54Z</time>
      </trkpt>
      <trkpt lat="43.64618" lon="6.15199">
        <ele>528.7</ele>
        <time>2023-12-11T13:45:07Z</time>
      </trkpt>
      <trkpt lat="43.64621" lon="6.15211">
        <ele>528.9</ele>
        <time>2023-12-11T13:45:19Z</time>
      </trkpt>
      <trkpt lat="43.64617" lon="6.15223">
        <ele>528.6</ele>
        <time>2023-12-11T13:45:32Z</time>
      </trkpt>
      <trkpt lat="43.64615" lon="6.15236">
        <ele>528.5</ele>
        <time>2023-12-11T13:45:43Z</time>
      </trkpt>
      <trkpt lat="43.64613" lon="6.15249">
        <ele>528.3</ele>
        <time>2023-12-11T13:45:56Z</time>
      </trkpt>
      <trkpt lat="43.64611" lon="6.15262">
        <ele>528.2</ele>
        <time>2023-12-11T13:46:06Z</time>
      </trkpt>
      <trkpt lat="43.64609" lon="6.15275">
        <ele>527.9</ele>
        <time>2023-12-11T13:46:18Z</time>
      </trkpt>
      <trkpt lat="43.64607" lon="6.15288">
        <ele>527.5</ele>
        <time>2023-12-11T13:46:30Z</time>
      </trkpt>
      <trkpt lat="43.64604" lon="6.15301">
        <ele>527.3</ele>
        <time>2023-12-11T13:46:42Z</time>
      </trkpt>
      <trkpt lat="43.646" lon="6.15312">
        <ele>527.1</ele>
        <time>2023-12-11T13:46:55Z</time>
      </trkpt>
      <trkpt lat="43.64596" lon="6.15324">
        <ele>526.8</ele>
        <time>2023-12-11T13:47:06Z</time>
      </trkpt>
      <trkpt lat="43.64592" lon="6.15336">
        <ele>527</ele>
        <time>2023-12-11T13:47:18Z</time>
      </trkpt>
      <trkpt lat="43.64588" lon="6.15348">
        <ele>527</ele>
        <time>2023-12-11T13:47:29Z</time>
      </trkpt>
      <trkpt lat="43.64585" lon="6.1536">
        <ele>526.9</ele>
        <time>2023-12-11T13:47:46Z</time>
      </trkpt>
      <trkpt lat="43.6458" lon="6.15371">
        <ele>526.8</ele>
        <time>2023-12-11T13:47:57Z</time>
      </trkpt>
      <trkpt lat="43.64575" lon="6.15382">
        <ele>526.7</ele>
        <time>2023-12-11T13:48:07Z</time>
      </trkpt>
      <trkpt lat="43.6457" lon="6.15393">
        <ele>526.5</ele>
        <time>2023-12-11T13:48:23Z</time>
      </trkpt>
      <trkpt lat="43.6457" lon="6.15405">
        <ele>526</ele>
        <time>2023-12-11T13:48:35Z</time>
      </trkpt>
      <trkpt lat="43.64572" lon="6.15418">
        <ele>525.2</ele>
        <time>2023-12-11T13:48:45Z</time>
      </trkpt>
      <trkpt lat="43.64577" lon="6.15428">
        <ele>524.5</ele>
        <time>2023-12-11T13:49:05Z</time>
      </trkpt>
      <trkpt lat="43.64572" lon="6.15439">
        <ele>524.7</ele>
        <time>2023-12-11T13:49:44Z</time>
      </trkpt>
      <trkpt lat="43.64569" lon="6.15451">
        <ele>522</ele>
        <time>2023-12-11T13:50:15Z</time>
      </trkpt>
      <trkpt lat="43.64562" lon="6.15459">
        <ele>524.9</ele>
        <time>2023-12-11T13:50:55Z</time>
      </trkpt>
      <trkpt lat="43.64555" lon="6.15466">
        <ele>522.9</ele>
        <time>2023-12-11T13:51:10Z</time>
      </trkpt>
      <trkpt lat="43.64549" lon="6.15477">
        <ele>524.1</ele>
        <time>2023-12-11T13:51:23Z</time>
      </trkpt>
      <trkpt lat="43.64542" lon="6.15486">
        <ele>525.4</ele>
        <time>2023-12-11T13:51:33Z</time>
      </trkpt>
      <trkpt lat="43.64537" lon="6.15497">
        <ele>526.7</ele>
        <time>2023-12-11T13:51:44Z</time>
      </trkpt>
      <trkpt lat="43.64533" lon="6.15509">
        <ele>523.7</ele>
        <time>2023-12-11T13:52:01Z</time>
      </trkpt>
      <trkpt lat="43.64529" lon="6.15522">
        <ele>522.8</ele>
        <time>2023-12-11T13:52:17Z</time>
      </trkpt>
      <trkpt lat="43.64524" lon="6.15534">
        <ele>522.5</ele>
        <time>2023-12-11T13:52:40Z</time>
      </trkpt>
      <trkpt lat="43.64519" lon="6.15544">
        <ele>522.9</ele>
        <time>2023-12-11T13:53:08Z</time>
      </trkpt>
      <trkpt lat="43.6452" lon="6.15557">
        <ele>523.3</ele>
        <time>2023-12-11T13:53:41Z</time>
      </trkpt>
      <trkpt lat="43.64516" lon="6.15568">
        <ele>523.5</ele>
        <time>2023-12-11T13:53:53Z</time>
      </trkpt>
      <trkpt lat="43.64511" lon="6.15579">
        <ele>523.3</ele>
        <time>2023-12-11T13:54:04Z</time>
      </trkpt>
      <trkpt lat="43.64505" lon="6.15589">
        <ele>521.2</ele>
        <time>2023-12-11T13:54:21Z</time>
      </trkpt>
      <trkpt lat="43.64501" lon="6.156">
        <ele>522.6</ele>
        <time>2023-12-11T13:54:49Z</time>
      </trkpt>
      <trkpt lat="43.64494" lon="6.15609">
        <ele>525.5</ele>
        <time>2023-12-11T13:55:04Z</time>
      </trkpt>
      <trkpt lat="43.64484" lon="6.15611">
        <ele>525.6</ele>
        <time>2023-12-11T13:55:55Z</time>
      </trkpt>
      <trkpt lat="43.64476" lon="6.15615">
        <ele>521.7</ele>
        <time>2023-12-11T13:56:07Z</time>
      </trkpt>
      <trkpt lat="43.64469" lon="6.15624">
        <ele>519.1</ele>
        <time>2023-12-11T13:56:25Z</time>
      </trkpt>
      <trkpt lat="43.64468" lon="6.15637">
        <ele>523.4</ele>
        <time>2023-12-11T13:56:44Z</time>
      </trkpt>
      <trkpt lat="43.6446" lon="6.15647">
        <ele>525.6</ele>
        <time>2023-12-11T13:56:53Z</time>
      </trkpt>
      <trkpt lat="43.64452" lon="6.15653">
        <ele>525.6</ele>
        <time>2023-12-11T13:57:04Z</time>
      </trkpt>
      <trkpt lat="43.64445" lon="6.1566">
        <ele>522.5</ele>
        <time>2023-12-11T13:57:13Z</time>
      </trkpt>
      <trkpt lat="43.64436" lon="6.15667">
        <ele>521.3</ele>
        <time>2023-12-11T13:57:24Z</time>
      </trkpt>
      <trkpt lat="43.6443" lon="6.15675">
        <ele>523.5</ele>
        <time>2023-12-11T13:57:34Z</time>
      </trkpt>
      <trkpt lat="43.64421" lon="6.1568">
        <ele>523.2</ele>
        <time>2023-12-11T13:57:45Z</time>
      </trkpt>
      <trkpt lat="43.64415" lon="6.15689">
        <ele>519</ele>
        <time>2023-12-11T13:58:06Z</time>
      </trkpt>
      <trkpt lat="43.64407" lon="6.15682">
        <ele>519</ele>
        <time>2023-12-11T13:58:37Z</time>
      </trkpt>
      <trkpt lat="43.64413" lon="6.15691">
        <ele>520.8</ele>
        <time>2023-12-11T14:00:09Z</time>
      </trkpt>
      <trkpt lat="43.64418" lon="6.15703">
        <ele>518.4</ele>
        <time>2023-12-11T14:03:57Z</time>
      </trkpt>
      <trkpt lat="43.64424" lon="6.15713">
        <ele>518.5</ele>
        <time>2023-12-11T14:04:07Z</time>
      </trkpt>
      <trkpt lat="43.64429" lon="6.15725">
        <ele>519.8</ele>
        <time>2023-12-11T14:04:16Z</time>
      </trkpt>
      <trkpt lat="43.64435" lon="6.15735">
        <ele>517.3</ele>
        <time>2023-12-11T14:04:25Z</time>
      </trkpt>
      <trkpt lat="43.6444" lon="6.15747">
        <ele>517.8</ele>
        <time>2023-12-11T14:04:35Z</time>
      </trkpt>
      <trkpt lat="43.64446" lon="6.15758">
        <ele>519</ele>
        <time>2023-12-11T14:04:43Z</time>
      </trkpt>
      <trkpt lat="43.64449" lon="6.15769">
        <ele>517.9</ele>
        <time>2023-12-11T14:04:53Z</time>
      </trkpt>
      <trkpt lat="43.64455" lon="6.15781">
        <ele>515.8</ele>
        <time>2023-12-11T14:05:03Z</time>
      </trkpt>
      <trkpt lat="43.6446" lon="6.15792">
        <ele>513.5</ele>
        <time>2023-12-11T14:05:14Z</time>
      </trkpt>
      <trkpt lat="43.64466" lon="6.15802">
        <ele>514.6</ele>
        <time>2023-12-11T14:05:36Z</time>
      </trkpt>
      <trkpt lat="43.64471" lon="6.15813">
        <ele>515.1</ele>
        <time>2023-12-11T14:05:54Z</time>
      </trkpt>
      <trkpt lat="43.64478" lon="6.1582">
        <ele>514.4</ele>
        <time>2023-12-11T14:06:09Z</time>
      </trkpt>
      <trkpt lat="43.64483" lon="6.15831">
        <ele>514.6</ele>
        <time>2023-12-11T14:06:20Z</time>
      </trkpt>
      <trkpt lat="43.64488" lon="6.15842">
        <ele>513.9</ele>
        <time>2023-12-11T14:06:30Z</time>
      </trkpt>
      <trkpt lat="43.64493" lon="6.15852">
        <ele>513.4</ele>
        <time>2023-12-11T14:06:44Z</time>
      </trkpt>
      <trkpt lat="43.645" lon="6.15861">
        <ele>512.9</ele>
        <time>2023-12-11T14:06:56Z</time>
      </trkpt>
      <trkpt lat="43.64508" lon="6.15867">
        <ele>512.5</ele>
        <time>2023-12-11T14:07:08Z</time>
      </trkpt>
      <trkpt lat="43.64517" lon="6.15872">
        <ele>512.8</ele>
        <time>2023-12-11T14:07:23Z</time>
      </trkpt>
      <trkpt lat="43.64523" lon="6.15881">
        <ele>512.8</ele>
        <time>2023-12-11T14:07:35Z</time>
      </trkpt>
      <trkpt lat="43.6453" lon="6.1589">
        <ele>512.5</ele>
        <time>2023-12-11T14:07:47Z</time>
      </trkpt>
      <trkpt lat="43.64539" lon="6.15895">
        <ele>511.6</ele>
        <time>2023-12-11T14:08:00Z</time>
      </trkpt>
      <trkpt lat="43.64548" lon="6.15901">
        <ele>511.2</ele>
        <time>2023-12-11T14:08:10Z</time>
      </trkpt>
      <trkpt lat="43.64556" lon="6.15907">
        <ele>510.8</ele>
        <time>2023-12-11T14:08:21Z</time>
      </trkpt>
      <trkpt lat="43.64566" lon="6.1591">
        <ele>510.3</ele>
        <time>2023-12-11T14:08:34Z</time>
      </trkpt>
      <trkpt lat="43.64575" lon="6.15914">
        <ele>509.7</ele>
        <time>2023-12-11T14:08:45Z</time>
      </trkpt>
      <trkpt lat="43.64583" lon="6.15921">
        <ele>505.1</ele>
        <time>2023-12-11T14:08:57Z</time>
      </trkpt>
      <trkpt lat="43.64592" lon="6.15928">
        <ele>510.8</ele>
        <time>2023-12-11T14:09:10Z</time>
      </trkpt>
      <trkpt lat="43.64599" lon="6.15935">
        <ele>509.6</ele>
        <time>2023-12-11T14:09:19Z</time>
      </trkpt>
      <trkpt lat="43.64605" lon="6.15945">
        <ele>507.6</ele>
        <time>2023-12-11T14:09:30Z</time>
      </trkpt>
      <trkpt lat="43.64613" lon="6.15951">
        <ele>506.5</ele>
        <time>2023-12-11T14:09:42Z</time>
      </trkpt>
      <trkpt lat="43.64622" lon="6.15954">
        <ele>505</ele>
        <time>2023-12-11T14:10:02Z</time>
      </trkpt>
      <trkpt lat="43.64632" lon="6.15951">
        <ele>504.2</ele>
        <time>2023-12-11T14:10:16Z</time>
      </trkpt>
      <trkpt lat="43.64641" lon="6.15952">
        <ele>503.2</ele>
        <time>2023-12-11T14:10:30Z</time>
      </trkpt>
      <trkpt lat="43.6465" lon="6.15954">
        <ele>502.3</ele>
        <time>2023-12-11T14:10:41Z</time>
      </trkpt>
      <trkpt lat="43.6466" lon="6.15955">
        <ele>500.6</ele>
        <time>2023-12-11T14:10:55Z</time>
      </trkpt>
      <trkpt lat="43.64669" lon="6.15959">
        <ele>498.3</ele>
        <time>2023-12-11T14:11:08Z</time>
      </trkpt>
      <trkpt lat="43.64666" lon="6.15972">
        <ele>496.6</ele>
        <time>2023-12-11T14:11:35Z</time>
      </trkpt>
      <trkpt lat="43.64662" lon="6.15983">
        <ele>496.8</ele>
        <time>2023-12-11T14:12:11Z</time>
      </trkpt>
      <trkpt lat="43.64655" lon="6.15992">
        <ele>496</ele>
        <time>2023-12-11T14:14:09Z</time>
      </trkpt>
      <trkpt lat="43.64652" lon="6.16004">
        <ele>494.1</ele>
        <time>2023-12-11T14:14:44Z</time>
      </trkpt>
      <trkpt lat="43.64651" lon="6.16017">
        <ele>494</ele>
        <time>2023-12-11T14:14:54Z</time>
      </trkpt>
      <trkpt lat="43.64648" lon="6.16029">
        <ele>493</ele>
        <time>2023-12-11T14:15:07Z</time>
      </trkpt>
      <trkpt lat="43.64644" lon="6.16041">
        <ele>491.6</ele>
        <time>2023-12-11T14:15:24Z</time>
      </trkpt>
      <trkpt lat="43.64644" lon="6.16054">
        <ele>489.8</ele>
        <time>2023-12-11T14:15:40Z</time>
      </trkpt>
      <trkpt lat="43.64646" lon="6.16066">
        <ele>488.5</ele>
        <time>2023-12-11T14:16:01Z</time>
      </trkpt>
      <trkpt lat="43.64647" lon="6.16079">
        <ele>488</ele>
        <time>2023-12-11T14:16:16Z</time>
      </trkpt>
      <trkpt lat="43.64648" lon="6.16091">
        <ele>487.4</ele>
        <time>2023-12-11T14:16:26Z</time>
      </trkpt>
      <trkpt lat="43.64651" lon="6.16104">
        <ele>485.1</ele>
        <time>2023-12-11T14:16:37Z</time>
      </trkpt>
      <trkpt lat="43.64654" lon="6.16117">
        <ele>483.9</ele>
        <time>2023-12-11T14:16:48Z</time>
      </trkpt>
      <trkpt lat="43.64659" lon="6.16128">
        <ele>482.9</ele>
        <time>2023-12-11T14:16:58Z</time>
      </trkpt>
      <trkpt lat="43.64662" lon="6.16139">
        <ele>483.1</ele>
        <time>2023-12-11T14:17:07Z</time>
      </trkpt>
      <trkpt lat="43.64666" lon="6.16152">
        <ele>483</ele>
        <time>2023-12-11T14:17:17Z</time>
      </trkpt>
      <trkpt lat="43.64671" lon="6.16163">
        <ele>483.6</ele>
        <time>2023-12-11T14:17:27Z</time>
      </trkpt>
      <trkpt lat="43.64678" lon="6.16172">
        <ele>483.3</ele>
        <time>2023-12-11T14:17:37Z</time>
      </trkpt>
      <trkpt lat="43.64687" lon="6.16178">
        <ele>483.2</ele>
        <time>2023-12-11T14:17:48Z</time>
      </trkpt>
      <trkpt lat="43.64695" lon="6.16184">
        <ele>485.6</ele>
        <time>2023-12-11T14:18:10Z</time>
      </trkpt>
      <trkpt lat="43.64705" lon="6.16186">
        <ele>486.6</ele>
        <time>2023-12-11T14:18:25Z</time>
      </trkpt>
      <trkpt lat="43.64714" lon="6.16187">
        <ele>485.5</ele>
        <time>2023-12-11T14:18:35Z</time>
      </trkpt>
      <trkpt lat="43.64723" lon="6.16189">
        <ele>485.9</ele>
        <time>2023-12-11T14:18:45Z</time>
      </trkpt>
      <trkpt lat="43.64733" lon="6.1619">
        <ele>486.5</ele>
        <time>2023-12-11T14:18:56Z</time>
      </trkpt>
      <trkpt lat="43.64743" lon="6.16193">
        <ele>487.1</ele>
        <time>2023-12-11T14:19:07Z</time>
      </trkpt>
      <trkpt lat="43.64752" lon="6.16195">
        <ele>488.5</ele>
        <time>2023-12-11T14:19:16Z</time>
      </trkpt>
      <trkpt lat="43.6476" lon="6.16197">
        <ele>488.6</ele>
        <time>2023-12-11T14:19:27Z</time>
      </trkpt>
      <trkpt lat="43.6477" lon="6.16199">
        <ele>488.8</ele>
        <time>2023-12-11T14:19:37Z</time>
      </trkpt>
      <trkpt lat="43.64779" lon="6.16202">
        <ele>489.7</ele>
        <time>2023-12-11T14:19:46Z</time>
      </trkpt>
      <trkpt lat="43.64788" lon="6.16206">
        <ele>491.5</ele>
        <time>2023-12-11T14:19:56Z</time>
      </trkpt>
      <trkpt lat="43.64797" lon="6.16211">
        <ele>491.5</ele>
        <time>2023-12-11T14:20:06Z</time>
      </trkpt>
      <trkpt lat="43.64805" lon="6.16217">
        <ele>491.3</ele>
        <time>2023-12-11T14:20:16Z</time>
      </trkpt>
      <trkpt lat="43.64813" lon="6.16224">
        <ele>491.7</ele>
        <time>2023-12-11T14:20:27Z</time>
      </trkpt>
      <trkpt lat="43.64823" lon="6.16226">
        <ele>492.3</ele>
        <time>2023-12-11T14:20:39Z</time>
      </trkpt>
      <trkpt lat="43.64832" lon="6.16226">
        <ele>493.3</ele>
        <time>2023-12-11T14:20:51Z</time>
      </trkpt>
      <trkpt lat="43.64841" lon="6.16231">
        <ele>494.5</ele>
        <time>2023-12-11T14:21:00Z</time>
      </trkpt>
      <trkpt lat="43.6485" lon="6.16237">
        <ele>495</ele>
        <time>2023-12-11T14:21:10Z</time>
      </trkpt>
      <trkpt lat="43.64859" lon="6.16241">
        <ele>495.5</ele>
        <time>2023-12-11T14:21:20Z</time>
      </trkpt>
      <trkpt lat="43.64868" lon="6.16243">
        <ele>496.5</ele>
        <time>2023-12-11T14:21:28Z</time>
      </trkpt>
      <trkpt lat="43.64877" lon="6.16245">
        <ele>497.5</ele>
        <time>2023-12-11T14:21:39Z</time>
      </trkpt>
      <trkpt lat="43.64887" lon="6.16247">
        <ele>498.1</ele>
        <time>2023-12-11T14:21:51Z</time>
      </trkpt>
      <trkpt lat="43.64897" lon="6.16247">
        <ele>500</ele>
        <time>2023-12-11T14:22:01Z</time>
      </trkpt>
      <trkpt lat="43.64905" lon="6.16252">
        <ele>500.5</ele>
        <time>2023-12-11T14:22:11Z</time>
      </trkpt>
      <trkpt lat="43.64913" lon="6.1626">
        <ele>501.2</ele>
        <time>2023-12-11T14:22:24Z</time>
      </trkpt>
      <trkpt lat="43.6492" lon="6.1627">
        <ele>501.9</ele>
        <time>2023-12-11T14:22:34Z</time>
      </trkpt>
      <trkpt lat="43.64925" lon="6.1628">
        <ele>502.3</ele>
        <time>2023-12-11T14:22:43Z</time>
      </trkpt>
      <trkpt lat="43.6493" lon="6.16292">
        <ele>503.7</ele>
        <time>2023-12-11T14:22:56Z</time>
      </trkpt>
      <trkpt lat="43.64936" lon="6.16301">
        <ele>504.5</ele>
        <time>2023-12-11T14:23:09Z</time>
      </trkpt>
      <trkpt lat="43.64945" lon="6.16301">
        <ele>505.9</ele>
        <time>2023-12-11T14:23:25Z</time>
      </trkpt>
      <trkpt lat="43.64955" lon="6.16302">
        <ele>506.5</ele>
        <time>2023-12-11T14:23:35Z</time>
      </trkpt>
      <trkpt lat="43.64964" lon="6.16306">
        <ele>507.2</ele>
        <time>2023-12-11T14:23:47Z</time>
      </trkpt>
      <trkpt lat="43.64973" lon="6.1631">
        <ele>507.8</ele>
        <time>2023-12-11T14:24:39Z</time>
      </trkpt>
      <trkpt lat="43.64982" lon="6.16309">
        <ele>508.5</ele>
        <time>2023-12-11T14:25:00Z</time>
      </trkpt>
      <trkpt lat="43.64992" lon="6.16307">
        <ele>510</ele>
        <time>2023-12-11T14:25:20Z</time>
      </trkpt>
      <trkpt lat="43.65" lon="6.16304">
        <ele>512.2</ele>
        <time>2023-12-11T14:25:46Z</time>
      </trkpt>
      <trkpt lat="43.65009" lon="6.16307">
        <ele>513.5</ele>
        <time>2023-12-11T14:26:06Z</time>
      </trkpt>
      <trkpt lat="43.65016" lon="6.16316">
        <ele>513.4</ele>
        <time>2023-12-11T14:26:53Z</time>
      </trkpt>
      <trkpt lat="43.65021" lon="6.16326">
        <ele>513.6</ele>
        <time>2023-12-11T14:27:41Z</time>
      </trkpt>
      <trkpt lat="43.65022" lon="6.16339">
        <ele>513.9</ele>
        <time>2023-12-11T14:27:55Z</time>
      </trkpt>
      <trkpt lat="43.65023" lon="6.16352">
        <ele>514</ele>
        <time>2023-12-11T14:28:07Z</time>
      </trkpt>
      <trkpt lat="43.65022" lon="6.16365">
        <ele>514.1</ele>
        <time>2023-12-11T14:28:18Z</time>
      </trkpt>
      <trkpt lat="43.65019" lon="6.16377">
        <ele>514.2</ele>
        <time>2023-12-11T14:28:32Z</time>
      </trkpt>
      <trkpt lat="43.65028" lon="6.16378">
        <ele>515</ele>
        <time>2023-12-11T14:30:12Z</time>
      </trkpt>
      <trkpt lat="43.65037" lon="6.16372">
        <ele>515.6</ele>
        <time>2023-12-11T14:30:22Z</time>
      </trkpt>
      <trkpt lat="43.65045" lon="6.16367">
        <ele>516.8</ele>
        <time>2023-12-11T14:30:36Z</time>
      </trkpt>
      <trkpt lat="43.65054" lon="6.16369">
        <ele>518.2</ele>
        <time>2023-12-11T14:30:51Z</time>
      </trkpt>
      <trkpt lat="43.65064" lon="6.16372">
        <ele>519.7</ele>
        <time>2023-12-11T14:31:02Z</time>
      </trkpt>
      <trkpt lat="43.65072" lon="6.16379">
        <ele>520.7</ele>
        <time>2023-12-11T14:31:14Z</time>
      </trkpt>
      <trkpt lat="43.65081" lon="6.16383">
        <ele>522</ele>
        <time>2023-12-11T14:31:31Z</time>
      </trkpt>
      <trkpt lat="43.6509" lon="6.16389">
        <ele>523.3</ele>
        <time>2023-12-11T14:31:43Z</time>
      </trkpt>
      <trkpt lat="43.65098" lon="6.16395">
        <ele>525.2</ele>
        <time>2023-12-11T14:31:57Z</time>
      </trkpt>
      <trkpt lat="43.65105" lon="6.16402">
        <ele>527.4</ele>
        <time>2023-12-11T14:32:11Z</time>
      </trkpt>
      <trkpt lat="43.65113" lon="6.16409">
        <ele>528.9</ele>
        <time>2023-12-11T14:32:21Z</time>
      </trkpt>
      <trkpt lat="43.65121" lon="6.16416">
        <ele>531.7</ele>
        <time>2023-12-11T14:32:40Z</time>
      </trkpt>
      <trkpt lat="43.65128" lon="6.16423">
        <ele>533.3</ele>
        <time>2023-12-11T14:32:55Z</time>
      </trkpt>
      <trkpt lat="43.65137" lon="6.1643">
        <ele>534.9</ele>
        <time>2023-12-11T14:33:07Z</time>
      </trkpt>
      <trkpt lat="43.65145" lon="6.16434">
        <ele>536</ele>
        <time>2023-12-11T14:33:19Z</time>
      </trkpt>
      <trkpt lat="43.65154" lon="6.16438">
        <ele>539.6</ele>
        <time>2023-12-11T14:33:38Z</time>
      </trkpt>
      <trkpt lat="43.65164" lon="6.16438">
        <ele>541</ele>
        <time>2023-12-11T14:33:56Z</time>
      </trkpt>
      <trkpt lat="43.65173" lon="6.16439">
        <ele>544.2</ele>
        <time>2023-12-11T14:34:24Z</time>
      </trkpt>
      <trkpt lat="43.6518" lon="6.16448">
        <ele>545.7</ele>
        <time>2023-12-11T14:35:04Z</time>
      </trkpt>
      <trkpt lat="43.65183" lon="6.1646">
        <ele>546.1</ele>
        <time>2023-12-11T14:35:16Z</time>
      </trkpt>
      <trkpt lat="43.65185" lon="6.16472">
        <ele>549.5</ele>
        <time>2023-12-11T14:35:31Z</time>
      </trkpt>
      <trkpt lat="43.65186" lon="6.16485">
        <ele>551.2</ele>
        <time>2023-12-11T14:35:59Z</time>
      </trkpt>
      <trkpt lat="43.65184" lon="6.16497">
        <ele>552.5</ele>
        <time>2023-12-11T14:36:29Z</time>
      </trkpt>
      <trkpt lat="43.65182" lon="6.16509">
        <ele>555.3</ele>
        <time>2023-12-11T14:36:43Z</time>
      </trkpt>
      <trkpt lat="43.65186" lon="6.16521">
        <ele>556.7</ele>
        <time>2023-12-11T14:38:19Z</time>
      </trkpt>
      <trkpt lat="43.65187" lon="6.16534">
        <ele>557.6</ele>
        <time>2023-12-11T14:38:31Z</time>
      </trkpt>
      <trkpt lat="43.6519" lon="6.16547">
        <ele>558</ele>
        <time>2023-12-11T14:38:45Z</time>
      </trkpt>
      <trkpt lat="43.65193" lon="6.16559">
        <ele>562.8</ele>
        <time>2023-12-11T14:39:06Z</time>
      </trkpt>
      <trkpt lat="43.65195" lon="6.16571">
        <ele>564.8</ele>
        <time>2023-12-11T14:41:26Z</time>
      </trkpt>
      <trkpt lat="43.65199" lon="6.16582">
        <ele>566</ele>
        <time>2023-12-11T14:41:45Z</time>
      </trkpt>
      <trkpt lat="43.65207" lon="6.16591">
        <ele>570.6</ele>
        <time>2023-12-11T14:42:17Z</time>
      </trkpt>
      <trkpt lat="43.65209" lon="6.16578">
        <ele>571.9</ele>
        <time>2023-12-11T14:43:06Z</time>
      </trkpt>
      <trkpt lat="43.65218" lon="6.16583">
        <ele>575.8</ele>
        <time>2023-12-11T14:43:41Z</time>
      </trkpt>
      <trkpt lat="43.65226" lon="6.16593">
        <ele>576.6</ele>
        <time>2023-12-11T14:43:53Z</time>
      </trkpt>
      <trkpt lat="43.65228" lon="6.1658">
        <ele>580.8</ele>
        <time>2023-12-11T14:44:40Z</time>
      </trkpt>
      <trkpt lat="43.65229" lon="6.16567">
        <ele>580.8</ele>
        <time>2023-12-11T14:44:58Z</time>
      </trkpt>
      <trkpt lat="43.65228" lon="6.16554">
        <ele>582.2</ele>
        <time>2023-12-11T14:45:44Z</time>
      </trkpt>
      <trkpt lat="43.65234" lon="6.16544">
        <ele>581.6</ele>
        <time>2023-12-11T14:46:43Z</time>
      </trkpt>
      <trkpt lat="43.65237" lon="6.16532">
        <ele>583.3</ele>
        <time>2023-12-11T14:47:10Z</time>
      </trkpt>
      <trkpt lat="43.65245" lon="6.16525">
        <ele>584.8</ele>
        <time>2023-12-11T14:47:34Z</time>
      </trkpt>
      <trkpt lat="43.65253" lon="6.16518">
        <ele>585.9</ele>
        <time>2023-12-11T14:47:46Z</time>
      </trkpt>
      <trkpt lat="43.65261" lon="6.16511">
        <ele>587.1</ele>
        <time>2023-12-11T14:47:57Z</time>
      </trkpt>
      <trkpt lat="43.65269" lon="6.16504">
        <ele>588.2</ele>
        <time>2023-12-11T14:48:09Z</time>
      </trkpt>
      <trkpt lat="43.65278" lon="6.16497">
        <ele>589</ele>
        <time>2023-12-11T14:48:18Z</time>
      </trkpt>
      <trkpt lat="43.65285" lon="6.16489">
        <ele>589.7</ele>
        <time>2023-12-11T14:48:31Z</time>
      </trkpt>
      <trkpt lat="43.65289" lon="6.16476">
        <ele>590.4</ele>
        <time>2023-12-11T14:48:42Z</time>
      </trkpt>
      <trkpt lat="43.65293" lon="6.16464">
        <ele>590.6</ele>
        <time>2023-12-11T14:48:52Z</time>
      </trkpt>
      <trkpt lat="43.65293" lon="6.16451">
        <ele>590.6</ele>
        <time>2023-12-11T14:49:01Z</time>
      </trkpt>
      <trkpt lat="43.65296" lon="6.16439">
        <ele>590.6</ele>
        <time>2023-12-11T14:49:11Z</time>
      </trkpt>
      <trkpt lat="43.65298" lon="6.16426">
        <ele>590.6</ele>
        <time>2023-12-11T14:49:22Z</time>
      </trkpt>
      <trkpt lat="43.65299" lon="6.16413">
        <ele>591.1</ele>
        <time>2023-12-11T14:49:33Z</time>
      </trkpt>
      <trkpt lat="43.65302" lon="6.16401">
        <ele>591.7</ele>
        <time>2023-12-11T14:49:44Z</time>
      </trkpt>
      <trkpt lat="43.65298" lon="6.16389">
        <ele>592.8</ele>
        <time>2023-12-11T14:52:34Z</time>
      </trkpt>
      <trkpt lat="43.65294" lon="6.16376">
        <ele>592.4</ele>
        <time>2023-12-11T14:52:44Z</time>
      </trkpt>
      <trkpt lat="43.6529" lon="6.16364">
        <ele>591.9</ele>
        <time>2023-12-11T14:52:54Z</time>
      </trkpt>
      <trkpt lat="43.65286" lon="6.16353">
        <ele>591</ele>
        <time>2023-12-11T14:53:09Z</time>
      </trkpt>
      <trkpt lat="43.65282" lon="6.16342">
        <ele>590.5</ele>
        <time>2023-12-11T14:53:22Z</time>
      </trkpt>
      <trkpt lat="43.65278" lon="6.1633">
        <ele>590.2</ele>
        <time>2023-12-11T14:53:32Z</time>
      </trkpt>
      <trkpt lat="43.65275" lon="6.16317">
        <ele>589.3</ele>
        <time>2023-12-11T14:53:46Z</time>
      </trkpt>
      <trkpt lat="43.65273" lon="6.16305">
        <ele>588.6</ele>
        <time>2023-12-11T14:53:56Z</time>
      </trkpt>
      <trkpt lat="43.65271" lon="6.16291">
        <ele>587.9</ele>
        <time>2023-12-11T14:54:06Z</time>
      </trkpt>
      <trkpt lat="43.65272" lon="6.16277">
        <ele>586.9</ele>
        <time>2023-12-11T14:54:20Z</time>
      </trkpt>
      <trkpt lat="43.65274" lon="6.16265">
        <ele>586.7</ele>
        <time>2023-12-11T14:54:34Z</time>
      </trkpt>
      <trkpt lat="43.65271" lon="6.16253">
        <ele>586.5</ele>
        <time>2023-12-11T14:54:51Z</time>
      </trkpt>
      <trkpt lat="43.6527" lon="6.16239">
        <ele>586.1</ele>
        <time>2023-12-11T14:55:05Z</time>
      </trkpt>
      <trkpt lat="43.65268" lon="6.16227">
        <ele>585.3</ele>
        <time>2023-12-11T14:55:15Z</time>
      </trkpt>
      <trkpt lat="43.65267" lon="6.16213">
        <ele>584.4</ele>
        <time>2023-12-11T14:55:26Z</time>
      </trkpt>
      <trkpt lat="43.65267" lon="6.162">
        <ele>583.5</ele>
        <time>2023-12-11T14:55:37Z</time>
      </trkpt>
      <trkpt lat="43.65263" lon="6.16188">
        <ele>582.6</ele>
        <time>2023-12-11T14:55:47Z</time>
      </trkpt>
      <trkpt lat="43.65258" lon="6.16177">
        <ele>581.7</ele>
        <time>2023-12-11T14:55:56Z</time>
      </trkpt>
      <trkpt lat="43.65254" lon="6.16165">
        <ele>580.7</ele>
        <time>2023-12-11T14:56:06Z</time>
      </trkpt>
      <trkpt lat="43.65246" lon="6.16158">
        <ele>579.4</ele>
        <time>2023-12-11T14:56:19Z</time>
      </trkpt>
      <trkpt lat="43.65237" lon="6.16155">
        <ele>578.2</ele>
        <time>2023-12-11T14:56:29Z</time>
      </trkpt>
      <trkpt lat="43.65228" lon="6.16152">
        <ele>577.6</ele>
        <time>2023-12-11T14:56:38Z</time>
      </trkpt>
      <trkpt lat="43.65221" lon="6.16143">
        <ele>576.2</ele>
        <time>2023-12-11T14:57:12Z</time>
      </trkpt>
      <trkpt lat="43.65227" lon="6.16153">
        <ele>576.1</ele>
        <time>2023-12-11T15:01:50Z</time>
      </trkpt>
      <trkpt lat="43.65227" lon="6.16166">
        <ele>575.7</ele>
        <time>2023-12-11T15:02:02Z</time>
      </trkpt>
      <trkpt lat="43.65224" lon="6.16154">
        <ele>575.2</ele>
        <time>2023-12-11T15:02:21Z</time>
      </trkpt>
      <trkpt lat="43.65217" lon="6.16161">
        <ele>575.1</ele>
        <time>2023-12-11T15:02:50Z</time>
      </trkpt>
      <trkpt lat="43.65223" lon="6.16151">
        <ele>575.3</ele>
        <time>2023-12-11T15:03:10Z</time>
      </trkpt>
      <trkpt lat="43.65232" lon="6.16148">
        <ele>576.6</ele>
        <time>2023-12-11T15:06:15Z</time>
      </trkpt>
      <trkpt lat="43.65241" lon="6.1615">
        <ele>576.6</ele>
        <time>2023-12-11T15:06:27Z</time>
      </trkpt>
      <trkpt lat="43.65249" lon="6.16155">
        <ele>576.9</ele>
        <time>2023-12-11T15:06:39Z</time>
      </trkpt>
      <trkpt lat="43.65256" lon="6.16164">
        <ele>577.6</ele>
        <time>2023-12-11T15:06:51Z</time>
      </trkpt>
      <trkpt lat="43.65262" lon="6.16175">
        <ele>578.8</ele>
        <time>2023-12-11T15:07:04Z</time>
      </trkpt>
      <trkpt lat="43.65266" lon="6.16186">
        <ele>579.6</ele>
        <time>2023-12-11T15:07:13Z</time>
      </trkpt>
      <trkpt lat="43.65269" lon="6.16198">
        <ele>580.2</ele>
        <time>2023-12-11T15:07:21Z</time>
      </trkpt>
      <trkpt lat="43.6527" lon="6.16211">
        <ele>581</ele>
        <time>2023-12-11T15:07:35Z</time>
      </trkpt>
      <trkpt lat="43.65272" lon="6.16224">
        <ele>581.9</ele>
        <time>2023-12-11T15:07:45Z</time>
      </trkpt>
      <trkpt lat="43.65273" lon="6.16237">
        <ele>582.6</ele>
        <time>2023-12-11T15:07:54Z</time>
      </trkpt>
      <trkpt lat="43.65272" lon="6.1625">
        <ele>583.5</ele>
        <time>2023-12-11T15:08:05Z</time>
      </trkpt>
      <trkpt lat="43.6527" lon="6.16263">
        <ele>583.8</ele>
        <time>2023-12-11T15:08:14Z</time>
      </trkpt>
      <trkpt lat="43.65272" lon="6.16276">
        <ele>584.1</ele>
        <time>2023-12-11T15:08:25Z</time>
      </trkpt>
      <trkpt lat="43.65274" lon="6.16289">
        <ele>584.4</ele>
        <time>2023-12-11T15:08:36Z</time>
      </trkpt>
      <trkpt lat="43.65275" lon="6.16302">
        <ele>585</ele>
        <time>2023-12-11T15:08:46Z</time>
      </trkpt>
      <trkpt lat="43.65278" lon="6.16314">
        <ele>585.6</ele>
        <time>2023-12-11T15:08:56Z</time>
      </trkpt>
      <trkpt lat="43.6528" lon="6.16326">
        <ele>586.3</ele>
        <time>2023-12-11T15:09:06Z</time>
      </trkpt>
      <trkpt lat="43.65282" lon="6.16339">
        <ele>586.9</ele>
        <time>2023-12-11T15:09:16Z</time>
      </trkpt>
      <trkpt lat="43.65286" lon="6.16351">
        <ele>587.6</ele>
        <time>2023-12-11T15:09:26Z</time>
      </trkpt>
      <trkpt lat="43.65291" lon="6.16363">
        <ele>588.3</ele>
        <time>2023-12-11T15:09:36Z</time>
      </trkpt>
      <trkpt lat="43.65295" lon="6.16376">
        <ele>588.9</ele>
        <time>2023-12-11T15:09:46Z</time>
      </trkpt>
      <trkpt lat="43.653" lon="6.16388">
        <ele>589.6</ele>
        <time>2023-12-11T15:09:55Z</time>
      </trkpt>
      <trkpt lat="43.65308" lon="6.16393">
        <ele>590.7</ele>
        <time>2023-12-11T15:10:05Z</time>
      </trkpt>
      <trkpt lat="43.65317" lon="6.16389">
        <ele>591.4</ele>
        <time>2023-12-11T15:10:17Z</time>
      </trkpt>
      <trkpt lat="43.65326" lon="6.16382">
        <ele>589.5</ele>
        <time>2023-12-11T15:10:27Z</time>
      </trkpt>
      <trkpt lat="43.65334" lon="6.16378">
        <ele>590.3</ele>
        <time>2023-12-11T15:10:39Z</time>
      </trkpt>
      <trkpt lat="43.65343" lon="6.16372">
        <ele>590</ele>
        <time>2023-12-11T15:10:50Z</time>
      </trkpt>
      <trkpt lat="43.65352" lon="6.16367">
        <ele>590.3</ele>
        <time>2023-12-11T15:10:59Z</time>
      </trkpt>
      <trkpt lat="43.6536" lon="6.16361">
        <ele>590.7</ele>
        <time>2023-12-11T15:11:08Z</time>
      </trkpt>
      <trkpt lat="43.65368" lon="6.16356">
        <ele>590.8</ele>
        <time>2023-12-11T15:11:16Z</time>
      </trkpt>
      <trkpt lat="43.65377" lon="6.16352">
        <ele>590.3</ele>
        <time>2023-12-11T15:11:26Z</time>
      </trkpt>
      <trkpt lat="43.65387" lon="6.16346">
        <ele>589.8</ele>
        <time>2023-12-11T15:11:36Z</time>
      </trkpt>
      <trkpt lat="43.65395" lon="6.16339">
        <ele>590.5</ele>
        <time>2023-12-11T15:11:47Z</time>
      </trkpt>
      <trkpt lat="43.65404" lon="6.16334">
        <ele>591.1</ele>
        <time>2023-12-11T15:11:57Z</time>
      </trkpt>
      <trkpt lat="43.65412" lon="6.16328">
        <ele>591.3</ele>
        <time>2023-12-11T15:12:07Z</time>
      </trkpt>
      <trkpt lat="43.65421" lon="6.16322">
        <ele>591.6</ele>
        <time>2023-12-11T15:12:17Z</time>
      </trkpt>
      <trkpt lat="43.65429" lon="6.16314">
        <ele>591.5</ele>
        <time>2023-12-11T15:12:25Z</time>
      </trkpt>
      <trkpt lat="43.65438" lon="6.16308">
        <ele>591</ele>
        <time>2023-12-11T15:12:35Z</time>
      </trkpt>
      <trkpt lat="43.65446" lon="6.16301">
        <ele>591</ele>
        <time>2023-12-11T15:12:44Z</time>
      </trkpt>
      <trkpt lat="43.65455" lon="6.16297">
        <ele>591.2</ele>
        <time>2023-12-11T15:12:54Z</time>
      </trkpt>
      <trkpt lat="43.65463" lon="6.1629">
        <ele>591.9</ele>
        <time>2023-12-11T15:13:05Z</time>
      </trkpt>
      <trkpt lat="43.65471" lon="6.16284">
        <ele>592.1</ele>
        <time>2023-12-11T15:13:14Z</time>
      </trkpt>
      <trkpt lat="43.6548" lon="6.16279">
        <ele>592.2</ele>
        <time>2023-12-11T15:13:21Z</time>
      </trkpt>
      <trkpt lat="43.65488" lon="6.16273">
        <ele>591.5</ele>
        <time>2023-12-11T15:13:32Z</time>
      </trkpt>
      <trkpt lat="43.65496" lon="6.16267">
        <ele>590.5</ele>
        <time>2023-12-11T15:13:42Z</time>
      </trkpt>
      <trkpt lat="43.65505" lon="6.16262">
        <ele>590</ele>
        <time>2023-12-11T15:13:52Z</time>
      </trkpt>
      <trkpt lat="43.65515" lon="6.16262">
        <ele>590.2</ele>
        <time>2023-12-11T15:14:02Z</time>
      </trkpt>
      <trkpt lat="43.65524" lon="6.16259">
        <ele>590.2</ele>
        <time>2023-12-11T15:14:11Z</time>
      </trkpt>
      <trkpt lat="43.65532" lon="6.16253">
        <ele>589.7</ele>
        <time>2023-12-11T15:14:21Z</time>
      </trkpt>
      <trkpt lat="43.6554" lon="6.16246">
        <ele>589.3</ele>
        <time>2023-12-11T15:14:31Z</time>
      </trkpt>
      <trkpt lat="43.65549" lon="6.16251">
        <ele>590.1</ele>
        <time>2023-12-11T15:14:46Z</time>
      </trkpt>
      <trkpt lat="43.65557" lon="6.16243">
        <ele>589.9</ele>
        <time>2023-12-11T15:15:59Z</time>
      </trkpt>
      <trkpt lat="43.65554" lon="6.16245">
        <ele>590</ele>
        <time>2023-12-11T15:16:25Z</time>
      </trkpt>
    </trkseg>
  </trk>
</gpx>